<?xml version="1.0" encoding="UTF-8" standalone="no" ?>
<gpx xmlns="http://www.topografix.com/GPX/1/1" xmlns:xsi="http://www.w3.org/2001/XMLSchema-instance" xsi:schemaLocation="http://www.topografix.com/GPX/1/1 http://www.topografix.com/GPX/1/1/gpx.xsd" version="1.1" creator="VisuGPX - https://www.visugpx.com">
  <metadata>
    <name>Col du Gleyzin par le vallon des Roches</name>
    <desc><![CDATA[Montee / descente dans le vallon jusqu'au col du Gleyzin.]]></desc>
  </metadata>
  <trk>
    <name><![CDATA[col_du_gleyzin]]></name>
    <trkseg>
      <trkpt lat="45.2906" lon="6.21835">
        <ele>1152</ele>
        <time>2016-01-30T07:20:46Z</time>
      </trkpt>
      <trkpt lat="45.29056" lon="6.21825">
        <ele>1151.5</ele>
        <time>2016-01-30T07:23:13Z</time>
      </trkpt>
      <trkpt lat="45.29056" lon="6.21824">
        <ele>1151.7</ele>
        <time>2016-01-30T07:23:14Z</time>
      </trkpt>
      <trkpt lat="45.29059" lon="6.21802">
        <ele>1153.9</ele>
        <time>2016-01-30T07:23:28Z</time>
      </trkpt>
      <trkpt lat="45.29061" lon="6.21791">
        <ele>1154.3</ele>
        <time>2016-01-30T07:23:36Z</time>
      </trkpt>
      <trkpt lat="45.29062" lon="6.21779">
        <ele>1155</ele>
        <time>2016-01-30T07:23:42Z</time>
      </trkpt>
      <trkpt lat="45.29063" lon="6.21768">
        <ele>1155.8</ele>
        <time>2016-01-30T07:23:49Z</time>
      </trkpt>
      <trkpt lat="45.29063" lon="6.21755">
        <ele>1156.8</ele>
        <time>2016-01-30T07:23:57Z</time>
      </trkpt>
      <trkpt lat="45.29065" lon="6.21745">
        <ele>1156.9</ele>
        <time>2016-01-30T07:24:02Z</time>
      </trkpt>
      <trkpt lat="45.29069" lon="6.21735">
        <ele>1159.1</ele>
        <time>2016-01-30T07:24:08Z</time>
      </trkpt>
      <trkpt lat="45.29073" lon="6.21724">
        <ele>1160.6</ele>
        <time>2016-01-30T07:24:14Z</time>
      </trkpt>
      <trkpt lat="45.29074" lon="6.21722">
        <ele>1160.9</ele>
        <time>2016-01-30T07:24:15Z</time>
      </trkpt>
      <trkpt lat="45.2908" lon="6.21702">
        <ele>1161.5</ele>
        <time>2016-01-30T07:24:26Z</time>
      </trkpt>
      <trkpt lat="45.29085" lon="6.21692">
        <ele>1163</ele>
        <time>2016-01-30T07:24:33Z</time>
      </trkpt>
      <trkpt lat="45.29084" lon="6.2168">
        <ele>1163.8</ele>
        <time>2016-01-30T07:24:50Z</time>
      </trkpt>
      <trkpt lat="45.29088" lon="6.21669">
        <ele>1165.9</ele>
        <time>2016-01-30T07:25:02Z</time>
      </trkpt>
      <trkpt lat="45.29093" lon="6.21658">
        <ele>1169.5</ele>
        <time>2016-01-30T07:25:24Z</time>
      </trkpt>
      <trkpt lat="45.29093" lon="6.21657">
        <ele>1169.9</ele>
        <time>2016-01-30T07:25:25Z</time>
      </trkpt>
      <trkpt lat="45.29107" lon="6.21645">
        <ele>1173.8</ele>
        <time>2016-01-30T07:25:47Z</time>
      </trkpt>
      <trkpt lat="45.2911" lon="6.21633">
        <ele>1173.6</ele>
        <time>2016-01-30T07:27:04Z</time>
      </trkpt>
      <trkpt lat="45.2911" lon="6.21633">
        <ele>1173.8</ele>
        <time>2016-01-30T07:27:05Z</time>
      </trkpt>
      <trkpt lat="45.29108" lon="6.21621">
        <ele>1177.2</ele>
        <time>2016-01-30T07:29:31Z</time>
      </trkpt>
      <trkpt lat="45.29111" lon="6.21598">
        <ele>1181.5</ele>
        <time>2016-01-30T07:29:55Z</time>
      </trkpt>
      <trkpt lat="45.29116" lon="6.21588">
        <ele>1184</ele>
        <time>2016-01-30T07:30:08Z</time>
      </trkpt>
      <trkpt lat="45.29122" lon="6.21578">
        <ele>1187.1</ele>
        <time>2016-01-30T07:30:20Z</time>
      </trkpt>
      <trkpt lat="45.29127" lon="6.21568">
        <ele>1189.2</ele>
        <time>2016-01-30T07:30:32Z</time>
      </trkpt>
      <trkpt lat="45.29127" lon="6.21567">
        <ele>1189.8</ele>
        <time>2016-01-30T07:30:33Z</time>
      </trkpt>
      <trkpt lat="45.29135" lon="6.21545">
        <ele>1194.3</ele>
        <time>2016-01-30T07:30:57Z</time>
      </trkpt>
      <trkpt lat="45.29141" lon="6.21537">
        <ele>1193.9</ele>
        <time>2016-01-30T07:31:22Z</time>
      </trkpt>
      <trkpt lat="45.29147" lon="6.21529">
        <ele>1200</ele>
        <time>2016-01-30T07:31:57Z</time>
      </trkpt>
      <trkpt lat="45.29148" lon="6.21528">
        <ele>1200.1</ele>
        <time>2016-01-30T07:31:58Z</time>
      </trkpt>
      <trkpt lat="45.29159" lon="6.21511">
        <ele>1207</ele>
        <time>2016-01-30T07:32:36Z</time>
      </trkpt>
      <trkpt lat="45.29166" lon="6.21504">
        <ele>1207.8</ele>
        <time>2016-01-30T07:32:47Z</time>
      </trkpt>
      <trkpt lat="45.29173" lon="6.21497">
        <ele>1211</ele>
        <time>2016-01-30T07:33:01Z</time>
      </trkpt>
      <trkpt lat="45.29174" lon="6.21496">
        <ele>1211.2</ele>
        <time>2016-01-30T07:33:02Z</time>
      </trkpt>
      <trkpt lat="45.29185" lon="6.2148">
        <ele>1214.4</ele>
        <time>2016-01-30T07:33:29Z</time>
      </trkpt>
      <trkpt lat="45.29192" lon="6.21471">
        <ele>1216.6</ele>
        <time>2016-01-30T07:33:45Z</time>
      </trkpt>
      <trkpt lat="45.29197" lon="6.21462">
        <ele>1219.8</ele>
        <time>2016-01-30T07:34:00Z</time>
      </trkpt>
      <trkpt lat="45.29203" lon="6.21453">
        <ele>1222.7</ele>
        <time>2016-01-30T07:34:16Z</time>
      </trkpt>
      <trkpt lat="45.29204" lon="6.21452">
        <ele>1222.7</ele>
        <time>2016-01-30T07:34:17Z</time>
      </trkpt>
      <trkpt lat="45.29217" lon="6.21438">
        <ele>1223.4</ele>
        <time>2016-01-30T07:35:44Z</time>
      </trkpt>
      <trkpt lat="45.29218" lon="6.21438">
        <ele>1223.3</ele>
        <time>2016-01-30T07:35:45Z</time>
      </trkpt>
      <trkpt lat="45.29225" lon="6.21431">
        <ele>1233</ele>
        <time>2016-01-30T07:36:50Z</time>
      </trkpt>
      <trkpt lat="45.29237" lon="6.21414">
        <ele>1238.2</ele>
        <time>2016-01-30T07:37:20Z</time>
      </trkpt>
      <trkpt lat="45.29243" lon="6.21404">
        <ele>1242</ele>
        <time>2016-01-30T07:37:38Z</time>
      </trkpt>
      <trkpt lat="45.29243" lon="6.21392">
        <ele>1244.6</ele>
        <time>2016-01-30T07:37:53Z</time>
      </trkpt>
      <trkpt lat="45.29243" lon="6.21392">
        <ele>1244.7</ele>
        <time>2016-01-30T07:37:54Z</time>
      </trkpt>
      <trkpt lat="45.29241" lon="6.21368">
        <ele>1251.5</ele>
        <time>2016-01-30T07:38:31Z</time>
      </trkpt>
      <trkpt lat="45.29245" lon="6.21357">
        <ele>1255.8</ele>
        <time>2016-01-30T07:38:51Z</time>
      </trkpt>
      <trkpt lat="45.29253" lon="6.21352">
        <ele>1256.8</ele>
        <time>2016-01-30T07:39:06Z</time>
      </trkpt>
      <trkpt lat="45.29253" lon="6.21351">
        <ele>1257</ele>
        <time>2016-01-30T07:39:07Z</time>
      </trkpt>
      <trkpt lat="45.29266" lon="6.21336">
        <ele>1261</ele>
        <time>2016-01-30T07:39:34Z</time>
      </trkpt>
      <trkpt lat="45.2927" lon="6.21326">
        <ele>1262.2</ele>
        <time>2016-01-30T07:39:46Z</time>
      </trkpt>
      <trkpt lat="45.29275" lon="6.21315">
        <ele>1264.1</ele>
        <time>2016-01-30T07:39:58Z</time>
      </trkpt>
      <trkpt lat="45.29279" lon="6.21304">
        <ele>1265.5</ele>
        <time>2016-01-30T07:40:11Z</time>
      </trkpt>
      <trkpt lat="45.2928" lon="6.21304">
        <ele>1265.6</ele>
        <time>2016-01-30T07:40:12Z</time>
      </trkpt>
      <trkpt lat="45.29292" lon="6.2129">
        <ele>1269.2</ele>
        <time>2016-01-30T07:40:36Z</time>
      </trkpt>
      <trkpt lat="45.29299" lon="6.21282">
        <ele>1269.4</ele>
        <time>2016-01-30T07:40:44Z</time>
      </trkpt>
      <trkpt lat="45.29305" lon="6.21274">
        <ele>1269.5</ele>
        <time>2016-01-30T07:40:51Z</time>
      </trkpt>
      <trkpt lat="45.29309" lon="6.21264">
        <ele>1271.5</ele>
        <time>2016-01-30T07:41:00Z</time>
      </trkpt>
      <trkpt lat="45.29314" lon="6.21254">
        <ele>1272.8</ele>
        <time>2016-01-30T07:41:10Z</time>
      </trkpt>
      <trkpt lat="45.29321" lon="6.21246">
        <ele>1273.4</ele>
        <time>2016-01-30T07:41:31Z</time>
      </trkpt>
      <trkpt lat="45.29321" lon="6.21245">
        <ele>1273.5</ele>
        <time>2016-01-30T07:41:32Z</time>
      </trkpt>
      <trkpt lat="45.29319" lon="6.21224">
        <ele>1275.4</ele>
        <time>2016-01-30T07:44:11Z</time>
      </trkpt>
      <trkpt lat="45.29319" lon="6.21224">
        <ele>1275.4</ele>
        <time>2016-01-30T07:44:12Z</time>
      </trkpt>
      <trkpt lat="45.29328" lon="6.21204">
        <ele>1281.2</ele>
        <time>2016-01-30T07:44:41Z</time>
      </trkpt>
      <trkpt lat="45.2933" lon="6.21192">
        <ele>1282.4</ele>
        <time>2016-01-30T07:44:53Z</time>
      </trkpt>
      <trkpt lat="45.29334" lon="6.21181">
        <ele>1285.1</ele>
        <time>2016-01-30T07:45:06Z</time>
      </trkpt>
      <trkpt lat="45.29337" lon="6.2117">
        <ele>1287</ele>
        <time>2016-01-30T07:45:16Z</time>
      </trkpt>
      <trkpt lat="45.29337" lon="6.21169">
        <ele>1287.2</ele>
        <time>2016-01-30T07:45:17Z</time>
      </trkpt>
      <trkpt lat="45.29342" lon="6.21147">
        <ele>1290.7</ele>
        <time>2016-01-30T07:45:41Z</time>
      </trkpt>
      <trkpt lat="45.29345" lon="6.21135">
        <ele>1293.3</ele>
        <time>2016-01-30T07:45:57Z</time>
      </trkpt>
      <trkpt lat="45.29351" lon="6.21125">
        <ele>1295.7</ele>
        <time>2016-01-30T07:46:09Z</time>
      </trkpt>
      <trkpt lat="45.29354" lon="6.21114">
        <ele>1299</ele>
        <time>2016-01-30T07:46:22Z</time>
      </trkpt>
      <trkpt lat="45.29354" lon="6.21113">
        <ele>1298.9</ele>
        <time>2016-01-30T07:46:23Z</time>
      </trkpt>
      <trkpt lat="45.29352" lon="6.2109">
        <ele>1302.4</ele>
        <time>2016-01-30T07:46:45Z</time>
      </trkpt>
      <trkpt lat="45.2935" lon="6.21079">
        <ele>1305.2</ele>
        <time>2016-01-30T07:46:56Z</time>
      </trkpt>
      <trkpt lat="45.29347" lon="6.21066">
        <ele>1307.3</ele>
        <time>2016-01-30T07:47:06Z</time>
      </trkpt>
      <trkpt lat="45.29348" lon="6.21054">
        <ele>1310.4</ele>
        <time>2016-01-30T07:47:21Z</time>
      </trkpt>
      <trkpt lat="45.2935" lon="6.21042">
        <ele>1312.4</ele>
        <time>2016-01-30T07:47:34Z</time>
      </trkpt>
      <trkpt lat="45.2935" lon="6.21041">
        <ele>1312.3</ele>
        <time>2016-01-30T07:47:35Z</time>
      </trkpt>
      <trkpt lat="45.2935" lon="6.21019">
        <ele>1316.5</ele>
        <time>2016-01-30T07:47:54Z</time>
      </trkpt>
      <trkpt lat="45.29347" lon="6.21008">
        <ele>1318</ele>
        <time>2016-01-30T07:48:05Z</time>
      </trkpt>
      <trkpt lat="45.29347" lon="6.20996">
        <ele>1320.5</ele>
        <time>2016-01-30T07:48:17Z</time>
      </trkpt>
      <trkpt lat="45.29347" lon="6.20984">
        <ele>1323.1</ele>
        <time>2016-01-30T07:48:33Z</time>
      </trkpt>
      <trkpt lat="45.29349" lon="6.20972">
        <ele>1326.7</ele>
        <time>2016-01-30T07:48:51Z</time>
      </trkpt>
      <trkpt lat="45.29349" lon="6.20971">
        <ele>1327.1</ele>
        <time>2016-01-30T07:48:52Z</time>
      </trkpt>
      <trkpt lat="45.29349" lon="6.20949">
        <ele>1331.7</ele>
        <time>2016-01-30T07:49:20Z</time>
      </trkpt>
      <trkpt lat="45.2935" lon="6.20937">
        <ele>1334.7</ele>
        <time>2016-01-30T07:49:34Z</time>
      </trkpt>
      <trkpt lat="45.29353" lon="6.20925">
        <ele>1336.6</ele>
        <time>2016-01-30T07:49:49Z</time>
      </trkpt>
      <trkpt lat="45.29355" lon="6.20913">
        <ele>1338.6</ele>
        <time>2016-01-30T07:50:01Z</time>
      </trkpt>
      <trkpt lat="45.29355" lon="6.20912">
        <ele>1338.8</ele>
        <time>2016-01-30T07:50:02Z</time>
      </trkpt>
      <trkpt lat="45.29354" lon="6.20889">
        <ele>1343.7</ele>
        <time>2016-01-30T07:50:23Z</time>
      </trkpt>
      <trkpt lat="45.29355" lon="6.20877">
        <ele>1344.7</ele>
        <time>2016-01-30T07:50:34Z</time>
      </trkpt>
      <trkpt lat="45.29359" lon="6.20866">
        <ele>1348.1</ele>
        <time>2016-01-30T07:50:50Z</time>
      </trkpt>
      <trkpt lat="45.29364" lon="6.20855">
        <ele>1349.1</ele>
        <time>2016-01-30T07:51:04Z</time>
      </trkpt>
      <trkpt lat="45.29364" lon="6.20854">
        <ele>1349</ele>
        <time>2016-01-30T07:51:05Z</time>
      </trkpt>
      <trkpt lat="45.29366" lon="6.20832">
        <ele>1351.8</ele>
        <time>2016-01-30T07:51:25Z</time>
      </trkpt>
      <trkpt lat="45.29366" lon="6.20819">
        <ele>1354</ele>
        <time>2016-01-30T07:51:36Z</time>
      </trkpt>
      <trkpt lat="45.29363" lon="6.20807">
        <ele>1356.7</ele>
        <time>2016-01-30T07:51:46Z</time>
      </trkpt>
      <trkpt lat="45.29362" lon="6.20796">
        <ele>1357.6</ele>
        <time>2016-01-30T07:51:57Z</time>
      </trkpt>
      <trkpt lat="45.29359" lon="6.20784">
        <ele>1360.5</ele>
        <time>2016-01-30T07:52:11Z</time>
      </trkpt>
      <trkpt lat="45.29358" lon="6.20783">
        <ele>1360.6</ele>
        <time>2016-01-30T07:52:12Z</time>
      </trkpt>
      <trkpt lat="45.29354" lon="6.2076">
        <ele>1363.8</ele>
        <time>2016-01-30T07:52:30Z</time>
      </trkpt>
      <trkpt lat="45.29352" lon="6.20748">
        <ele>1364.5</ele>
        <time>2016-01-30T07:52:41Z</time>
      </trkpt>
      <trkpt lat="45.29351" lon="6.20736">
        <ele>1365.5</ele>
        <time>2016-01-30T07:52:51Z</time>
      </trkpt>
      <trkpt lat="45.29348" lon="6.20724">
        <ele>1367.1</ele>
        <time>2016-01-30T07:53:01Z</time>
      </trkpt>
      <trkpt lat="45.29346" lon="6.20713">
        <ele>1368.2</ele>
        <time>2016-01-30T07:53:11Z</time>
      </trkpt>
      <trkpt lat="45.29347" lon="6.207">
        <ele>1368.6</ele>
        <time>2016-01-30T07:53:23Z</time>
      </trkpt>
      <trkpt lat="45.29347" lon="6.20699">
        <ele>1368.8</ele>
        <time>2016-01-30T07:53:24Z</time>
      </trkpt>
      <trkpt lat="45.29352" lon="6.20677">
        <ele>1370.4</ele>
        <time>2016-01-30T07:53:50Z</time>
      </trkpt>
      <trkpt lat="45.29353" lon="6.20664">
        <ele>1370.5</ele>
        <time>2016-01-30T07:54:04Z</time>
      </trkpt>
      <trkpt lat="45.29353" lon="6.20652">
        <ele>1371.2</ele>
        <time>2016-01-30T07:54:15Z</time>
      </trkpt>
      <trkpt lat="45.29358" lon="6.20642">
        <ele>1371.6</ele>
        <time>2016-01-30T07:54:24Z</time>
      </trkpt>
      <trkpt lat="45.29358" lon="6.2064">
        <ele>1372.1</ele>
        <time>2016-01-30T07:54:25Z</time>
      </trkpt>
      <trkpt lat="45.29365" lon="6.2062">
        <ele>1375</ele>
        <time>2016-01-30T07:54:42Z</time>
      </trkpt>
      <trkpt lat="45.29369" lon="6.20608">
        <ele>1375.7</ele>
        <time>2016-01-30T07:54:51Z</time>
      </trkpt>
      <trkpt lat="45.29372" lon="6.20598">
        <ele>1375.9</ele>
        <time>2016-01-30T07:54:59Z</time>
      </trkpt>
      <trkpt lat="45.29374" lon="6.20586">
        <ele>1376.4</ele>
        <time>2016-01-30T07:55:08Z</time>
      </trkpt>
      <trkpt lat="45.29376" lon="6.20574">
        <ele>1377.7</ele>
        <time>2016-01-30T07:55:19Z</time>
      </trkpt>
      <trkpt lat="45.29378" lon="6.20562">
        <ele>1379.7</ele>
        <time>2016-01-30T07:55:29Z</time>
      </trkpt>
      <trkpt lat="45.29378" lon="6.2056">
        <ele>1379.9</ele>
        <time>2016-01-30T07:55:30Z</time>
      </trkpt>
      <trkpt lat="45.29385" lon="6.20539">
        <ele>1380.7</ele>
        <time>2016-01-30T07:55:47Z</time>
      </trkpt>
      <trkpt lat="45.29387" lon="6.20528">
        <ele>1381.3</ele>
        <time>2016-01-30T07:55:57Z</time>
      </trkpt>
      <trkpt lat="45.29389" lon="6.20516">
        <ele>1382.7</ele>
        <time>2016-01-30T07:56:06Z</time>
      </trkpt>
      <trkpt lat="45.29392" lon="6.20505">
        <ele>1383.9</ele>
        <time>2016-01-30T07:56:15Z</time>
      </trkpt>
      <trkpt lat="45.29394" lon="6.20493">
        <ele>1384.2</ele>
        <time>2016-01-30T07:56:25Z</time>
      </trkpt>
      <trkpt lat="45.29394" lon="6.20481">
        <ele>1385</ele>
        <time>2016-01-30T07:56:37Z</time>
      </trkpt>
      <trkpt lat="45.29394" lon="6.2048">
        <ele>1384.8</ele>
        <time>2016-01-30T07:56:38Z</time>
      </trkpt>
      <trkpt lat="45.29395" lon="6.20457">
        <ele>1387.3</ele>
        <time>2016-01-30T07:56:58Z</time>
      </trkpt>
      <trkpt lat="45.29397" lon="6.20445">
        <ele>1389.2</ele>
        <time>2016-01-30T07:57:09Z</time>
      </trkpt>
      <trkpt lat="45.29395" lon="6.20434">
        <ele>1390.2</ele>
        <time>2016-01-30T07:57:19Z</time>
      </trkpt>
      <trkpt lat="45.29395" lon="6.20421">
        <ele>1392.9</ele>
        <time>2016-01-30T07:57:30Z</time>
      </trkpt>
      <trkpt lat="45.29395" lon="6.20409">
        <ele>1393.5</ele>
        <time>2016-01-30T07:57:39Z</time>
      </trkpt>
      <trkpt lat="45.29395" lon="6.20408">
        <ele>1393.5</ele>
        <time>2016-01-30T07:57:40Z</time>
      </trkpt>
      <trkpt lat="45.29393" lon="6.20385">
        <ele>1393.4</ele>
        <time>2016-01-30T07:58:04Z</time>
      </trkpt>
      <trkpt lat="45.2939" lon="6.20373">
        <ele>1394.6</ele>
        <time>2016-01-30T07:58:15Z</time>
      </trkpt>
      <trkpt lat="45.29388" lon="6.20362">
        <ele>1396.6</ele>
        <time>2016-01-30T07:58:28Z</time>
      </trkpt>
      <trkpt lat="45.29389" lon="6.20349">
        <ele>1398.3</ele>
        <time>2016-01-30T07:58:41Z</time>
      </trkpt>
      <trkpt lat="45.29389" lon="6.20348">
        <ele>1398.4</ele>
        <time>2016-01-30T07:58:42Z</time>
      </trkpt>
      <trkpt lat="45.29393" lon="6.20326">
        <ele>1400.9</ele>
        <time>2016-01-30T07:59:01Z</time>
      </trkpt>
      <trkpt lat="45.29396" lon="6.20314">
        <ele>1401.2</ele>
        <time>2016-01-30T07:59:10Z</time>
      </trkpt>
      <trkpt lat="45.294" lon="6.20304">
        <ele>1402</ele>
        <time>2016-01-30T07:59:18Z</time>
      </trkpt>
      <trkpt lat="45.29405" lon="6.20294">
        <ele>1403.7</ele>
        <time>2016-01-30T07:59:26Z</time>
      </trkpt>
      <trkpt lat="45.29409" lon="6.20283">
        <ele>1405.1</ele>
        <time>2016-01-30T07:59:35Z</time>
      </trkpt>
      <trkpt lat="45.29413" lon="6.20272">
        <ele>1406.7</ele>
        <time>2016-01-30T07:59:46Z</time>
      </trkpt>
      <trkpt lat="45.29413" lon="6.20271">
        <ele>1406.8</ele>
        <time>2016-01-30T07:59:47Z</time>
      </trkpt>
      <trkpt lat="45.29419" lon="6.20249">
        <ele>1411.8</ele>
        <time>2016-01-30T08:00:16Z</time>
      </trkpt>
      <trkpt lat="45.2942" lon="6.20237">
        <ele>1415.5</ele>
        <time>2016-01-30T08:00:38Z</time>
      </trkpt>
      <trkpt lat="45.29423" lon="6.20225">
        <ele>1417.6</ele>
        <time>2016-01-30T08:00:51Z</time>
      </trkpt>
      <trkpt lat="45.29423" lon="6.20224">
        <ele>1417.6</ele>
        <time>2016-01-30T08:00:52Z</time>
      </trkpt>
      <trkpt lat="45.29427" lon="6.20201">
        <ele>1420.9</ele>
        <time>2016-01-30T08:01:17Z</time>
      </trkpt>
      <trkpt lat="45.29428" lon="6.20189">
        <ele>1424.2</ele>
        <time>2016-01-30T08:01:31Z</time>
      </trkpt>
      <trkpt lat="45.29429" lon="6.20176">
        <ele>1426.2</ele>
        <time>2016-01-30T08:01:46Z</time>
      </trkpt>
      <trkpt lat="45.2943" lon="6.20164">
        <ele>1428.7</ele>
        <time>2016-01-30T08:02:01Z</time>
      </trkpt>
      <trkpt lat="45.29431" lon="6.20163">
        <ele>1428.8</ele>
        <time>2016-01-30T08:02:02Z</time>
      </trkpt>
      <trkpt lat="45.29432" lon="6.2014">
        <ele>1435.5</ele>
        <time>2016-01-30T08:02:35Z</time>
      </trkpt>
      <trkpt lat="45.29431" lon="6.20128">
        <ele>1439.2</ele>
        <time>2016-01-30T08:02:51Z</time>
      </trkpt>
      <trkpt lat="45.29435" lon="6.20117">
        <ele>1440.9</ele>
        <time>2016-01-30T08:03:01Z</time>
      </trkpt>
      <trkpt lat="45.29437" lon="6.20105">
        <ele>1440.7</ele>
        <time>2016-01-30T08:03:14Z</time>
      </trkpt>
      <trkpt lat="45.29437" lon="6.20104">
        <ele>1440.9</ele>
        <time>2016-01-30T08:03:15Z</time>
      </trkpt>
      <trkpt lat="45.29443" lon="6.20082">
        <ele>1446.6</ele>
        <time>2016-01-30T08:03:45Z</time>
      </trkpt>
      <trkpt lat="45.29447" lon="6.20072">
        <ele>1447.4</ele>
        <time>2016-01-30T08:03:54Z</time>
      </trkpt>
      <trkpt lat="45.2945" lon="6.2006">
        <ele>1449.9</ele>
        <time>2016-01-30T08:04:07Z</time>
      </trkpt>
      <trkpt lat="45.29451" lon="6.20048">
        <ele>1452.2</ele>
        <time>2016-01-30T08:04:21Z</time>
      </trkpt>
      <trkpt lat="45.29451" lon="6.20047">
        <ele>1452.3</ele>
        <time>2016-01-30T08:04:22Z</time>
      </trkpt>
      <trkpt lat="45.29451" lon="6.20023">
        <ele>1457.3</ele>
        <time>2016-01-30T08:04:56Z</time>
      </trkpt>
      <trkpt lat="45.29449" lon="6.20012">
        <ele>1459.2</ele>
        <time>2016-01-30T08:05:12Z</time>
      </trkpt>
      <trkpt lat="45.29449" lon="6.2">
        <ele>1460.6</ele>
        <time>2016-01-30T08:05:27Z</time>
      </trkpt>
      <trkpt lat="45.29449" lon="6.19999">
        <ele>1460.4</ele>
        <time>2016-01-30T08:05:28Z</time>
      </trkpt>
      <trkpt lat="45.29457" lon="6.19979">
        <ele>1465.6</ele>
        <time>2016-01-30T08:05:50Z</time>
      </trkpt>
      <trkpt lat="45.29459" lon="6.19967">
        <ele>1467.9</ele>
        <time>2016-01-30T08:06:05Z</time>
      </trkpt>
      <trkpt lat="45.29458" lon="6.19954">
        <ele>1471.1</ele>
        <time>2016-01-30T08:06:20Z</time>
      </trkpt>
      <trkpt lat="45.29459" lon="6.19942">
        <ele>1473.1</ele>
        <time>2016-01-30T08:06:31Z</time>
      </trkpt>
      <trkpt lat="45.2946" lon="6.1994">
        <ele>1473.3</ele>
        <time>2016-01-30T08:06:32Z</time>
      </trkpt>
      <trkpt lat="45.29464" lon="6.19919">
        <ele>1474.3</ele>
        <time>2016-01-30T08:06:56Z</time>
      </trkpt>
      <trkpt lat="45.29467" lon="6.19908">
        <ele>1474.5</ele>
        <time>2016-01-30T08:07:05Z</time>
      </trkpt>
      <trkpt lat="45.29472" lon="6.19897">
        <ele>1474.5</ele>
        <time>2016-01-30T08:07:13Z</time>
      </trkpt>
      <trkpt lat="45.29477" lon="6.19887">
        <ele>1474.6</ele>
        <time>2016-01-30T08:07:23Z</time>
      </trkpt>
      <trkpt lat="45.29482" lon="6.19878">
        <ele>1474.9</ele>
        <time>2016-01-30T08:07:32Z</time>
      </trkpt>
      <trkpt lat="45.29483" lon="6.19877">
        <ele>1475</ele>
        <time>2016-01-30T08:07:33Z</time>
      </trkpt>
      <trkpt lat="45.29496" lon="6.19862">
        <ele>1475.7</ele>
        <time>2016-01-30T08:10:06Z</time>
      </trkpt>
      <trkpt lat="45.29496" lon="6.19862">
        <ele>1475.5</ele>
        <time>2016-01-30T08:10:07Z</time>
      </trkpt>
      <trkpt lat="45.29506" lon="6.19842">
        <ele>1476.5</ele>
        <time>2016-01-30T08:10:28Z</time>
      </trkpt>
      <trkpt lat="45.29511" lon="6.19831">
        <ele>1477.1</ele>
        <time>2016-01-30T08:10:37Z</time>
      </trkpt>
      <trkpt lat="45.29516" lon="6.19823">
        <ele>1478.8</ele>
        <time>2016-01-30T08:10:45Z</time>
      </trkpt>
      <trkpt lat="45.2952" lon="6.19812">
        <ele>1480</ele>
        <time>2016-01-30T08:10:53Z</time>
      </trkpt>
      <trkpt lat="45.29524" lon="6.19802">
        <ele>1479.9</ele>
        <time>2016-01-30T08:11:02Z</time>
      </trkpt>
      <trkpt lat="45.29526" lon="6.1979">
        <ele>1481.5</ele>
        <time>2016-01-30T08:11:11Z</time>
      </trkpt>
      <trkpt lat="45.29526" lon="6.19788">
        <ele>1481.9</ele>
        <time>2016-01-30T08:11:12Z</time>
      </trkpt>
      <trkpt lat="45.29534" lon="6.19768">
        <ele>1486.2</ele>
        <time>2016-01-30T08:11:37Z</time>
      </trkpt>
      <trkpt lat="45.2954" lon="6.19759">
        <ele>1489.3</ele>
        <time>2016-01-30T08:11:52Z</time>
      </trkpt>
      <trkpt lat="45.29545" lon="6.1975">
        <ele>1489.2</ele>
        <time>2016-01-30T08:11:59Z</time>
      </trkpt>
      <trkpt lat="45.29549" lon="6.1974">
        <ele>1490.6</ele>
        <time>2016-01-30T08:12:07Z</time>
      </trkpt>
      <trkpt lat="45.29553" lon="6.19729">
        <ele>1492.1</ele>
        <time>2016-01-30T08:12:17Z</time>
      </trkpt>
      <trkpt lat="45.29553" lon="6.19728">
        <ele>1492.3</ele>
        <time>2016-01-30T08:12:18Z</time>
      </trkpt>
      <trkpt lat="45.29557" lon="6.19706">
        <ele>1497.5</ele>
        <time>2016-01-30T08:12:52Z</time>
      </trkpt>
      <trkpt lat="45.29564" lon="6.197">
        <ele>1498.9</ele>
        <time>2016-01-30T08:13:08Z</time>
      </trkpt>
      <trkpt lat="45.29563" lon="6.19687">
        <ele>1501.4</ele>
        <time>2016-01-30T08:13:21Z</time>
      </trkpt>
      <trkpt lat="45.29564" lon="6.19686">
        <ele>1501.7</ele>
        <time>2016-01-30T08:13:22Z</time>
      </trkpt>
      <trkpt lat="45.29572" lon="6.19666">
        <ele>1505.8</ele>
        <time>2016-01-30T08:13:44Z</time>
      </trkpt>
      <trkpt lat="45.29579" lon="6.19659">
        <ele>1506.1</ele>
        <time>2016-01-30T08:13:51Z</time>
      </trkpt>
      <trkpt lat="45.29584" lon="6.19649">
        <ele>1505.2</ele>
        <time>2016-01-30T08:13:59Z</time>
      </trkpt>
      <trkpt lat="45.29589" lon="6.1964">
        <ele>1506</ele>
        <time>2016-01-30T08:14:07Z</time>
      </trkpt>
      <trkpt lat="45.29595" lon="6.19632">
        <ele>1506.9</ele>
        <time>2016-01-30T08:14:15Z</time>
      </trkpt>
      <trkpt lat="45.296" lon="6.19622">
        <ele>1507.8</ele>
        <time>2016-01-30T08:14:24Z</time>
      </trkpt>
      <trkpt lat="45.29601" lon="6.1962">
        <ele>1507.8</ele>
        <time>2016-01-30T08:14:25Z</time>
      </trkpt>
      <trkpt lat="45.29611" lon="6.19605">
        <ele>1509.1</ele>
        <time>2016-01-30T08:14:38Z</time>
      </trkpt>
      <trkpt lat="45.29617" lon="6.19596">
        <ele>1509.7</ele>
        <time>2016-01-30T08:14:46Z</time>
      </trkpt>
      <trkpt lat="45.29623" lon="6.19589">
        <ele>1510.5</ele>
        <time>2016-01-30T08:14:54Z</time>
      </trkpt>
      <trkpt lat="45.29629" lon="6.19581">
        <ele>1510.4</ele>
        <time>2016-01-30T08:15:02Z</time>
      </trkpt>
      <trkpt lat="45.29634" lon="6.19573">
        <ele>1511.7</ele>
        <time>2016-01-30T08:15:10Z</time>
      </trkpt>
      <trkpt lat="45.29641" lon="6.19565">
        <ele>1513.6</ele>
        <time>2016-01-30T08:15:18Z</time>
      </trkpt>
      <trkpt lat="45.29648" lon="6.19556">
        <ele>1513.3</ele>
        <time>2016-01-30T08:15:27Z</time>
      </trkpt>
      <trkpt lat="45.29648" lon="6.19555">
        <ele>1513.4</ele>
        <time>2016-01-30T08:15:28Z</time>
      </trkpt>
      <trkpt lat="45.29656" lon="6.19534">
        <ele>1515</ele>
        <time>2016-01-30T08:15:56Z</time>
      </trkpt>
      <trkpt lat="45.2966" lon="6.19523">
        <ele>1516.5</ele>
        <time>2016-01-30T08:16:05Z</time>
      </trkpt>
      <trkpt lat="45.29665" lon="6.19513">
        <ele>1516.7</ele>
        <time>2016-01-30T08:16:13Z</time>
      </trkpt>
      <trkpt lat="45.2967" lon="6.19504">
        <ele>1516.9</ele>
        <time>2016-01-30T08:16:21Z</time>
      </trkpt>
      <trkpt lat="45.29677" lon="6.19497">
        <ele>1517.9</ele>
        <time>2016-01-30T08:16:30Z</time>
      </trkpt>
      <trkpt lat="45.29678" lon="6.19496">
        <ele>1518.2</ele>
        <time>2016-01-30T08:16:31Z</time>
      </trkpt>
      <trkpt lat="45.29687" lon="6.19478">
        <ele>1519.1</ele>
        <time>2016-01-30T08:16:48Z</time>
      </trkpt>
      <trkpt lat="45.29692" lon="6.19468">
        <ele>1521.8</ele>
        <time>2016-01-30T08:16:58Z</time>
      </trkpt>
      <trkpt lat="45.29697" lon="6.19458">
        <ele>1522.7</ele>
        <time>2016-01-30T08:17:07Z</time>
      </trkpt>
      <trkpt lat="45.29703" lon="6.1945">
        <ele>1521.8</ele>
        <time>2016-01-30T08:17:14Z</time>
      </trkpt>
      <trkpt lat="45.29709" lon="6.19442">
        <ele>1522.3</ele>
        <time>2016-01-30T08:17:22Z</time>
      </trkpt>
      <trkpt lat="45.29715" lon="6.19433">
        <ele>1523</ele>
        <time>2016-01-30T08:17:31Z</time>
      </trkpt>
      <trkpt lat="45.29715" lon="6.19432">
        <ele>1523.2</ele>
        <time>2016-01-30T08:17:32Z</time>
      </trkpt>
      <trkpt lat="45.29728" lon="6.19418">
        <ele>1524.1</ele>
        <time>2016-01-30T08:17:49Z</time>
      </trkpt>
      <trkpt lat="45.29735" lon="6.19412">
        <ele>1524.7</ele>
        <time>2016-01-30T08:17:56Z</time>
      </trkpt>
      <trkpt lat="45.29743" lon="6.19405">
        <ele>1524.7</ele>
        <time>2016-01-30T08:18:04Z</time>
      </trkpt>
      <trkpt lat="45.29749" lon="6.19396">
        <ele>1525.4</ele>
        <time>2016-01-30T08:18:12Z</time>
      </trkpt>
      <trkpt lat="45.29754" lon="6.19386">
        <ele>1525.2</ele>
        <time>2016-01-30T08:18:21Z</time>
      </trkpt>
      <trkpt lat="45.2976" lon="6.19379">
        <ele>1526.5</ele>
        <time>2016-01-30T08:18:28Z</time>
      </trkpt>
      <trkpt lat="45.29767" lon="6.19373">
        <ele>1527</ele>
        <time>2016-01-30T08:18:36Z</time>
      </trkpt>
      <trkpt lat="45.29767" lon="6.19372">
        <ele>1527.3</ele>
        <time>2016-01-30T08:18:37Z</time>
      </trkpt>
      <trkpt lat="45.29776" lon="6.19352">
        <ele>1526.7</ele>
        <time>2016-01-30T08:18:55Z</time>
      </trkpt>
      <trkpt lat="45.29781" lon="6.19342">
        <ele>1528.2</ele>
        <time>2016-01-30T08:19:03Z</time>
      </trkpt>
      <trkpt lat="45.29785" lon="6.19332">
        <ele>1528.7</ele>
        <time>2016-01-30T08:19:11Z</time>
      </trkpt>
      <trkpt lat="45.2979" lon="6.19323">
        <ele>1528.9</ele>
        <time>2016-01-30T08:19:19Z</time>
      </trkpt>
      <trkpt lat="45.29797" lon="6.19314">
        <ele>1529.9</ele>
        <time>2016-01-30T08:19:28Z</time>
      </trkpt>
      <trkpt lat="45.29802" lon="6.19303">
        <ele>1528.3</ele>
        <time>2016-01-30T08:19:36Z</time>
      </trkpt>
      <trkpt lat="45.29806" lon="6.19293">
        <ele>1528.5</ele>
        <time>2016-01-30T08:19:44Z</time>
      </trkpt>
      <trkpt lat="45.29806" lon="6.19292">
        <ele>1528.5</ele>
        <time>2016-01-30T08:19:45Z</time>
      </trkpt>
      <trkpt lat="45.29812" lon="6.19271">
        <ele>1531.1</ele>
        <time>2016-01-30T08:20:03Z</time>
      </trkpt>
      <trkpt lat="45.29817" lon="6.19261">
        <ele>1531.8</ele>
        <time>2016-01-30T08:20:12Z</time>
      </trkpt>
      <trkpt lat="45.29822" lon="6.19252">
        <ele>1533.6</ele>
        <time>2016-01-30T08:20:21Z</time>
      </trkpt>
      <trkpt lat="45.29827" lon="6.19242">
        <ele>1533.7</ele>
        <time>2016-01-30T08:20:30Z</time>
      </trkpt>
      <trkpt lat="45.29831" lon="6.1923">
        <ele>1534.4</ele>
        <time>2016-01-30T08:20:40Z</time>
      </trkpt>
      <trkpt lat="45.29833" lon="6.19219">
        <ele>1535.1</ele>
        <time>2016-01-30T08:20:49Z</time>
      </trkpt>
      <trkpt lat="45.29833" lon="6.19218">
        <ele>1534.9</ele>
        <time>2016-01-30T08:20:50Z</time>
      </trkpt>
      <trkpt lat="45.2984" lon="6.19197">
        <ele>1537.2</ele>
        <time>2016-01-30T08:21:09Z</time>
      </trkpt>
      <trkpt lat="45.29843" lon="6.19186">
        <ele>1538.6</ele>
        <time>2016-01-30T08:21:19Z</time>
      </trkpt>
      <trkpt lat="45.29845" lon="6.19173">
        <ele>1539.8</ele>
        <time>2016-01-30T08:21:30Z</time>
      </trkpt>
      <trkpt lat="45.29848" lon="6.19162">
        <ele>1540.3</ele>
        <time>2016-01-30T08:21:39Z</time>
      </trkpt>
      <trkpt lat="45.29852" lon="6.19151">
        <ele>1541.6</ele>
        <time>2016-01-30T08:21:49Z</time>
      </trkpt>
      <trkpt lat="45.29852" lon="6.19139">
        <ele>1544.3</ele>
        <time>2016-01-30T08:22:13Z</time>
      </trkpt>
      <trkpt lat="45.29852" lon="6.19139">
        <ele>1544.5</ele>
        <time>2016-01-30T08:22:14Z</time>
      </trkpt>
      <trkpt lat="45.29856" lon="6.19115">
        <ele>1547.1</ele>
        <time>2016-01-30T08:22:36Z</time>
      </trkpt>
      <trkpt lat="45.29857" lon="6.19103">
        <ele>1546.6</ele>
        <time>2016-01-30T08:22:45Z</time>
      </trkpt>
      <trkpt lat="45.29861" lon="6.19092">
        <ele>1548.5</ele>
        <time>2016-01-30T08:22:55Z</time>
      </trkpt>
      <trkpt lat="45.29865" lon="6.19081">
        <ele>1551.4</ele>
        <time>2016-01-30T08:23:10Z</time>
      </trkpt>
      <trkpt lat="45.29873" lon="6.19075">
        <ele>1553.4</ele>
        <time>2016-01-30T08:23:29Z</time>
      </trkpt>
      <trkpt lat="45.29873" lon="6.19075">
        <ele>1553.6</ele>
        <time>2016-01-30T08:23:30Z</time>
      </trkpt>
      <trkpt lat="45.2988" lon="6.19053">
        <ele>1560.3</ele>
        <time>2016-01-30T08:24:12Z</time>
      </trkpt>
      <trkpt lat="45.29879" lon="6.19041">
        <ele>1561.8</ele>
        <time>2016-01-30T08:24:24Z</time>
      </trkpt>
      <trkpt lat="45.29877" lon="6.19029">
        <ele>1563.1</ele>
        <time>2016-01-30T08:24:37Z</time>
      </trkpt>
      <trkpt lat="45.29878" lon="6.19028">
        <ele>1563.2</ele>
        <time>2016-01-30T08:24:38Z</time>
      </trkpt>
      <trkpt lat="45.29882" lon="6.19005">
        <ele>1563</ele>
        <time>2016-01-30T08:24:55Z</time>
      </trkpt>
      <trkpt lat="45.29884" lon="6.18993">
        <ele>1565</ele>
        <time>2016-01-30T08:25:08Z</time>
      </trkpt>
      <trkpt lat="45.29887" lon="6.18981">
        <ele>1567.3</ele>
        <time>2016-01-30T08:25:19Z</time>
      </trkpt>
      <trkpt lat="45.29893" lon="6.18971">
        <ele>1570.1</ele>
        <time>2016-01-30T08:25:32Z</time>
      </trkpt>
      <trkpt lat="45.29898" lon="6.18961">
        <ele>1569.8</ele>
        <time>2016-01-30T08:25:42Z</time>
      </trkpt>
      <trkpt lat="45.29899" lon="6.18961">
        <ele>1569.8</ele>
        <time>2016-01-30T08:25:43Z</time>
      </trkpt>
      <trkpt lat="45.29904" lon="6.18938">
        <ele>1573.6</ele>
        <time>2016-01-30T08:26:08Z</time>
      </trkpt>
      <trkpt lat="45.29908" lon="6.18927">
        <ele>1575.6</ele>
        <time>2016-01-30T08:26:22Z</time>
      </trkpt>
      <trkpt lat="45.29912" lon="6.18916">
        <ele>1576.5</ele>
        <time>2016-01-30T08:26:33Z</time>
      </trkpt>
      <trkpt lat="45.29911" lon="6.18904">
        <ele>1578.8</ele>
        <time>2016-01-30T08:26:53Z</time>
      </trkpt>
      <trkpt lat="45.29912" lon="6.18903">
        <ele>1578.6</ele>
        <time>2016-01-30T08:26:54Z</time>
      </trkpt>
      <trkpt lat="45.29916" lon="6.1888">
        <ele>1582.8</ele>
        <time>2016-01-30T08:27:29Z</time>
      </trkpt>
      <trkpt lat="45.29919" lon="6.18869">
        <ele>1584.9</ele>
        <time>2016-01-30T08:27:41Z</time>
      </trkpt>
      <trkpt lat="45.29925" lon="6.1886">
        <ele>1586.4</ele>
        <time>2016-01-30T08:27:50Z</time>
      </trkpt>
      <trkpt lat="45.29929" lon="6.18848">
        <ele>1587.8</ele>
        <time>2016-01-30T08:28:01Z</time>
      </trkpt>
      <trkpt lat="45.29929" lon="6.18847">
        <ele>1588</ele>
        <time>2016-01-30T08:28:02Z</time>
      </trkpt>
      <trkpt lat="45.29938" lon="6.18828">
        <ele>1591.9</ele>
        <time>2016-01-30T08:28:25Z</time>
      </trkpt>
      <trkpt lat="45.29942" lon="6.18817">
        <ele>1595.3</ele>
        <time>2016-01-30T08:28:37Z</time>
      </trkpt>
      <trkpt lat="45.29947" lon="6.18807">
        <ele>1595.8</ele>
        <time>2016-01-30T08:28:50Z</time>
      </trkpt>
      <trkpt lat="45.29953" lon="6.18798">
        <ele>1597.5</ele>
        <time>2016-01-30T08:29:02Z</time>
      </trkpt>
      <trkpt lat="45.29953" lon="6.18798">
        <ele>1597.5</ele>
        <time>2016-01-30T08:29:03Z</time>
      </trkpt>
      <trkpt lat="45.29968" lon="6.18788">
        <ele>1602.7</ele>
        <time>2016-01-30T08:29:26Z</time>
      </trkpt>
      <trkpt lat="45.29973" lon="6.18778">
        <ele>1606.9</ele>
        <time>2016-01-30T08:29:48Z</time>
      </trkpt>
      <trkpt lat="45.2998" lon="6.18771">
        <ele>1610.4</ele>
        <time>2016-01-30T08:30:02Z</time>
      </trkpt>
      <trkpt lat="45.29986" lon="6.18762">
        <ele>1613</ele>
        <time>2016-01-30T08:30:14Z</time>
      </trkpt>
      <trkpt lat="45.29987" lon="6.18762">
        <ele>1613.3</ele>
        <time>2016-01-30T08:30:15Z</time>
      </trkpt>
      <trkpt lat="45.29988" lon="6.18738">
        <ele>1618</ele>
        <time>2016-01-30T08:30:37Z</time>
      </trkpt>
      <trkpt lat="45.29992" lon="6.18727">
        <ele>1620.1</ele>
        <time>2016-01-30T08:30:51Z</time>
      </trkpt>
      <trkpt lat="45.2999" lon="6.18715">
        <ele>1622.6</ele>
        <time>2016-01-30T08:31:02Z</time>
      </trkpt>
      <trkpt lat="45.2999" lon="6.18703">
        <ele>1623.6</ele>
        <time>2016-01-30T08:31:13Z</time>
      </trkpt>
      <trkpt lat="45.29994" lon="6.18692">
        <ele>1626.6</ele>
        <time>2016-01-30T08:31:27Z</time>
      </trkpt>
      <trkpt lat="45.29994" lon="6.18691">
        <ele>1626.9</ele>
        <time>2016-01-30T08:31:28Z</time>
      </trkpt>
      <trkpt lat="45.30001" lon="6.18669">
        <ele>1630.8</ele>
        <time>2016-01-30T08:31:55Z</time>
      </trkpt>
      <trkpt lat="45.30006" lon="6.18659">
        <ele>1642.7</ele>
        <time>2016-01-30T08:32:53Z</time>
      </trkpt>
      <trkpt lat="45.30006" lon="6.18659">
        <ele>1642.8</ele>
        <time>2016-01-30T08:32:54Z</time>
      </trkpt>
      <trkpt lat="45.29997" lon="6.18639">
        <ele>1648.8</ele>
        <time>2016-01-30T08:33:32Z</time>
      </trkpt>
      <trkpt lat="45.29994" lon="6.18629">
        <ele>1650.4</ele>
        <time>2016-01-30T08:33:45Z</time>
      </trkpt>
      <trkpt lat="45.29991" lon="6.18617">
        <ele>1653.4</ele>
        <time>2016-01-30T08:33:58Z</time>
      </trkpt>
      <trkpt lat="45.29991" lon="6.18616">
        <ele>1653.6</ele>
        <time>2016-01-30T08:33:59Z</time>
      </trkpt>
      <trkpt lat="45.29994" lon="6.18592">
        <ele>1658.4</ele>
        <time>2016-01-30T08:34:24Z</time>
      </trkpt>
      <trkpt lat="45.29994" lon="6.1858">
        <ele>1661</ele>
        <time>2016-01-30T08:34:40Z</time>
      </trkpt>
      <trkpt lat="45.29991" lon="6.18568">
        <ele>1664.7</ele>
        <time>2016-01-30T08:35:01Z</time>
      </trkpt>
      <trkpt lat="45.29991" lon="6.18567">
        <ele>1665.1</ele>
        <time>2016-01-30T08:35:02Z</time>
      </trkpt>
      <trkpt lat="45.29993" lon="6.18544">
        <ele>1670.7</ele>
        <time>2016-01-30T08:35:30Z</time>
      </trkpt>
      <trkpt lat="45.29993" lon="6.18532">
        <ele>1672.3</ele>
        <time>2016-01-30T08:35:45Z</time>
      </trkpt>
      <trkpt lat="45.29989" lon="6.18521">
        <ele>1675.8</ele>
        <time>2016-01-30T08:35:59Z</time>
      </trkpt>
      <trkpt lat="45.29983" lon="6.18512">
        <ele>1677.3</ele>
        <time>2016-01-30T08:36:10Z</time>
      </trkpt>
      <trkpt lat="45.29982" lon="6.18512">
        <ele>1677.4</ele>
        <time>2016-01-30T08:36:11Z</time>
      </trkpt>
      <trkpt lat="45.2998" lon="6.18488">
        <ele>1681.4</ele>
        <time>2016-01-30T08:36:34Z</time>
      </trkpt>
      <trkpt lat="45.29982" lon="6.18476">
        <ele>1685.2</ele>
        <time>2016-01-30T08:36:48Z</time>
      </trkpt>
      <trkpt lat="45.29985" lon="6.18465">
        <ele>1687.7</ele>
        <time>2016-01-30T08:37:00Z</time>
      </trkpt>
      <trkpt lat="45.29984" lon="6.18452">
        <ele>1688.9</ele>
        <time>2016-01-30T08:37:12Z</time>
      </trkpt>
      <trkpt lat="45.29984" lon="6.18451">
        <ele>1689.5</ele>
        <time>2016-01-30T08:37:13Z</time>
      </trkpt>
      <trkpt lat="45.29985" lon="6.18428">
        <ele>1692.6</ele>
        <time>2016-01-30T08:37:36Z</time>
      </trkpt>
      <trkpt lat="45.29987" lon="6.18416">
        <ele>1694.5</ele>
        <time>2016-01-30T08:37:47Z</time>
      </trkpt>
      <trkpt lat="45.29989" lon="6.18404">
        <ele>1695.6</ele>
        <time>2016-01-30T08:37:57Z</time>
      </trkpt>
      <trkpt lat="45.29991" lon="6.18393">
        <ele>1695.5</ele>
        <time>2016-01-30T08:38:07Z</time>
      </trkpt>
      <trkpt lat="45.29993" lon="6.1838">
        <ele>1696.3</ele>
        <time>2016-01-30T08:38:18Z</time>
      </trkpt>
      <trkpt lat="45.29993" lon="6.18379">
        <ele>1696.3</ele>
        <time>2016-01-30T08:38:19Z</time>
      </trkpt>
      <trkpt lat="45.29996" lon="6.18357">
        <ele>1697.4</ele>
        <time>2016-01-30T08:38:36Z</time>
      </trkpt>
      <trkpt lat="45.29998" lon="6.18345">
        <ele>1697.1</ele>
        <time>2016-01-30T08:38:46Z</time>
      </trkpt>
      <trkpt lat="45.29999" lon="6.18332">
        <ele>1698.6</ele>
        <time>2016-01-30T08:38:57Z</time>
      </trkpt>
      <trkpt lat="45.29996" lon="6.18321">
        <ele>1699.9</ele>
        <time>2016-01-30T08:39:05Z</time>
      </trkpt>
      <trkpt lat="45.29991" lon="6.18312">
        <ele>1700.4</ele>
        <time>2016-01-30T08:39:10Z</time>
      </trkpt>
      <trkpt lat="45.29987" lon="6.18302">
        <ele>1701.7</ele>
        <time>2016-01-30T08:39:17Z</time>
      </trkpt>
      <trkpt lat="45.29993" lon="6.18294">
        <ele>1702.4</ele>
        <time>2016-01-30T08:39:25Z</time>
      </trkpt>
      <trkpt lat="45.29994" lon="6.18293">
        <ele>1702.9</ele>
        <time>2016-01-30T08:39:26Z</time>
      </trkpt>
      <trkpt lat="45.30007" lon="6.18281">
        <ele>1706.3</ele>
        <time>2016-01-30T08:39:44Z</time>
      </trkpt>
      <trkpt lat="45.30014" lon="6.18274">
        <ele>1708.1</ele>
        <time>2016-01-30T08:39:56Z</time>
      </trkpt>
      <trkpt lat="45.30023" lon="6.18269">
        <ele>1709.3</ele>
        <time>2016-01-30T08:40:09Z</time>
      </trkpt>
      <trkpt lat="45.30028" lon="6.18259">
        <ele>1714.3</ele>
        <time>2016-01-30T08:40:30Z</time>
      </trkpt>
      <trkpt lat="45.30028" lon="6.18258">
        <ele>1714.3</ele>
        <time>2016-01-30T08:40:31Z</time>
      </trkpt>
      <trkpt lat="45.30029" lon="6.18234">
        <ele>1720</ele>
        <time>2016-01-30T08:41:03Z</time>
      </trkpt>
      <trkpt lat="45.30031" lon="6.18222">
        <ele>1722.2</ele>
        <time>2016-01-30T08:41:16Z</time>
      </trkpt>
      <trkpt lat="45.30033" lon="6.1821">
        <ele>1725.1</ele>
        <time>2016-01-30T08:41:28Z</time>
      </trkpt>
      <trkpt lat="45.30035" lon="6.18197">
        <ele>1727.3</ele>
        <time>2016-01-30T08:41:42Z</time>
      </trkpt>
      <trkpt lat="45.30035" lon="6.18197">
        <ele>1727.7</ele>
        <time>2016-01-30T08:41:43Z</time>
      </trkpt>
      <trkpt lat="45.30039" lon="6.18173">
        <ele>1734.4</ele>
        <time>2016-01-30T08:42:14Z</time>
      </trkpt>
      <trkpt lat="45.30042" lon="6.18162">
        <ele>1737.2</ele>
        <time>2016-01-30T08:42:30Z</time>
      </trkpt>
      <trkpt lat="45.30042" lon="6.1815">
        <ele>1738.3</ele>
        <time>2016-01-30T08:42:42Z</time>
      </trkpt>
      <trkpt lat="45.30037" lon="6.18139">
        <ele>1740.1</ele>
        <time>2016-01-30T08:42:51Z</time>
      </trkpt>
      <trkpt lat="45.30036" lon="6.18138">
        <ele>1740.6</ele>
        <time>2016-01-30T08:42:52Z</time>
      </trkpt>
      <trkpt lat="45.30033" lon="6.18115">
        <ele>1743.5</ele>
        <time>2016-01-30T08:43:12Z</time>
      </trkpt>
      <trkpt lat="45.30039" lon="6.18107">
        <ele>1746.2</ele>
        <time>2016-01-30T08:43:24Z</time>
      </trkpt>
      <trkpt lat="45.30043" lon="6.18096">
        <ele>1747.7</ele>
        <time>2016-01-30T08:43:36Z</time>
      </trkpt>
      <trkpt lat="45.30049" lon="6.18088">
        <ele>1749.4</ele>
        <time>2016-01-30T08:43:47Z</time>
      </trkpt>
      <trkpt lat="45.30055" lon="6.1808">
        <ele>1750.7</ele>
        <time>2016-01-30T08:43:58Z</time>
      </trkpt>
      <trkpt lat="45.30056" lon="6.18079">
        <ele>1750.6</ele>
        <time>2016-01-30T08:43:59Z</time>
      </trkpt>
      <trkpt lat="45.30062" lon="6.18057">
        <ele>1752.1</ele>
        <time>2016-01-30T08:44:22Z</time>
      </trkpt>
      <trkpt lat="45.30068" lon="6.18048">
        <ele>1754.2</ele>
        <time>2016-01-30T08:44:33Z</time>
      </trkpt>
      <trkpt lat="45.30075" lon="6.18042">
        <ele>1755.9</ele>
        <time>2016-01-30T08:44:43Z</time>
      </trkpt>
      <trkpt lat="45.30079" lon="6.18031">
        <ele>1758.4</ele>
        <time>2016-01-30T08:44:56Z</time>
      </trkpt>
      <trkpt lat="45.30081" lon="6.18019">
        <ele>1760.6</ele>
        <time>2016-01-30T08:45:09Z</time>
      </trkpt>
      <trkpt lat="45.30081" lon="6.18018">
        <ele>1760.7</ele>
        <time>2016-01-30T08:45:10Z</time>
      </trkpt>
      <trkpt lat="45.30089" lon="6.17998">
        <ele>1764.7</ele>
        <time>2016-01-30T08:45:34Z</time>
      </trkpt>
      <trkpt lat="45.30095" lon="6.1799">
        <ele>1767.4</ele>
        <time>2016-01-30T08:45:45Z</time>
      </trkpt>
      <trkpt lat="45.30102" lon="6.17984">
        <ele>1769.5</ele>
        <time>2016-01-30T08:45:55Z</time>
      </trkpt>
      <trkpt lat="45.30107" lon="6.17974">
        <ele>1770</ele>
        <time>2016-01-30T08:46:06Z</time>
      </trkpt>
      <trkpt lat="45.30107" lon="6.17962">
        <ele>1771.4</ele>
        <time>2016-01-30T08:46:16Z</time>
      </trkpt>
      <trkpt lat="45.30107" lon="6.17961">
        <ele>1771.4</ele>
        <time>2016-01-30T08:46:17Z</time>
      </trkpt>
      <trkpt lat="45.30114" lon="6.1794">
        <ele>1775.1</ele>
        <time>2016-01-30T08:46:39Z</time>
      </trkpt>
      <trkpt lat="45.30118" lon="6.17929">
        <ele>1778.4</ele>
        <time>2016-01-30T08:46:55Z</time>
      </trkpt>
      <trkpt lat="45.3012" lon="6.17917">
        <ele>1780.3</ele>
        <time>2016-01-30T08:47:10Z</time>
      </trkpt>
      <trkpt lat="45.30125" lon="6.17906">
        <ele>1782.7</ele>
        <time>2016-01-30T08:47:23Z</time>
      </trkpt>
      <trkpt lat="45.30125" lon="6.17905">
        <ele>1782.8</ele>
        <time>2016-01-30T08:47:24Z</time>
      </trkpt>
      <trkpt lat="45.30132" lon="6.17884">
        <ele>1787.5</ele>
        <time>2016-01-30T08:47:52Z</time>
      </trkpt>
      <trkpt lat="45.30134" lon="6.17872">
        <ele>1788.6</ele>
        <time>2016-01-30T08:48:05Z</time>
      </trkpt>
      <trkpt lat="45.30137" lon="6.1786">
        <ele>1790.4</ele>
        <time>2016-01-30T08:48:16Z</time>
      </trkpt>
      <trkpt lat="45.30139" lon="6.17848">
        <ele>1792.2</ele>
        <time>2016-01-30T08:48:28Z</time>
      </trkpt>
      <trkpt lat="45.30139" lon="6.17847">
        <ele>1791.8</ele>
        <time>2016-01-30T08:48:29Z</time>
      </trkpt>
      <trkpt lat="45.3014" lon="6.17824">
        <ele>1796</ele>
        <time>2016-01-30T08:48:52Z</time>
      </trkpt>
      <trkpt lat="45.30145" lon="6.17814">
        <ele>1797.3</ele>
        <time>2016-01-30T08:49:04Z</time>
      </trkpt>
      <trkpt lat="45.3015" lon="6.17804">
        <ele>1800.1</ele>
        <time>2016-01-30T08:49:17Z</time>
      </trkpt>
      <trkpt lat="45.30155" lon="6.17793">
        <ele>1802.7</ele>
        <time>2016-01-30T08:49:31Z</time>
      </trkpt>
      <trkpt lat="45.30155" lon="6.17793">
        <ele>1803.2</ele>
        <time>2016-01-30T08:49:32Z</time>
      </trkpt>
      <trkpt lat="45.30162" lon="6.17771">
        <ele>1807.7</ele>
        <time>2016-01-30T08:50:01Z</time>
      </trkpt>
      <trkpt lat="45.30165" lon="6.1776">
        <ele>1811.3</ele>
        <time>2016-01-30T08:50:15Z</time>
      </trkpt>
      <trkpt lat="45.30168" lon="6.17748">
        <ele>1813.9</ele>
        <time>2016-01-30T08:50:30Z</time>
      </trkpt>
      <trkpt lat="45.3017" lon="6.17736">
        <ele>1816.1</ele>
        <time>2016-01-30T08:50:43Z</time>
      </trkpt>
      <trkpt lat="45.30171" lon="6.17735">
        <ele>1816.4</ele>
        <time>2016-01-30T08:50:44Z</time>
      </trkpt>
      <trkpt lat="45.30173" lon="6.17712">
        <ele>1820.8</ele>
        <time>2016-01-30T08:51:11Z</time>
      </trkpt>
      <trkpt lat="45.30175" lon="6.177">
        <ele>1821.8</ele>
        <time>2016-01-30T08:51:24Z</time>
      </trkpt>
      <trkpt lat="45.30177" lon="6.17688">
        <ele>1824.6</ele>
        <time>2016-01-30T08:51:40Z</time>
      </trkpt>
      <trkpt lat="45.30177" lon="6.17676">
        <ele>1827.8</ele>
        <time>2016-01-30T08:51:57Z</time>
      </trkpt>
      <trkpt lat="45.30177" lon="6.17675">
        <ele>1827.7</ele>
        <time>2016-01-30T08:51:58Z</time>
      </trkpt>
      <trkpt lat="45.30178" lon="6.17652">
        <ele>1832.1</ele>
        <time>2016-01-30T08:52:26Z</time>
      </trkpt>
      <trkpt lat="45.30181" lon="6.17641">
        <ele>1834.4</ele>
        <time>2016-01-30T08:52:38Z</time>
      </trkpt>
      <trkpt lat="45.30186" lon="6.17631">
        <ele>1836.6</ele>
        <time>2016-01-30T08:52:50Z</time>
      </trkpt>
      <trkpt lat="45.3019" lon="6.17621">
        <ele>1840.4</ele>
        <time>2016-01-30T08:53:06Z</time>
      </trkpt>
      <trkpt lat="45.3019" lon="6.1762">
        <ele>1840.1</ele>
        <time>2016-01-30T08:53:07Z</time>
      </trkpt>
      <trkpt lat="45.30183" lon="6.17598">
        <ele>1845.1</ele>
        <time>2016-01-30T08:53:36Z</time>
      </trkpt>
      <trkpt lat="45.30184" lon="6.17586">
        <ele>1847.2</ele>
        <time>2016-01-30T08:53:49Z</time>
      </trkpt>
      <trkpt lat="45.30187" lon="6.17575">
        <ele>1849.5</ele>
        <time>2016-01-30T08:54:01Z</time>
      </trkpt>
      <trkpt lat="45.30191" lon="6.17564">
        <ele>1850.4</ele>
        <time>2016-01-30T08:54:14Z</time>
      </trkpt>
      <trkpt lat="45.30191" lon="6.17563">
        <ele>1850.6</ele>
        <time>2016-01-30T08:54:15Z</time>
      </trkpt>
      <trkpt lat="45.30199" lon="6.17542">
        <ele>1855.6</ele>
        <time>2016-01-30T08:54:41Z</time>
      </trkpt>
      <trkpt lat="45.30204" lon="6.17531">
        <ele>1857.6</ele>
        <time>2016-01-30T08:54:54Z</time>
      </trkpt>
      <trkpt lat="45.30209" lon="6.17521">
        <ele>1859</ele>
        <time>2016-01-30T08:55:08Z</time>
      </trkpt>
      <trkpt lat="45.30212" lon="6.17509">
        <ele>1861.6</ele>
        <time>2016-01-30T08:55:23Z</time>
      </trkpt>
      <trkpt lat="45.30212" lon="6.17508">
        <ele>1861.7</ele>
        <time>2016-01-30T08:55:24Z</time>
      </trkpt>
      <trkpt lat="45.30225" lon="6.17494">
        <ele>1865.7</ele>
        <time>2016-01-30T08:55:57Z</time>
      </trkpt>
      <trkpt lat="45.30232" lon="6.17498">
        <ele>1867.6</ele>
        <time>2016-01-30T08:56:14Z</time>
      </trkpt>
      <trkpt lat="45.30238" lon="6.17508">
        <ele>1873.1</ele>
        <time>2016-01-30T08:56:43Z</time>
      </trkpt>
      <trkpt lat="45.30238" lon="6.17509">
        <ele>1873.4</ele>
        <time>2016-01-30T08:56:44Z</time>
      </trkpt>
      <trkpt lat="45.30252" lon="6.17521">
        <ele>1878.2</ele>
        <time>2016-01-30T08:57:18Z</time>
      </trkpt>
      <trkpt lat="45.30259" lon="6.17529">
        <ele>1881.6</ele>
        <time>2016-01-30T08:57:32Z</time>
      </trkpt>
      <trkpt lat="45.30265" lon="6.17537">
        <ele>1883</ele>
        <time>2016-01-30T08:57:48Z</time>
      </trkpt>
      <trkpt lat="45.30265" lon="6.17538">
        <ele>1883.4</ele>
        <time>2016-01-30T08:57:49Z</time>
      </trkpt>
      <trkpt lat="45.3028" lon="6.17551">
        <ele>1886.8</ele>
        <time>2016-01-30T08:58:10Z</time>
      </trkpt>
      <trkpt lat="45.30287" lon="6.17559">
        <ele>1888.5</ele>
        <time>2016-01-30T08:58:21Z</time>
      </trkpt>
      <trkpt lat="45.30293" lon="6.17568">
        <ele>1890.8</ele>
        <time>2016-01-30T08:58:33Z</time>
      </trkpt>
      <trkpt lat="45.30299" lon="6.17576">
        <ele>1892.6</ele>
        <time>2016-01-30T08:58:47Z</time>
      </trkpt>
      <trkpt lat="45.30308" lon="6.17583">
        <ele>1896</ele>
        <time>2016-01-30T08:59:08Z</time>
      </trkpt>
      <trkpt lat="45.30308" lon="6.17584">
        <ele>1896.6</ele>
        <time>2016-01-30T08:59:10Z</time>
      </trkpt>
      <trkpt lat="45.30324" lon="6.17589">
        <ele>1899.5</ele>
        <time>2016-01-30T08:59:37Z</time>
      </trkpt>
      <trkpt lat="45.30332" lon="6.1759">
        <ele>1901.5</ele>
        <time>2016-01-30T08:59:45Z</time>
      </trkpt>
      <trkpt lat="45.3034" lon="6.17592">
        <ele>1901.9</ele>
        <time>2016-01-30T08:59:52Z</time>
      </trkpt>
      <trkpt lat="45.30349" lon="6.17593">
        <ele>1904.4</ele>
        <time>2016-01-30T09:00:02Z</time>
      </trkpt>
      <trkpt lat="45.30357" lon="6.17592">
        <ele>1907.8</ele>
        <time>2016-01-30T09:00:24Z</time>
      </trkpt>
      <trkpt lat="45.30358" lon="6.17592">
        <ele>1907.9</ele>
        <time>2016-01-30T09:00:25Z</time>
      </trkpt>
      <trkpt lat="45.30365" lon="6.17579">
        <ele>1917.1</ele>
        <time>2016-01-30T09:01:20Z</time>
      </trkpt>
      <trkpt lat="45.3036" lon="6.17569">
        <ele>1919.6</ele>
        <time>2016-01-30T09:01:40Z</time>
      </trkpt>
      <trkpt lat="45.3036" lon="6.17568">
        <ele>1919.7</ele>
        <time>2016-01-30T09:01:41Z</time>
      </trkpt>
      <trkpt lat="45.30363" lon="6.17554">
        <ele>1926.7</ele>
        <time>2016-01-30T09:02:31Z</time>
      </trkpt>
      <trkpt lat="45.30371" lon="6.17556">
        <ele>1928.8</ele>
        <time>2016-01-30T09:02:43Z</time>
      </trkpt>
      <trkpt lat="45.30372" lon="6.17556">
        <ele>1929.1</ele>
        <time>2016-01-30T09:02:44Z</time>
      </trkpt>
      <trkpt lat="45.30388" lon="6.17558">
        <ele>1933.6</ele>
        <time>2016-01-30T09:03:09Z</time>
      </trkpt>
      <trkpt lat="45.30385" lon="6.17547">
        <ele>1939.5</ele>
        <time>2016-01-30T09:03:54Z</time>
      </trkpt>
      <trkpt lat="45.30385" lon="6.17546">
        <ele>1939.6</ele>
        <time>2016-01-30T09:03:55Z</time>
      </trkpt>
      <trkpt lat="45.30387" lon="6.17531">
        <ele>1948.5</ele>
        <time>2016-01-30T09:04:54Z</time>
      </trkpt>
      <trkpt lat="45.30395" lon="6.17531">
        <ele>1952.4</ele>
        <time>2016-01-30T09:05:12Z</time>
      </trkpt>
      <trkpt lat="45.30396" lon="6.17531">
        <ele>1952.9</ele>
        <time>2016-01-30T09:05:13Z</time>
      </trkpt>
      <trkpt lat="45.30392" lon="6.17509">
        <ele>1960</ele>
        <time>2016-01-30T09:05:59Z</time>
      </trkpt>
      <trkpt lat="45.30387" lon="6.17498">
        <ele>1962.5</ele>
        <time>2016-01-30T09:06:17Z</time>
      </trkpt>
      <trkpt lat="45.30387" lon="6.17497">
        <ele>1962.5</ele>
        <time>2016-01-30T09:06:18Z</time>
      </trkpt>
      <trkpt lat="45.30402" lon="6.17488">
        <ele>1970.8</ele>
        <time>2016-01-30T09:07:13Z</time>
      </trkpt>
      <trkpt lat="45.30403" lon="6.17476">
        <ele>1978.1</ele>
        <time>2016-01-30T09:07:49Z</time>
      </trkpt>
      <trkpt lat="45.30403" lon="6.17475">
        <ele>1977.7</ele>
        <time>2016-01-30T09:07:50Z</time>
      </trkpt>
      <trkpt lat="45.30395" lon="6.17453">
        <ele>1980.1</ele>
        <time>2016-01-30T09:08:18Z</time>
      </trkpt>
      <trkpt lat="45.30404" lon="6.17452">
        <ele>1984.1</ele>
        <time>2016-01-30T09:08:45Z</time>
      </trkpt>
      <trkpt lat="45.30413" lon="6.17451">
        <ele>1987</ele>
        <time>2016-01-30T09:09:03Z</time>
      </trkpt>
      <trkpt lat="45.30413" lon="6.17451">
        <ele>1987</ele>
        <time>2016-01-30T09:09:04Z</time>
      </trkpt>
      <trkpt lat="45.30422" lon="6.17448">
        <ele>1988.5</ele>
        <time>2016-01-30T09:15:12Z</time>
      </trkpt>
      <trkpt lat="45.30418" lon="6.17436">
        <ele>1991.1</ele>
        <time>2016-01-30T09:19:10Z</time>
      </trkpt>
      <trkpt lat="45.30426" lon="6.17415">
        <ele>1996.4</ele>
        <time>2016-01-30T09:20:50Z</time>
      </trkpt>
      <trkpt lat="45.30426" lon="6.17414">
        <ele>1996.6</ele>
        <time>2016-01-30T09:20:51Z</time>
      </trkpt>
      <trkpt lat="45.30427" lon="6.1739">
        <ele>2001.2</ele>
        <time>2016-01-30T09:21:19Z</time>
      </trkpt>
      <trkpt lat="45.3043" lon="6.17378">
        <ele>2003.2</ele>
        <time>2016-01-30T09:21:33Z</time>
      </trkpt>
      <trkpt lat="45.30433" lon="6.17366">
        <ele>2005.2</ele>
        <time>2016-01-30T09:21:47Z</time>
      </trkpt>
      <trkpt lat="45.30436" lon="6.17355">
        <ele>2008.5</ele>
        <time>2016-01-30T09:22:02Z</time>
      </trkpt>
      <trkpt lat="45.30436" lon="6.17354">
        <ele>2008.7</ele>
        <time>2016-01-30T09:22:03Z</time>
      </trkpt>
      <trkpt lat="45.30443" lon="6.17332">
        <ele>2012</ele>
        <time>2016-01-30T09:22:33Z</time>
      </trkpt>
      <trkpt lat="45.30446" lon="6.17321">
        <ele>2016.1</ele>
        <time>2016-01-30T09:22:55Z</time>
      </trkpt>
      <trkpt lat="45.30453" lon="6.17312">
        <ele>2018.4</ele>
        <time>2016-01-30T09:23:08Z</time>
      </trkpt>
      <trkpt lat="45.30453" lon="6.17311">
        <ele>2018.7</ele>
        <time>2016-01-30T09:23:09Z</time>
      </trkpt>
      <trkpt lat="45.30461" lon="6.17289">
        <ele>2023.3</ele>
        <time>2016-01-30T09:23:39Z</time>
      </trkpt>
      <trkpt lat="45.30465" lon="6.17278">
        <ele>2024.9</ele>
        <time>2016-01-30T09:23:54Z</time>
      </trkpt>
      <trkpt lat="45.30469" lon="6.17267">
        <ele>2028.1</ele>
        <time>2016-01-30T09:24:07Z</time>
      </trkpt>
      <trkpt lat="45.30473" lon="6.17257">
        <ele>2029.8</ele>
        <time>2016-01-30T09:24:20Z</time>
      </trkpt>
      <trkpt lat="45.30474" lon="6.17256">
        <ele>2029.8</ele>
        <time>2016-01-30T09:24:21Z</time>
      </trkpt>
      <trkpt lat="45.30482" lon="6.17235">
        <ele>2034.1</ele>
        <time>2016-01-30T09:24:50Z</time>
      </trkpt>
      <trkpt lat="45.30486" lon="6.17224">
        <ele>2036.1</ele>
        <time>2016-01-30T09:25:04Z</time>
      </trkpt>
      <trkpt lat="45.3049" lon="6.17213">
        <ele>2040</ele>
        <time>2016-01-30T09:25:22Z</time>
      </trkpt>
      <trkpt lat="45.30491" lon="6.17212">
        <ele>2040.3</ele>
        <time>2016-01-30T09:25:23Z</time>
      </trkpt>
      <trkpt lat="45.30501" lon="6.17193">
        <ele>2045.6</ele>
        <time>2016-01-30T09:25:55Z</time>
      </trkpt>
      <trkpt lat="45.30508" lon="6.17186">
        <ele>2048.7</ele>
        <time>2016-01-30T09:26:09Z</time>
      </trkpt>
      <trkpt lat="45.30515" lon="6.1718">
        <ele>2049.1</ele>
        <time>2016-01-30T09:26:19Z</time>
      </trkpt>
      <trkpt lat="45.30524" lon="6.17176">
        <ele>2052.8</ele>
        <time>2016-01-30T09:26:32Z</time>
      </trkpt>
      <trkpt lat="45.30524" lon="6.17176">
        <ele>2053.2</ele>
        <time>2016-01-30T09:26:33Z</time>
      </trkpt>
      <trkpt lat="45.30541" lon="6.1718">
        <ele>2057.1</ele>
        <time>2016-01-30T09:27:05Z</time>
      </trkpt>
      <trkpt lat="45.30542" lon="6.17167">
        <ele>2062.3</ele>
        <time>2016-01-30T09:27:34Z</time>
      </trkpt>
      <trkpt lat="45.30542" lon="6.17167">
        <ele>2062.4</ele>
        <time>2016-01-30T09:27:35Z</time>
      </trkpt>
      <trkpt lat="45.30556" lon="6.17155">
        <ele>2068.3</ele>
        <time>2016-01-30T09:28:08Z</time>
      </trkpt>
      <trkpt lat="45.30562" lon="6.17145">
        <ele>2070</ele>
        <time>2016-01-30T09:28:21Z</time>
      </trkpt>
      <trkpt lat="45.30568" lon="6.17137">
        <ele>2071</ele>
        <time>2016-01-30T09:28:33Z</time>
      </trkpt>
      <trkpt lat="45.30574" lon="6.17127">
        <ele>2073.9</ele>
        <time>2016-01-30T09:28:48Z</time>
      </trkpt>
      <trkpt lat="45.30574" lon="6.17126">
        <ele>2073.9</ele>
        <time>2016-01-30T09:28:49Z</time>
      </trkpt>
      <trkpt lat="45.30579" lon="6.17103">
        <ele>2082.3</ele>
        <time>2016-01-30T09:29:41Z</time>
      </trkpt>
      <trkpt lat="45.30587" lon="6.17098">
        <ele>2085.2</ele>
        <time>2016-01-30T09:30:01Z</time>
      </trkpt>
      <trkpt lat="45.30587" lon="6.17097">
        <ele>2085.5</ele>
        <time>2016-01-30T09:30:02Z</time>
      </trkpt>
      <trkpt lat="45.30601" lon="6.17083">
        <ele>2090.3</ele>
        <time>2016-01-30T09:30:29Z</time>
      </trkpt>
      <trkpt lat="45.306" lon="6.17071">
        <ele>2095.4</ele>
        <time>2016-01-30T09:31:01Z</time>
      </trkpt>
      <trkpt lat="45.30602" lon="6.17059">
        <ele>2097.3</ele>
        <time>2016-01-30T09:31:27Z</time>
      </trkpt>
      <trkpt lat="45.30603" lon="6.17058">
        <ele>2097.3</ele>
        <time>2016-01-30T09:31:28Z</time>
      </trkpt>
      <trkpt lat="45.30601" lon="6.17037">
        <ele>2104.6</ele>
        <time>2016-01-30T09:32:10Z</time>
      </trkpt>
      <trkpt lat="45.306" lon="6.17025">
        <ele>2107.4</ele>
        <time>2016-01-30T09:32:29Z</time>
      </trkpt>
      <trkpt lat="45.30599" lon="6.17025">
        <ele>2107.8</ele>
        <time>2016-01-30T09:32:30Z</time>
      </trkpt>
      <trkpt lat="45.30595" lon="6.17002">
        <ele>2113.9</ele>
        <time>2016-01-30T09:33:07Z</time>
      </trkpt>
      <trkpt lat="45.30594" lon="6.1699">
        <ele>2117.6</ele>
        <time>2016-01-30T09:33:27Z</time>
      </trkpt>
      <trkpt lat="45.30591" lon="6.16978">
        <ele>2121</ele>
        <time>2016-01-30T09:33:46Z</time>
      </trkpt>
      <trkpt lat="45.30591" lon="6.16977">
        <ele>2121.3</ele>
        <time>2016-01-30T09:33:47Z</time>
      </trkpt>
      <trkpt lat="45.3059" lon="6.16954">
        <ele>2130.7</ele>
        <time>2016-01-30T09:34:33Z</time>
      </trkpt>
      <trkpt lat="45.30592" lon="6.16942">
        <ele>2133.9</ele>
        <time>2016-01-30T09:35:02Z</time>
      </trkpt>
      <trkpt lat="45.30592" lon="6.16941">
        <ele>2134.2</ele>
        <time>2016-01-30T09:35:03Z</time>
      </trkpt>
      <trkpt lat="45.30597" lon="6.16918">
        <ele>2140.5</ele>
        <time>2016-01-30T09:35:41Z</time>
      </trkpt>
      <trkpt lat="45.30597" lon="6.16906">
        <ele>2145.2</ele>
        <time>2016-01-30T09:36:09Z</time>
      </trkpt>
      <trkpt lat="45.30597" lon="6.16905">
        <ele>2145.4</ele>
        <time>2016-01-30T09:36:10Z</time>
      </trkpt>
      <trkpt lat="45.30599" lon="6.16881">
        <ele>2152.1</ele>
        <time>2016-01-30T09:36:54Z</time>
      </trkpt>
      <trkpt lat="45.30597" lon="6.16869">
        <ele>2156</ele>
        <time>2016-01-30T09:37:20Z</time>
      </trkpt>
      <trkpt lat="45.30596" lon="6.16869">
        <ele>2156.2</ele>
        <time>2016-01-30T09:37:21Z</time>
      </trkpt>
      <trkpt lat="45.3059" lon="6.16848">
        <ele>2161.8</ele>
        <time>2016-01-30T09:38:04Z</time>
      </trkpt>
      <trkpt lat="45.30583" lon="6.16842">
        <ele>2166.5</ele>
        <time>2016-01-30T09:38:27Z</time>
      </trkpt>
      <trkpt lat="45.30582" lon="6.16842">
        <ele>2166.8</ele>
        <time>2016-01-30T09:38:28Z</time>
      </trkpt>
      <trkpt lat="45.30592" lon="6.16821">
        <ele>2173.1</ele>
        <time>2016-01-30T09:39:19Z</time>
      </trkpt>
      <trkpt lat="45.30597" lon="6.16811">
        <ele>2174.3</ele>
        <time>2016-01-30T09:39:37Z</time>
      </trkpt>
      <trkpt lat="45.30598" lon="6.16811">
        <ele>2174.4</ele>
        <time>2016-01-30T09:39:38Z</time>
      </trkpt>
      <trkpt lat="45.30601" lon="6.16793">
        <ele>2185.1</ele>
        <time>2016-01-30T09:40:41Z</time>
      </trkpt>
      <trkpt lat="45.30601" lon="6.16792">
        <ele>2185.5</ele>
        <time>2016-01-30T09:40:42Z</time>
      </trkpt>
      <trkpt lat="45.3061" lon="6.16771">
        <ele>2191.8</ele>
        <time>2016-01-30T09:44:32Z</time>
      </trkpt>
      <trkpt lat="45.3061" lon="6.1677">
        <ele>2192</ele>
        <time>2016-01-30T09:44:33Z</time>
      </trkpt>
      <trkpt lat="45.30613" lon="6.16747">
        <ele>2196.6</ele>
        <time>2016-01-30T09:45:13Z</time>
      </trkpt>
      <trkpt lat="45.30617" lon="6.16736">
        <ele>2199.5</ele>
        <time>2016-01-30T09:45:31Z</time>
      </trkpt>
      <trkpt lat="45.30621" lon="6.16725">
        <ele>2201.7</ele>
        <time>2016-01-30T09:45:49Z</time>
      </trkpt>
      <trkpt lat="45.30622" lon="6.16724">
        <ele>2201.9</ele>
        <time>2016-01-30T09:45:50Z</time>
      </trkpt>
      <trkpt lat="45.30633" lon="6.16708">
        <ele>2206.8</ele>
        <time>2016-01-30T09:46:21Z</time>
      </trkpt>
      <trkpt lat="45.30639" lon="6.16701">
        <ele>2207.6</ele>
        <time>2016-01-30T09:46:27Z</time>
      </trkpt>
      <trkpt lat="45.30646" lon="6.16695">
        <ele>2208.6</ele>
        <time>2016-01-30T09:46:33Z</time>
      </trkpt>
      <trkpt lat="45.30653" lon="6.16689">
        <ele>2209.9</ele>
        <time>2016-01-30T09:46:39Z</time>
      </trkpt>
      <trkpt lat="45.3066" lon="6.16683">
        <ele>2211</ele>
        <time>2016-01-30T09:46:46Z</time>
      </trkpt>
      <trkpt lat="45.30667" lon="6.16677">
        <ele>2211.7</ele>
        <time>2016-01-30T09:46:55Z</time>
      </trkpt>
      <trkpt lat="45.30668" lon="6.16676">
        <ele>2211.7</ele>
        <time>2016-01-30T09:46:56Z</time>
      </trkpt>
      <trkpt lat="45.30658" lon="6.16653">
        <ele>2221</ele>
        <time>2016-01-30T09:47:58Z</time>
      </trkpt>
      <trkpt lat="45.30657" lon="6.16652">
        <ele>2221.9</ele>
        <time>2016-01-30T09:48:00Z</time>
      </trkpt>
      <trkpt lat="45.3065" lon="6.16629">
        <ele>2226</ele>
        <time>2016-01-30T09:48:22Z</time>
      </trkpt>
      <trkpt lat="45.30647" lon="6.16615">
        <ele>2229</ele>
        <time>2016-01-30T09:48:38Z</time>
      </trkpt>
      <trkpt lat="45.30649" lon="6.166">
        <ele>2230</ele>
        <time>2016-01-30T09:48:54Z</time>
      </trkpt>
      <trkpt lat="45.30651" lon="6.16588">
        <ele>2232</ele>
        <time>2016-01-30T09:49:10Z</time>
      </trkpt>
      <trkpt lat="45.30651" lon="6.16586">
        <ele>2232.9</ele>
        <time>2016-01-30T09:49:12Z</time>
      </trkpt>
      <trkpt lat="45.30671" lon="6.16575">
        <ele>2236.6</ele>
        <time>2016-01-30T09:49:40Z</time>
      </trkpt>
      <trkpt lat="45.30679" lon="6.16572">
        <ele>2239.6</ele>
        <time>2016-01-30T09:49:55Z</time>
      </trkpt>
      <trkpt lat="45.30686" lon="6.16563">
        <ele>2243.1</ele>
        <time>2016-01-30T09:50:14Z</time>
      </trkpt>
      <trkpt lat="45.30686" lon="6.16563">
        <ele>2243.2</ele>
        <time>2016-01-30T09:50:15Z</time>
      </trkpt>
      <trkpt lat="45.307" lon="6.16549">
        <ele>2247</ele>
        <time>2016-01-30T09:50:38Z</time>
      </trkpt>
      <trkpt lat="45.30706" lon="6.16536">
        <ele>2248</ele>
        <time>2016-01-30T09:50:50Z</time>
      </trkpt>
      <trkpt lat="45.30709" lon="6.16525">
        <ele>2251.8</ele>
        <time>2016-01-30T09:51:06Z</time>
      </trkpt>
      <trkpt lat="45.30715" lon="6.16516">
        <ele>2252.3</ele>
        <time>2016-01-30T09:51:21Z</time>
      </trkpt>
      <trkpt lat="45.30716" lon="6.16516">
        <ele>2252.8</ele>
        <time>2016-01-30T09:51:22Z</time>
      </trkpt>
      <trkpt lat="45.30733" lon="6.16505">
        <ele>2255</ele>
        <time>2016-01-30T09:51:36Z</time>
      </trkpt>
      <trkpt lat="45.30741" lon="6.16496">
        <ele>2259</ele>
        <time>2016-01-30T09:51:48Z</time>
      </trkpt>
      <trkpt lat="45.3074" lon="6.16483">
        <ele>2259.6</ele>
        <time>2016-01-30T09:52:10Z</time>
      </trkpt>
      <trkpt lat="45.30743" lon="6.1647">
        <ele>2267</ele>
        <time>2016-01-30T09:53:21Z</time>
      </trkpt>
      <trkpt lat="45.30743" lon="6.16469">
        <ele>2268.7</ele>
        <time>2016-01-30T09:53:23Z</time>
      </trkpt>
      <trkpt lat="45.30757" lon="6.16456">
        <ele>2272.3</ele>
        <time>2016-01-30T09:53:48Z</time>
      </trkpt>
      <trkpt lat="45.30764" lon="6.16449">
        <ele>2274.4</ele>
        <time>2016-01-30T09:54:04Z</time>
      </trkpt>
      <trkpt lat="45.30761" lon="6.16436">
        <ele>2278</ele>
        <time>2016-01-30T09:54:28Z</time>
      </trkpt>
      <trkpt lat="45.3076" lon="6.16435">
        <ele>2279.1</ele>
        <time>2016-01-30T09:54:30Z</time>
      </trkpt>
      <trkpt lat="45.30755" lon="6.16409">
        <ele>2283</ele>
        <time>2016-01-30T09:55:04Z</time>
      </trkpt>
      <trkpt lat="45.30763" lon="6.16404">
        <ele>2285.2</ele>
        <time>2016-01-30T09:55:21Z</time>
      </trkpt>
      <trkpt lat="45.30772" lon="6.16402">
        <ele>2286</ele>
        <time>2016-01-30T09:55:31Z</time>
      </trkpt>
      <trkpt lat="45.30772" lon="6.16402">
        <ele>2286.3</ele>
        <time>2016-01-30T09:55:32Z</time>
      </trkpt>
      <trkpt lat="45.30788" lon="6.16402">
        <ele>2288.8</ele>
        <time>2016-01-30T09:55:49Z</time>
      </trkpt>
      <trkpt lat="45.30796" lon="6.16403">
        <ele>2288.6</ele>
        <time>2016-01-30T09:55:53Z</time>
      </trkpt>
      <trkpt lat="45.30805" lon="6.16404">
        <ele>2288.9</ele>
        <time>2016-01-30T09:55:57Z</time>
      </trkpt>
      <trkpt lat="45.30813" lon="6.16396">
        <ele>2289</ele>
        <time>2016-01-30T09:56:06Z</time>
      </trkpt>
      <trkpt lat="45.30804" lon="6.16385">
        <ele>2289</ele>
        <time>2016-01-30T09:56:14Z</time>
      </trkpt>
      <trkpt lat="45.30794" lon="6.16377">
        <ele>2291</ele>
        <time>2016-01-30T09:56:22Z</time>
      </trkpt>
      <trkpt lat="45.30784" lon="6.16377">
        <ele>2296</ele>
        <time>2016-01-30T09:56:54Z</time>
      </trkpt>
      <trkpt lat="45.30784" lon="6.16376">
        <ele>2297</ele>
        <time>2016-01-30T09:56:56Z</time>
      </trkpt>
      <trkpt lat="45.30801" lon="6.16371">
        <ele>2301</ele>
        <time>2016-01-30T09:57:37Z</time>
      </trkpt>
      <trkpt lat="45.30816" lon="6.16376">
        <ele>2303</ele>
        <time>2016-01-30T09:58:20Z</time>
      </trkpt>
      <trkpt lat="45.30819" lon="6.16377">
        <ele>2303.7</ele>
        <time>2016-01-30T09:58:22Z</time>
      </trkpt>
      <trkpt lat="45.30831" lon="6.16367">
        <ele>2305</ele>
        <time>2016-01-30T09:58:45Z</time>
      </trkpt>
      <trkpt lat="45.30828" lon="6.16355">
        <ele>2308</ele>
        <time>2016-01-30T09:59:09Z</time>
      </trkpt>
      <trkpt lat="45.30826" lon="6.16342">
        <ele>2313</ele>
        <time>2016-01-30T09:59:29Z</time>
      </trkpt>
      <trkpt lat="45.30826" lon="6.16341">
        <ele>2313</ele>
        <time>2016-01-30T09:59:31Z</time>
      </trkpt>
      <trkpt lat="45.30813" lon="6.16341">
        <ele>2316</ele>
        <time>2016-01-30T10:00:16Z</time>
      </trkpt>
      <trkpt lat="45.30804" lon="6.16339">
        <ele>2317</ele>
        <time>2016-01-30T10:00:28Z</time>
      </trkpt>
      <trkpt lat="45.30796" lon="6.16327">
        <ele>2319</ele>
        <time>2016-01-30T10:00:44Z</time>
      </trkpt>
      <trkpt lat="45.30796" lon="6.16325">
        <ele>2320.7</ele>
        <time>2016-01-30T10:00:46Z</time>
      </trkpt>
      <trkpt lat="45.30806" lon="6.1631">
        <ele>2322.9</ele>
        <time>2016-01-30T10:01:09Z</time>
      </trkpt>
      <trkpt lat="45.30813" lon="6.16305">
        <ele>2323.7</ele>
        <time>2016-01-30T10:01:17Z</time>
      </trkpt>
      <trkpt lat="45.30822" lon="6.16302">
        <ele>2324</ele>
        <time>2016-01-30T10:01:32Z</time>
      </trkpt>
      <trkpt lat="45.30829" lon="6.16293">
        <ele>2328</ele>
        <time>2016-01-30T10:02:04Z</time>
      </trkpt>
      <trkpt lat="45.30829" lon="6.16292">
        <ele>2329.4</ele>
        <time>2016-01-30T10:02:06Z</time>
      </trkpt>
      <trkpt lat="45.30828" lon="6.1627">
        <ele>2338</ele>
        <time>2016-01-30T10:03:32Z</time>
      </trkpt>
      <trkpt lat="45.30828" lon="6.1627">
        <ele>2338.8</ele>
        <time>2016-01-30T10:03:34Z</time>
      </trkpt>
      <trkpt lat="45.30842" lon="6.16259">
        <ele>2350</ele>
        <time>2016-01-30T10:04:55Z</time>
      </trkpt>
      <trkpt lat="45.30843" lon="6.16259">
        <ele>2350.5</ele>
        <time>2016-01-30T10:04:57Z</time>
      </trkpt>
      <trkpt lat="45.3085" lon="6.16237">
        <ele>2358</ele>
        <time>2016-01-30T10:06:06Z</time>
      </trkpt>
      <trkpt lat="45.30851" lon="6.16237">
        <ele>2359.1</ele>
        <time>2016-01-30T10:06:08Z</time>
      </trkpt>
      <trkpt lat="45.30859" lon="6.16214">
        <ele>2368.6</ele>
        <time>2016-01-30T10:07:29Z</time>
      </trkpt>
      <trkpt lat="45.30859" lon="6.16213">
        <ele>2368.7</ele>
        <time>2016-01-30T10:07:30Z</time>
      </trkpt>
      <trkpt lat="45.30845" lon="6.162">
        <ele>2378.5</ele>
        <time>2016-01-30T10:08:41Z</time>
      </trkpt>
      <trkpt lat="45.30844" lon="6.16201">
        <ele>2378.5</ele>
        <time>2016-01-30T10:08:42Z</time>
      </trkpt>
      <trkpt lat="45.30831" lon="6.16204">
        <ele>2377.6</ele>
        <time>2016-01-30T10:08:52Z</time>
      </trkpt>
      <trkpt lat="45.30822" lon="6.16207">
        <ele>2377</ele>
        <time>2016-01-30T10:08:57Z</time>
      </trkpt>
      <trkpt lat="45.30829" lon="6.16197">
        <ele>2377</ele>
        <time>2016-01-30T10:09:21Z</time>
      </trkpt>
      <trkpt lat="45.30838" lon="6.1619">
        <ele>2376</ele>
        <time>2016-01-30T10:09:33Z</time>
      </trkpt>
      <trkpt lat="45.30846" lon="6.16185">
        <ele>2376</ele>
        <time>2016-01-30T10:09:49Z</time>
      </trkpt>
      <trkpt lat="45.30846" lon="6.16185">
        <ele>2376.4</ele>
        <time>2016-01-30T10:09:51Z</time>
      </trkpt>
      <trkpt lat="45.30856" lon="6.16184">
        <ele>2378.2</ele>
        <time>2016-01-30T10:11:02Z</time>
      </trkpt>
      <trkpt lat="45.30855" lon="6.1619">
        <ele>2376</ele>
        <time>2016-01-30T10:11:51Z</time>
      </trkpt>
      <trkpt lat="45.30863" lon="6.16191">
        <ele>2376.7</ele>
        <time>2016-01-30T10:11:57Z</time>
      </trkpt>
      <trkpt lat="45.30853" lon="6.16184">
        <ele>2382</ele>
        <time>2016-01-30T10:12:34Z</time>
      </trkpt>
      <trkpt lat="45.30851" lon="6.16183">
        <ele>2382.2</ele>
        <time>2016-01-30T10:12:36Z</time>
      </trkpt>
      <trkpt lat="45.30867" lon="6.1616">
        <ele>2385</ele>
        <time>2016-01-30T10:13:06Z</time>
      </trkpt>
      <trkpt lat="45.30864" lon="6.16147">
        <ele>2387</ele>
        <time>2016-01-30T10:13:24Z</time>
      </trkpt>
      <trkpt lat="45.30873" lon="6.16137">
        <ele>2390</ele>
        <time>2016-01-30T10:13:40Z</time>
      </trkpt>
      <trkpt lat="45.30875" lon="6.16136">
        <ele>2391.3</ele>
        <time>2016-01-30T10:13:42Z</time>
      </trkpt>
      <trkpt lat="45.30886" lon="6.16112">
        <ele>2394</ele>
        <time>2016-01-30T10:14:16Z</time>
      </trkpt>
      <trkpt lat="45.30888" lon="6.16095">
        <ele>2398</ele>
        <time>2016-01-30T10:14:44Z</time>
      </trkpt>
      <trkpt lat="45.30889" lon="6.16093">
        <ele>2398.9</ele>
        <time>2016-01-30T10:14:46Z</time>
      </trkpt>
      <trkpt lat="45.30887" lon="6.16067">
        <ele>2402</ele>
        <time>2016-01-30T10:15:20Z</time>
      </trkpt>
      <trkpt lat="45.30892" lon="6.16054">
        <ele>2404</ele>
        <time>2016-01-30T10:15:36Z</time>
      </trkpt>
      <trkpt lat="45.30889" lon="6.16042">
        <ele>2405</ele>
        <time>2016-01-30T10:15:48Z</time>
      </trkpt>
      <trkpt lat="45.30889" lon="6.1604">
        <ele>2405.9</ele>
        <time>2016-01-30T10:15:50Z</time>
      </trkpt>
      <trkpt lat="45.30885" lon="6.16014">
        <ele>2408</ele>
        <time>2016-01-30T10:16:16Z</time>
      </trkpt>
      <trkpt lat="45.30886" lon="6.16001">
        <ele>2411</ele>
        <time>2016-01-30T10:16:41Z</time>
      </trkpt>
      <trkpt lat="45.30882" lon="6.15988">
        <ele>2414</ele>
        <time>2016-01-30T10:16:57Z</time>
      </trkpt>
      <trkpt lat="45.30882" lon="6.15987">
        <ele>2414.9</ele>
        <time>2016-01-30T10:16:59Z</time>
      </trkpt>
      <trkpt lat="45.30883" lon="6.1596">
        <ele>2421</ele>
        <time>2016-01-30T10:17:45Z</time>
      </trkpt>
      <trkpt lat="45.30893" lon="6.15957">
        <ele>2422</ele>
        <time>2016-01-30T10:17:53Z</time>
      </trkpt>
      <trkpt lat="45.30902" lon="6.15952">
        <ele>2423</ele>
        <time>2016-01-30T10:18:05Z</time>
      </trkpt>
      <trkpt lat="45.30902" lon="6.15951">
        <ele>2423.3</ele>
        <time>2016-01-30T10:18:07Z</time>
      </trkpt>
      <trkpt lat="45.30886" lon="6.15939">
        <ele>2430</ele>
        <time>2016-01-30T10:19:01Z</time>
      </trkpt>
      <trkpt lat="45.30888" lon="6.15926">
        <ele>2435</ele>
        <time>2016-01-30T10:19:29Z</time>
      </trkpt>
      <trkpt lat="45.30888" lon="6.15926">
        <ele>2436.4</ele>
        <time>2016-01-30T10:19:31Z</time>
      </trkpt>
      <trkpt lat="45.30889" lon="6.15906">
        <ele>2446</ele>
        <time>2016-01-30T10:20:57Z</time>
      </trkpt>
      <trkpt lat="45.30889" lon="6.15906">
        <ele>2447</ele>
        <time>2016-01-30T10:20:59Z</time>
      </trkpt>
      <trkpt lat="45.30891" lon="6.15879">
        <ele>2453</ele>
        <time>2016-01-30T10:21:41Z</time>
      </trkpt>
      <trkpt lat="45.30892" lon="6.15865">
        <ele>2456</ele>
        <time>2016-01-30T10:22:01Z</time>
      </trkpt>
      <trkpt lat="45.30893" lon="6.15864">
        <ele>2457</ele>
        <time>2016-01-30T10:22:03Z</time>
      </trkpt>
      <trkpt lat="45.30908" lon="6.15843">
        <ele>2460</ele>
        <time>2016-01-30T10:22:42Z</time>
      </trkpt>
      <trkpt lat="45.30902" lon="6.15832">
        <ele>2464</ele>
        <time>2016-01-30T10:23:12Z</time>
      </trkpt>
      <trkpt lat="45.30902" lon="6.15831">
        <ele>2464.5</ele>
        <time>2016-01-30T10:23:14Z</time>
      </trkpt>
      <trkpt lat="45.30911" lon="6.15807">
        <ele>2469</ele>
        <time>2016-01-30T10:23:48Z</time>
      </trkpt>
      <trkpt lat="45.30914" lon="6.15794">
        <ele>2474</ele>
        <time>2016-01-30T10:24:20Z</time>
      </trkpt>
      <trkpt lat="45.30916" lon="6.15792">
        <ele>2475.5</ele>
        <time>2016-01-30T10:24:22Z</time>
      </trkpt>
      <trkpt lat="45.30922" lon="6.15766">
        <ele>2479</ele>
        <time>2016-01-30T10:25:08Z</time>
      </trkpt>
      <trkpt lat="45.30931" lon="6.15756">
        <ele>2481</ele>
        <time>2016-01-30T10:25:20Z</time>
      </trkpt>
      <trkpt lat="45.30939" lon="6.15748">
        <ele>2487</ele>
        <time>2016-01-30T10:25:56Z</time>
      </trkpt>
      <trkpt lat="45.3094" lon="6.15748">
        <ele>2488.7</ele>
        <time>2016-01-30T10:25:58Z</time>
      </trkpt>
      <trkpt lat="45.30954" lon="6.15733">
        <ele>2492</ele>
        <time>2016-01-30T10:26:28Z</time>
      </trkpt>
      <trkpt lat="45.30957" lon="6.15722">
        <ele>2496.8</ele>
        <time>2016-01-30T10:26:51Z</time>
      </trkpt>
      <trkpt lat="45.30965" lon="6.1572">
        <ele>2497.4</ele>
        <time>2016-01-30T10:26:56Z</time>
      </trkpt>
      <trkpt lat="45.30974" lon="6.15718">
        <ele>2498.8</ele>
        <time>2016-01-30T10:27:02Z</time>
      </trkpt>
      <trkpt lat="45.30975" lon="6.15718">
        <ele>2498.9</ele>
        <time>2016-01-30T10:27:03Z</time>
      </trkpt>
      <trkpt lat="45.30991" lon="6.15717">
        <ele>2500.9</ele>
        <time>2016-01-30T10:27:20Z</time>
      </trkpt>
      <trkpt lat="45.30999" lon="6.15711">
        <ele>2500.4</ele>
        <time>2016-01-30T10:27:54Z</time>
      </trkpt>
      <trkpt lat="45.3099" lon="6.15715">
        <ele>2506.2</ele>
        <time>2016-01-30T10:28:36Z</time>
      </trkpt>
      <trkpt lat="45.3099" lon="6.15715">
        <ele>2506.2</ele>
        <time>2016-01-30T10:28:37Z</time>
      </trkpt>
      <trkpt lat="45.30998" lon="6.15694">
        <ele>2514.9</ele>
        <time>2016-01-30T10:29:23Z</time>
      </trkpt>
      <trkpt lat="45.31004" lon="6.15685">
        <ele>2515.9</ele>
        <time>2016-01-30T10:29:29Z</time>
      </trkpt>
      <trkpt lat="45.3101" lon="6.15676">
        <ele>2516.4</ele>
        <time>2016-01-30T10:29:36Z</time>
      </trkpt>
      <trkpt lat="45.31017" lon="6.15669">
        <ele>2518.3</ele>
        <time>2016-01-30T10:29:43Z</time>
      </trkpt>
      <trkpt lat="45.31017" lon="6.15668">
        <ele>2518.5</ele>
        <time>2016-01-30T10:29:44Z</time>
      </trkpt>
      <trkpt lat="45.3103" lon="6.15655">
        <ele>2520.9</ele>
        <time>2016-01-30T10:30:04Z</time>
      </trkpt>
      <trkpt lat="45.31022" lon="6.15656">
        <ele>2523</ele>
        <time>2016-01-30T10:30:25Z</time>
      </trkpt>
      <trkpt lat="45.31015" lon="6.15661">
        <ele>2523.3</ele>
        <time>2016-01-30T10:30:30Z</time>
      </trkpt>
      <trkpt lat="45.31007" lon="6.15666">
        <ele>2523.7</ele>
        <time>2016-01-30T10:30:36Z</time>
      </trkpt>
      <trkpt lat="45.30999" lon="6.15668">
        <ele>2525.5</ele>
        <time>2016-01-30T10:30:45Z</time>
      </trkpt>
      <trkpt lat="45.30998" lon="6.15668">
        <ele>2525.7</ele>
        <time>2016-01-30T10:30:46Z</time>
      </trkpt>
      <trkpt lat="45.30981" lon="6.15664">
        <ele>2530.2</ele>
        <time>2016-01-30T10:31:14Z</time>
      </trkpt>
      <trkpt lat="45.30976" lon="6.15655">
        <ele>2532.9</ele>
        <time>2016-01-30T10:31:31Z</time>
      </trkpt>
      <trkpt lat="45.30976" lon="6.15643">
        <ele>2535.1</ele>
        <time>2016-01-30T10:31:44Z</time>
      </trkpt>
      <trkpt lat="45.30978" lon="6.15631">
        <ele>2537.1</ele>
        <time>2016-01-30T10:31:58Z</time>
      </trkpt>
      <trkpt lat="45.30978" lon="6.1563">
        <ele>2537.2</ele>
        <time>2016-01-30T10:31:59Z</time>
      </trkpt>
      <trkpt lat="45.30977" lon="6.15608">
        <ele>2543.7</ele>
        <time>2016-01-30T10:32:39Z</time>
      </trkpt>
      <trkpt lat="45.30983" lon="6.15599">
        <ele>2544.4</ele>
        <time>2016-01-30T10:32:48Z</time>
      </trkpt>
      <trkpt lat="45.30988" lon="6.15589">
        <ele>2544</ele>
        <time>2016-01-30T10:32:53Z</time>
      </trkpt>
      <trkpt lat="45.30993" lon="6.1558">
        <ele>2544.9</ele>
        <time>2016-01-30T10:32:58Z</time>
      </trkpt>
      <trkpt lat="45.30998" lon="6.15569">
        <ele>2544.6</ele>
        <time>2016-01-30T10:33:05Z</time>
      </trkpt>
      <trkpt lat="45.30998" lon="6.15568">
        <ele>2544.6</ele>
        <time>2016-01-30T10:33:06Z</time>
      </trkpt>
      <trkpt lat="45.3101" lon="6.15553">
        <ele>2547.3</ele>
        <time>2016-01-30T10:33:57Z</time>
      </trkpt>
      <trkpt lat="45.31019" lon="6.15551">
        <ele>2552.5</ele>
        <time>2016-01-30T10:34:30Z</time>
      </trkpt>
      <trkpt lat="45.31019" lon="6.15551">
        <ele>2552.3</ele>
        <time>2016-01-30T10:34:31Z</time>
      </trkpt>
      <trkpt lat="45.31036" lon="6.15545">
        <ele>2558.3</ele>
        <time>2016-01-30T10:35:09Z</time>
      </trkpt>
      <trkpt lat="45.31045" lon="6.15543">
        <ele>2559.6</ele>
        <time>2016-01-30T10:35:23Z</time>
      </trkpt>
      <trkpt lat="45.31036" lon="6.15542">
        <ele>2563.8</ele>
        <time>2016-01-30T10:36:02Z</time>
      </trkpt>
      <trkpt lat="45.31035" lon="6.15542">
        <ele>2563.9</ele>
        <time>2016-01-30T10:36:03Z</time>
      </trkpt>
      <trkpt lat="45.31026" lon="6.1553">
        <ele>2569.7</ele>
        <time>2016-01-30T10:36:40Z</time>
      </trkpt>
      <trkpt lat="45.31027" lon="6.15517">
        <ele>2572.5</ele>
        <time>2016-01-30T10:36:59Z</time>
      </trkpt>
      <trkpt lat="45.31026" lon="6.15505">
        <ele>2576.3</ele>
        <time>2016-01-30T10:37:27Z</time>
      </trkpt>
      <trkpt lat="45.31026" lon="6.15504">
        <ele>2576.6</ele>
        <time>2016-01-30T10:37:28Z</time>
      </trkpt>
      <trkpt lat="45.31039" lon="6.1549">
        <ele>2577.4</ele>
        <time>2016-01-30T10:37:44Z</time>
      </trkpt>
      <trkpt lat="45.31046" lon="6.15483">
        <ele>2580.7</ele>
        <time>2016-01-30T10:37:53Z</time>
      </trkpt>
      <trkpt lat="45.31054" lon="6.15479">
        <ele>2582.5</ele>
        <time>2016-01-30T10:38:04Z</time>
      </trkpt>
      <trkpt lat="45.31062" lon="6.15473">
        <ele>2582.9</ele>
        <time>2016-01-30T10:38:23Z</time>
      </trkpt>
      <trkpt lat="45.31054" lon="6.15477">
        <ele>2587.2</ele>
        <time>2016-01-30T10:38:41Z</time>
      </trkpt>
      <trkpt lat="45.31053" lon="6.15478">
        <ele>2587.3</ele>
        <time>2016-01-30T10:38:42Z</time>
      </trkpt>
      <trkpt lat="45.31037" lon="6.15482">
        <ele>2592.7</ele>
        <time>2016-01-30T10:39:15Z</time>
      </trkpt>
      <trkpt lat="45.31043" lon="6.15473">
        <ele>2592.1</ele>
        <time>2016-01-30T10:39:29Z</time>
      </trkpt>
      <trkpt lat="45.3105" lon="6.15468">
        <ele>2592.6</ele>
        <time>2016-01-30T10:39:36Z</time>
      </trkpt>
      <trkpt lat="45.31057" lon="6.15462">
        <ele>2594.4</ele>
        <time>2016-01-30T10:39:45Z</time>
      </trkpt>
      <trkpt lat="45.31058" lon="6.15461">
        <ele>2594.5</ele>
        <time>2016-01-30T10:39:46Z</time>
      </trkpt>
      <trkpt lat="45.31051" lon="6.15448">
        <ele>2599.7</ele>
        <time>2016-01-30T10:40:27Z</time>
      </trkpt>
      <trkpt lat="45.31043" lon="6.15453">
        <ele>2601.1</ele>
        <time>2016-01-30T10:40:35Z</time>
      </trkpt>
      <trkpt lat="45.31034" lon="6.1545">
        <ele>2603.1</ele>
        <time>2016-01-30T10:40:50Z</time>
      </trkpt>
      <trkpt lat="45.31034" lon="6.15449">
        <ele>2603.5</ele>
        <time>2016-01-30T10:40:51Z</time>
      </trkpt>
      <trkpt lat="45.31035" lon="6.15432">
        <ele>2612.8</ele>
        <time>2016-01-30T10:41:45Z</time>
      </trkpt>
      <trkpt lat="45.31043" lon="6.15439">
        <ele>2611.8</ele>
        <time>2016-01-30T10:44:59Z</time>
      </trkpt>
      <trkpt lat="45.31043" lon="6.15439">
        <ele>2611.9</ele>
        <time>2016-01-30T10:45:00Z</time>
      </trkpt>
      <trkpt lat="45.31037" lon="6.1543">
        <ele>2611.8</ele>
        <time>2016-01-30T10:46:29Z</time>
      </trkpt>
      <trkpt lat="45.31046" lon="6.15428">
        <ele>2610.9</ele>
        <time>2016-01-30T10:48:44Z</time>
      </trkpt>
      <trkpt lat="45.31047" lon="6.15419">
        <ele>2612.2</ele>
        <time>2016-01-30T10:49:45Z</time>
      </trkpt>
      <trkpt lat="45.31046" lon="6.15419">
        <ele>2612</ele>
        <time>2016-01-30T10:49:46Z</time>
      </trkpt>
      <trkpt lat="45.31031" lon="6.15425">
        <ele>2609.2</ele>
        <time>2016-01-30T10:51:05Z</time>
      </trkpt>
      <trkpt lat="45.31031" lon="6.15425">
        <ele>2609.1</ele>
        <time>2016-01-30T10:51:06Z</time>
      </trkpt>
      <trkpt lat="45.31036" lon="6.15437">
        <ele>2610.4</ele>
        <time>2016-01-30T10:52:13Z</time>
      </trkpt>
      <trkpt lat="45.31035" lon="6.15438">
        <ele>2611.2</ele>
        <time>2016-01-30T10:53:57Z</time>
      </trkpt>
      <trkpt lat="45.31035" lon="6.15439">
        <ele>2611.7</ele>
        <time>2016-01-30T10:53:58Z</time>
      </trkpt>
      <trkpt lat="45.31027" lon="6.15434">
        <ele>2613.6</ele>
        <time>2016-01-30T10:55:44Z</time>
      </trkpt>
      <trkpt lat="45.31035" lon="6.15429">
        <ele>2615.2</ele>
        <time>2016-01-30T10:56:57Z</time>
      </trkpt>
      <trkpt lat="45.31028" lon="6.1542">
        <ele>2615.6</ele>
        <time>2016-01-30T11:00:00Z</time>
      </trkpt>
      <trkpt lat="45.31033" lon="6.15432">
        <ele>2614.5</ele>
        <time>2016-01-30T11:01:21Z</time>
      </trkpt>
      <trkpt lat="45.31035" lon="6.15447">
        <ele>2610.2</ele>
        <time>2016-01-30T11:02:23Z</time>
      </trkpt>
      <trkpt lat="45.31037" lon="6.1545">
        <ele>2609.7</ele>
        <time>2016-01-30T11:02:24Z</time>
      </trkpt>
      <trkpt lat="45.31046" lon="6.15461">
        <ele>2606.7</ele>
        <time>2016-01-30T11:02:27Z</time>
      </trkpt>
      <trkpt lat="45.31052" lon="6.1547">
        <ele>2604.6</ele>
        <time>2016-01-30T11:02:30Z</time>
      </trkpt>
      <trkpt lat="45.31056" lon="6.15479">
        <ele>2603.3</ele>
        <time>2016-01-30T11:03:06Z</time>
      </trkpt>
      <trkpt lat="45.3106" lon="6.1549">
        <ele>2602.1</ele>
        <time>2016-01-30T11:03:10Z</time>
      </trkpt>
      <trkpt lat="45.31066" lon="6.15497">
        <ele>2601.3</ele>
        <time>2016-01-30T11:03:14Z</time>
      </trkpt>
      <trkpt lat="45.3107" lon="6.15507">
        <ele>2601.2</ele>
        <time>2016-01-30T11:03:18Z</time>
      </trkpt>
      <trkpt lat="45.31075" lon="6.15516">
        <ele>2600.3</ele>
        <time>2016-01-30T11:03:20Z</time>
      </trkpt>
      <trkpt lat="45.3108" lon="6.15526">
        <ele>2598.2</ele>
        <time>2016-01-30T11:03:24Z</time>
      </trkpt>
      <trkpt lat="45.31073" lon="6.15526">
        <ele>2594.6</ele>
        <time>2016-01-30T11:03:37Z</time>
      </trkpt>
      <trkpt lat="45.31071" lon="6.15528">
        <ele>2594</ele>
        <time>2016-01-30T11:03:38Z</time>
      </trkpt>
      <trkpt lat="45.31064" lon="6.15543">
        <ele>2587.1</ele>
        <time>2016-01-30T11:03:43Z</time>
      </trkpt>
      <trkpt lat="45.3106" lon="6.15551">
        <ele>2582.3</ele>
        <time>2016-01-30T11:03:46Z</time>
      </trkpt>
      <trkpt lat="45.31052" lon="6.15556">
        <ele>2574.9</ele>
        <time>2016-01-30T11:03:49Z</time>
      </trkpt>
      <trkpt lat="45.31051" lon="6.15568">
        <ele>2570.3</ele>
        <time>2016-01-30T11:03:52Z</time>
      </trkpt>
      <trkpt lat="45.31047" lon="6.15579">
        <ele>2560.3</ele>
        <time>2016-01-30T11:04:08Z</time>
      </trkpt>
      <trkpt lat="45.31051" lon="6.15589">
        <ele>2560.8</ele>
        <time>2016-01-30T11:04:12Z</time>
      </trkpt>
      <trkpt lat="45.31053" lon="6.15597">
        <ele>2559.9</ele>
        <time>2016-01-30T11:04:14Z</time>
      </trkpt>
      <trkpt lat="45.31056" lon="6.15607">
        <ele>2558.9</ele>
        <time>2016-01-30T11:04:17Z</time>
      </trkpt>
      <trkpt lat="45.31058" lon="6.15616">
        <ele>2557.7</ele>
        <time>2016-01-30T11:04:20Z</time>
      </trkpt>
      <trkpt lat="45.3106" lon="6.15626">
        <ele>2557</ele>
        <time>2016-01-30T11:04:23Z</time>
      </trkpt>
      <trkpt lat="45.31062" lon="6.15638">
        <ele>2554.5</ele>
        <time>2016-01-30T11:04:26Z</time>
      </trkpt>
      <trkpt lat="45.31063" lon="6.1565">
        <ele>2552.9</ele>
        <time>2016-01-30T11:04:28Z</time>
      </trkpt>
      <trkpt lat="45.31055" lon="6.15654">
        <ele>2550.2</ele>
        <time>2016-01-30T11:04:31Z</time>
      </trkpt>
      <trkpt lat="45.31053" lon="6.15666">
        <ele>2547.1</ele>
        <time>2016-01-30T11:04:33Z</time>
      </trkpt>
      <trkpt lat="45.31046" lon="6.15666">
        <ele>2544.9</ele>
        <time>2016-01-30T11:04:35Z</time>
      </trkpt>
      <trkpt lat="45.31043" lon="6.1567">
        <ele>2542.7</ele>
        <time>2016-01-30T11:04:36Z</time>
      </trkpt>
      <trkpt lat="45.3104" lon="6.15678">
        <ele>2541</ele>
        <time>2016-01-30T11:04:37Z</time>
      </trkpt>
      <trkpt lat="45.31039" lon="6.15689">
        <ele>2538.9</ele>
        <time>2016-01-30T11:04:38Z</time>
      </trkpt>
      <trkpt lat="45.31037" lon="6.15699">
        <ele>2537.2</ele>
        <time>2016-01-30T11:04:39Z</time>
      </trkpt>
      <trkpt lat="45.31036" lon="6.15708">
        <ele>2535.6</ele>
        <time>2016-01-30T11:04:40Z</time>
      </trkpt>
      <trkpt lat="45.31034" lon="6.15717">
        <ele>2534.5</ele>
        <time>2016-01-30T11:04:41Z</time>
      </trkpt>
      <trkpt lat="45.31031" lon="6.15724">
        <ele>2533.6</ele>
        <time>2016-01-30T11:04:42Z</time>
      </trkpt>
      <trkpt lat="45.3103" lon="6.15732">
        <ele>2532.3</ele>
        <time>2016-01-30T11:04:43Z</time>
      </trkpt>
      <trkpt lat="45.31029" lon="6.15739">
        <ele>2531.3</ele>
        <time>2016-01-30T11:04:44Z</time>
      </trkpt>
      <trkpt lat="45.31028" lon="6.15747">
        <ele>2530.4</ele>
        <time>2016-01-30T11:04:45Z</time>
      </trkpt>
      <trkpt lat="45.31027" lon="6.15753">
        <ele>2529.8</ele>
        <time>2016-01-30T11:04:46Z</time>
      </trkpt>
      <trkpt lat="45.31026" lon="6.1576">
        <ele>2528.9</ele>
        <time>2016-01-30T11:04:47Z</time>
      </trkpt>
      <trkpt lat="45.31026" lon="6.15767">
        <ele>2528.3</ele>
        <time>2016-01-30T11:04:48Z</time>
      </trkpt>
      <trkpt lat="45.31025" lon="6.15774">
        <ele>2527.9</ele>
        <time>2016-01-30T11:04:49Z</time>
      </trkpt>
      <trkpt lat="45.31025" lon="6.15781">
        <ele>2526.8</ele>
        <time>2016-01-30T11:04:50Z</time>
      </trkpt>
      <trkpt lat="45.31023" lon="6.15792">
        <ele>2524.7</ele>
        <time>2016-01-30T11:04:52Z</time>
      </trkpt>
      <trkpt lat="45.31017" lon="6.15795">
        <ele>2521.5</ele>
        <time>2016-01-30T11:04:55Z</time>
      </trkpt>
      <trkpt lat="45.31009" lon="6.15799">
        <ele>2514.6</ele>
        <time>2016-01-30T11:05:32Z</time>
      </trkpt>
      <trkpt lat="45.31007" lon="6.15806">
        <ele>2514.2</ele>
        <time>2016-01-30T11:05:34Z</time>
      </trkpt>
      <trkpt lat="45.31004" lon="6.15818">
        <ele>2513.3</ele>
        <time>2016-01-30T11:05:36Z</time>
      </trkpt>
      <trkpt lat="45.31003" lon="6.15824">
        <ele>2512.9</ele>
        <time>2016-01-30T11:05:37Z</time>
      </trkpt>
      <trkpt lat="45.31001" lon="6.1583">
        <ele>2512.5</ele>
        <time>2016-01-30T11:05:38Z</time>
      </trkpt>
      <trkpt lat="45.31" lon="6.15837">
        <ele>2512.3</ele>
        <time>2016-01-30T11:05:39Z</time>
      </trkpt>
      <trkpt lat="45.30998" lon="6.15843">
        <ele>2511.8</ele>
        <time>2016-01-30T11:05:40Z</time>
      </trkpt>
      <trkpt lat="45.30996" lon="6.15849">
        <ele>2511.5</ele>
        <time>2016-01-30T11:05:41Z</time>
      </trkpt>
      <trkpt lat="45.30994" lon="6.15855">
        <ele>2510.8</ele>
        <time>2016-01-30T11:05:42Z</time>
      </trkpt>
      <trkpt lat="45.30992" lon="6.15862">
        <ele>2510.3</ele>
        <time>2016-01-30T11:05:43Z</time>
      </trkpt>
      <trkpt lat="45.30984" lon="6.15865">
        <ele>2507.2</ele>
        <time>2016-01-30T11:05:47Z</time>
      </trkpt>
      <trkpt lat="45.30977" lon="6.15864">
        <ele>2502.8</ele>
        <time>2016-01-30T11:05:50Z</time>
      </trkpt>
      <trkpt lat="45.3097" lon="6.15856">
        <ele>2498.3</ele>
        <time>2016-01-30T11:05:53Z</time>
      </trkpt>
      <trkpt lat="45.30964" lon="6.1585">
        <ele>2494.1</ele>
        <time>2016-01-30T11:05:55Z</time>
      </trkpt>
      <trkpt lat="45.30956" lon="6.15851">
        <ele>2490</ele>
        <time>2016-01-30T11:05:57Z</time>
      </trkpt>
      <trkpt lat="45.3095" lon="6.15843">
        <ele>2486.3</ele>
        <time>2016-01-30T11:05:59Z</time>
      </trkpt>
      <trkpt lat="45.30942" lon="6.15843">
        <ele>2482.8</ele>
        <time>2016-01-30T11:06:01Z</time>
      </trkpt>
      <trkpt lat="45.3094" lon="6.1585">
        <ele>2481.6</ele>
        <time>2016-01-30T11:06:02Z</time>
      </trkpt>
      <trkpt lat="45.30938" lon="6.15858">
        <ele>2479.9</ele>
        <time>2016-01-30T11:06:03Z</time>
      </trkpt>
      <trkpt lat="45.30937" lon="6.15865">
        <ele>2478.7</ele>
        <time>2016-01-30T11:06:04Z</time>
      </trkpt>
      <trkpt lat="45.30936" lon="6.15872">
        <ele>2477.8</ele>
        <time>2016-01-30T11:06:05Z</time>
      </trkpt>
      <trkpt lat="45.30935" lon="6.15878">
        <ele>2476.6</ele>
        <time>2016-01-30T11:06:06Z</time>
      </trkpt>
      <trkpt lat="45.30933" lon="6.15884">
        <ele>2475.7</ele>
        <time>2016-01-30T11:06:07Z</time>
      </trkpt>
      <trkpt lat="45.30927" lon="6.15892">
        <ele>2473.5</ele>
        <time>2016-01-30T11:06:09Z</time>
      </trkpt>
      <trkpt lat="45.30922" lon="6.15885">
        <ele>2471.5</ele>
        <time>2016-01-30T11:06:11Z</time>
      </trkpt>
      <trkpt lat="45.30914" lon="6.15887">
        <ele>2469.1</ele>
        <time>2016-01-30T11:06:13Z</time>
      </trkpt>
      <trkpt lat="45.30912" lon="6.15898">
        <ele>2467</ele>
        <time>2016-01-30T11:06:15Z</time>
      </trkpt>
      <trkpt lat="45.30909" lon="6.1591">
        <ele>2465.2</ele>
        <time>2016-01-30T11:06:19Z</time>
      </trkpt>
      <trkpt lat="45.30905" lon="6.1592">
        <ele>2462.7</ele>
        <time>2016-01-30T11:06:45Z</time>
      </trkpt>
      <trkpt lat="45.30903" lon="6.15921">
        <ele>2461.9</ele>
        <time>2016-01-30T11:06:46Z</time>
      </trkpt>
      <trkpt lat="45.30898" lon="6.15935">
        <ele>2454.4</ele>
        <time>2016-01-30T11:07:03Z</time>
      </trkpt>
      <trkpt lat="45.30899" lon="6.15945">
        <ele>2452.9</ele>
        <time>2016-01-30T11:07:05Z</time>
      </trkpt>
      <trkpt lat="45.30899" lon="6.15952">
        <ele>2452.1</ele>
        <time>2016-01-30T11:07:06Z</time>
      </trkpt>
      <trkpt lat="45.309" lon="6.1596">
        <ele>2451.4</ele>
        <time>2016-01-30T11:07:07Z</time>
      </trkpt>
      <trkpt lat="45.309" lon="6.15968">
        <ele>2450.5</ele>
        <time>2016-01-30T11:07:08Z</time>
      </trkpt>
      <trkpt lat="45.30901" lon="6.1598">
        <ele>2448.8</ele>
        <time>2016-01-30T11:07:10Z</time>
      </trkpt>
      <trkpt lat="45.309" lon="6.15989">
        <ele>2447.5</ele>
        <time>2016-01-30T11:07:12Z</time>
      </trkpt>
      <trkpt lat="45.30899" lon="6.16001">
        <ele>2446.8</ele>
        <time>2016-01-30T11:07:14Z</time>
      </trkpt>
      <trkpt lat="45.30898" lon="6.16012">
        <ele>2446</ele>
        <time>2016-01-30T11:07:16Z</time>
      </trkpt>
      <trkpt lat="45.30897" lon="6.16022">
        <ele>2444.1</ele>
        <time>2016-01-30T11:07:18Z</time>
      </trkpt>
      <trkpt lat="45.30897" lon="6.16031">
        <ele>2442.6</ele>
        <time>2016-01-30T11:07:20Z</time>
      </trkpt>
      <trkpt lat="45.30897" lon="6.16041">
        <ele>2441.2</ele>
        <time>2016-01-30T11:07:22Z</time>
      </trkpt>
      <trkpt lat="45.30897" lon="6.16053">
        <ele>2440.2</ele>
        <time>2016-01-30T11:07:24Z</time>
      </trkpt>
      <trkpt lat="45.30897" lon="6.16063">
        <ele>2439.2</ele>
        <time>2016-01-30T11:07:26Z</time>
      </trkpt>
      <trkpt lat="45.30898" lon="6.16073">
        <ele>2436.6</ele>
        <time>2016-01-30T11:07:41Z</time>
      </trkpt>
      <trkpt lat="45.30889" lon="6.16073">
        <ele>2433.6</ele>
        <time>2016-01-30T11:07:45Z</time>
      </trkpt>
      <trkpt lat="45.3088" lon="6.16072">
        <ele>2427.5</ele>
        <time>2016-01-30T11:07:49Z</time>
      </trkpt>
      <trkpt lat="45.30879" lon="6.16076">
        <ele>2425.4</ele>
        <time>2016-01-30T11:07:50Z</time>
      </trkpt>
      <trkpt lat="45.30871" lon="6.16085">
        <ele>2417.4</ele>
        <time>2016-01-30T11:07:56Z</time>
      </trkpt>
      <trkpt lat="45.30865" lon="6.16091">
        <ele>2412.5</ele>
        <time>2016-01-30T11:07:59Z</time>
      </trkpt>
      <trkpt lat="45.30861" lon="6.16097">
        <ele>2406.5</ele>
        <time>2016-01-30T11:08:02Z</time>
      </trkpt>
      <trkpt lat="45.30861" lon="6.16103">
        <ele>2405.2</ele>
        <time>2016-01-30T11:08:03Z</time>
      </trkpt>
      <trkpt lat="45.30861" lon="6.1611">
        <ele>2403.3</ele>
        <time>2016-01-30T11:08:04Z</time>
      </trkpt>
      <trkpt lat="45.30861" lon="6.16118">
        <ele>2401.9</ele>
        <time>2016-01-30T11:08:05Z</time>
      </trkpt>
      <trkpt lat="45.30863" lon="6.16129">
        <ele>2397.2</ele>
        <time>2016-01-30T11:08:13Z</time>
      </trkpt>
      <trkpt lat="45.30865" lon="6.1614">
        <ele>2395.6</ele>
        <time>2016-01-30T11:08:34Z</time>
      </trkpt>
      <trkpt lat="45.30866" lon="6.1615">
        <ele>2394.9</ele>
        <time>2016-01-30T11:08:37Z</time>
      </trkpt>
      <trkpt lat="45.30867" lon="6.16162">
        <ele>2394.2</ele>
        <time>2016-01-30T11:08:39Z</time>
      </trkpt>
      <trkpt lat="45.30867" lon="6.16173">
        <ele>2393.1</ele>
        <time>2016-01-30T11:08:41Z</time>
      </trkpt>
      <trkpt lat="45.30866" lon="6.16185">
        <ele>2392</ele>
        <time>2016-01-30T11:08:44Z</time>
      </trkpt>
      <trkpt lat="45.30865" lon="6.16197">
        <ele>2390.7</ele>
        <time>2016-01-30T11:08:47Z</time>
      </trkpt>
      <trkpt lat="45.30857" lon="6.16201">
        <ele>2385.7</ele>
        <time>2016-01-30T11:08:53Z</time>
      </trkpt>
      <trkpt lat="45.30856" lon="6.16207">
        <ele>2384.4</ele>
        <time>2016-01-30T11:08:54Z</time>
      </trkpt>
      <trkpt lat="45.30855" lon="6.16225">
        <ele>2378.2</ele>
        <time>2016-01-30T11:09:07Z</time>
      </trkpt>
      <trkpt lat="45.30855" lon="6.16236">
        <ele>2377.5</ele>
        <time>2016-01-30T11:09:12Z</time>
      </trkpt>
      <trkpt lat="45.30849" lon="6.16244">
        <ele>2375.4</ele>
        <time>2016-01-30T11:09:33Z</time>
      </trkpt>
      <trkpt lat="45.30842" lon="6.16247">
        <ele>2370.4</ele>
        <time>2016-01-30T11:09:38Z</time>
      </trkpt>
      <trkpt lat="45.30836" lon="6.16239">
        <ele>2368.3</ele>
        <time>2016-01-30T11:09:40Z</time>
      </trkpt>
      <trkpt lat="45.30834" lon="6.16248">
        <ele>2364.9</ele>
        <time>2016-01-30T11:09:43Z</time>
      </trkpt>
      <trkpt lat="45.30827" lon="6.16248">
        <ele>2358.1</ele>
        <time>2016-01-30T11:09:58Z</time>
      </trkpt>
      <trkpt lat="45.30824" lon="6.16246">
        <ele>2357.5</ele>
        <time>2016-01-30T11:09:59Z</time>
      </trkpt>
      <trkpt lat="45.30812" lon="6.16248">
        <ele>2354.2</ele>
        <time>2016-01-30T11:10:17Z</time>
      </trkpt>
      <trkpt lat="45.30803" lon="6.1625">
        <ele>2353.5</ele>
        <time>2016-01-30T11:10:20Z</time>
      </trkpt>
      <trkpt lat="45.30795" lon="6.16252">
        <ele>2353.1</ele>
        <time>2016-01-30T11:10:23Z</time>
      </trkpt>
      <trkpt lat="45.30788" lon="6.16253">
        <ele>2353</ele>
        <time>2016-01-30T11:10:25Z</time>
      </trkpt>
      <trkpt lat="45.30781" lon="6.16254">
        <ele>2352.1</ele>
        <time>2016-01-30T11:10:27Z</time>
      </trkpt>
      <trkpt lat="45.30774" lon="6.16256">
        <ele>2350.9</ele>
        <time>2016-01-30T11:10:29Z</time>
      </trkpt>
      <trkpt lat="45.30766" lon="6.16257">
        <ele>2350.1</ele>
        <time>2016-01-30T11:10:31Z</time>
      </trkpt>
      <trkpt lat="45.30759" lon="6.16258">
        <ele>2349.8</ele>
        <time>2016-01-30T11:10:33Z</time>
      </trkpt>
      <trkpt lat="45.30751" lon="6.16259">
        <ele>2349.7</ele>
        <time>2016-01-30T11:10:35Z</time>
      </trkpt>
      <trkpt lat="45.30743" lon="6.16261">
        <ele>2349.5</ele>
        <time>2016-01-30T11:10:37Z</time>
      </trkpt>
      <trkpt lat="45.30738" lon="6.16261">
        <ele>2349.4</ele>
        <time>2016-01-30T11:10:38Z</time>
      </trkpt>
      <trkpt lat="45.30733" lon="6.16262">
        <ele>2349</ele>
        <time>2016-01-30T11:10:39Z</time>
      </trkpt>
      <trkpt lat="45.30728" lon="6.16263">
        <ele>2348.6</ele>
        <time>2016-01-30T11:10:40Z</time>
      </trkpt>
      <trkpt lat="45.3072" lon="6.16264">
        <ele>2347.8</ele>
        <time>2016-01-30T11:10:42Z</time>
      </trkpt>
      <trkpt lat="45.30712" lon="6.16265">
        <ele>2347</ele>
        <time>2016-01-30T11:10:44Z</time>
      </trkpt>
      <trkpt lat="45.30705" lon="6.16267">
        <ele>2346.4</ele>
        <time>2016-01-30T11:10:46Z</time>
      </trkpt>
      <trkpt lat="45.30698" lon="6.16269">
        <ele>2345.7</ele>
        <time>2016-01-30T11:10:48Z</time>
      </trkpt>
      <trkpt lat="45.30691" lon="6.16272">
        <ele>2345.1</ele>
        <time>2016-01-30T11:10:50Z</time>
      </trkpt>
      <trkpt lat="45.30683" lon="6.16277">
        <ele>2344.1</ele>
        <time>2016-01-30T11:11:02Z</time>
      </trkpt>
      <trkpt lat="45.30682" lon="6.16278">
        <ele>2344.2</ele>
        <time>2016-01-30T11:11:03Z</time>
      </trkpt>
      <trkpt lat="45.30671" lon="6.16288">
        <ele>2342.9</ele>
        <time>2016-01-30T11:11:07Z</time>
      </trkpt>
      <trkpt lat="45.30666" lon="6.16291">
        <ele>2342.4</ele>
        <time>2016-01-30T11:11:08Z</time>
      </trkpt>
      <trkpt lat="45.30662" lon="6.16295">
        <ele>2342</ele>
        <time>2016-01-30T11:11:09Z</time>
      </trkpt>
      <trkpt lat="45.30655" lon="6.16302">
        <ele>2340.6</ele>
        <time>2016-01-30T11:11:11Z</time>
      </trkpt>
      <trkpt lat="45.3065" lon="6.16309">
        <ele>2340.3</ele>
        <time>2016-01-30T11:11:13Z</time>
      </trkpt>
      <trkpt lat="45.30645" lon="6.16315">
        <ele>2340</ele>
        <time>2016-01-30T11:11:15Z</time>
      </trkpt>
      <trkpt lat="45.30639" lon="6.16321">
        <ele>2339.2</ele>
        <time>2016-01-30T11:11:17Z</time>
      </trkpt>
      <trkpt lat="45.30633" lon="6.16328">
        <ele>2338</ele>
        <time>2016-01-30T11:11:19Z</time>
      </trkpt>
      <trkpt lat="45.30628" lon="6.16335">
        <ele>2336.9</ele>
        <time>2016-01-30T11:11:21Z</time>
      </trkpt>
      <trkpt lat="45.30621" lon="6.16341">
        <ele>2336.1</ele>
        <time>2016-01-30T11:11:23Z</time>
      </trkpt>
      <trkpt lat="45.30615" lon="6.16347">
        <ele>2335.6</ele>
        <time>2016-01-30T11:11:25Z</time>
      </trkpt>
      <trkpt lat="45.30608" lon="6.16353">
        <ele>2334.7</ele>
        <time>2016-01-30T11:11:28Z</time>
      </trkpt>
      <trkpt lat="45.30602" lon="6.16358">
        <ele>2333.4</ele>
        <time>2016-01-30T11:11:31Z</time>
      </trkpt>
      <trkpt lat="45.30595" lon="6.16365">
        <ele>2332.4</ele>
        <time>2016-01-30T11:11:38Z</time>
      </trkpt>
      <trkpt lat="45.30591" lon="6.16374">
        <ele>2330.9</ele>
        <time>2016-01-30T11:11:44Z</time>
      </trkpt>
      <trkpt lat="45.30594" lon="6.16383">
        <ele>2328.3</ele>
        <time>2016-01-30T11:11:52Z</time>
      </trkpt>
      <trkpt lat="45.30596" lon="6.16391">
        <ele>2325.8</ele>
        <time>2016-01-30T11:11:55Z</time>
      </trkpt>
      <trkpt lat="45.30601" lon="6.16397">
        <ele>2322.9</ele>
        <time>2016-01-30T11:11:57Z</time>
      </trkpt>
      <trkpt lat="45.30603" lon="6.16408">
        <ele>2318.2</ele>
        <time>2016-01-30T11:12:00Z</time>
      </trkpt>
      <trkpt lat="45.30609" lon="6.16413">
        <ele>2315.2</ele>
        <time>2016-01-30T11:12:02Z</time>
      </trkpt>
      <trkpt lat="45.30607" lon="6.16422">
        <ele>2311.6</ele>
        <time>2016-01-30T11:12:04Z</time>
      </trkpt>
      <trkpt lat="45.30604" lon="6.16425">
        <ele>2309.9</ele>
        <time>2016-01-30T11:12:05Z</time>
      </trkpt>
      <trkpt lat="45.30594" lon="6.16437">
        <ele>2302.6</ele>
        <time>2016-01-30T11:12:29Z</time>
      </trkpt>
      <trkpt lat="45.306" lon="6.16446">
        <ele>2298</ele>
        <time>2016-01-30T11:12:36Z</time>
      </trkpt>
      <trkpt lat="45.30601" lon="6.16457">
        <ele>2295.4</ele>
        <time>2016-01-30T11:12:39Z</time>
      </trkpt>
      <trkpt lat="45.30601" lon="6.16468">
        <ele>2291.1</ele>
        <time>2016-01-30T11:12:42Z</time>
      </trkpt>
      <trkpt lat="45.30606" lon="6.16479">
        <ele>2287</ele>
        <time>2016-01-30T11:12:45Z</time>
      </trkpt>
      <trkpt lat="45.30611" lon="6.16485">
        <ele>2281.8</ele>
        <time>2016-01-30T11:12:48Z</time>
      </trkpt>
      <trkpt lat="45.30613" lon="6.16496">
        <ele>2277.3</ele>
        <time>2016-01-30T11:12:51Z</time>
      </trkpt>
      <trkpt lat="45.30621" lon="6.16498">
        <ele>2272.5</ele>
        <time>2016-01-30T11:12:54Z</time>
      </trkpt>
      <trkpt lat="45.30626" lon="6.16495">
        <ele>2270</ele>
        <time>2016-01-30T11:12:56Z</time>
      </trkpt>
      <trkpt lat="45.30633" lon="6.16492">
        <ele>2268.2</ele>
        <time>2016-01-30T11:12:58Z</time>
      </trkpt>
      <trkpt lat="45.3064" lon="6.1649">
        <ele>2267.5</ele>
        <time>2016-01-30T11:13:00Z</time>
      </trkpt>
      <trkpt lat="45.30648" lon="6.16488">
        <ele>2265.9</ele>
        <time>2016-01-30T11:13:02Z</time>
      </trkpt>
      <trkpt lat="45.30653" lon="6.16488">
        <ele>2265.1</ele>
        <time>2016-01-30T11:13:03Z</time>
      </trkpt>
      <trkpt lat="45.30659" lon="6.16488">
        <ele>2264.4</ele>
        <time>2016-01-30T11:13:04Z</time>
      </trkpt>
      <trkpt lat="45.30665" lon="6.16487">
        <ele>2263.9</ele>
        <time>2016-01-30T11:13:05Z</time>
      </trkpt>
      <trkpt lat="45.30671" lon="6.16488">
        <ele>2262.6</ele>
        <time>2016-01-30T11:13:06Z</time>
      </trkpt>
      <trkpt lat="45.30678" lon="6.16489">
        <ele>2261.7</ele>
        <time>2016-01-30T11:13:07Z</time>
      </trkpt>
      <trkpt lat="45.30685" lon="6.1649">
        <ele>2260.6</ele>
        <time>2016-01-30T11:13:08Z</time>
      </trkpt>
      <trkpt lat="45.30693" lon="6.16491">
        <ele>2259.8</ele>
        <time>2016-01-30T11:13:09Z</time>
      </trkpt>
      <trkpt lat="45.30699" lon="6.16493">
        <ele>2259.2</ele>
        <time>2016-01-30T11:13:10Z</time>
      </trkpt>
      <trkpt lat="45.30707" lon="6.16496">
        <ele>2257.8</ele>
        <time>2016-01-30T11:13:12Z</time>
      </trkpt>
      <trkpt lat="45.30713" lon="6.16502">
        <ele>2256.6</ele>
        <time>2016-01-30T11:13:15Z</time>
      </trkpt>
      <trkpt lat="45.30718" lon="6.16511">
        <ele>2256.3</ele>
        <time>2016-01-30T11:13:18Z</time>
      </trkpt>
      <trkpt lat="45.3072" lon="6.1652">
        <ele>2255.7</ele>
        <time>2016-01-30T11:13:21Z</time>
      </trkpt>
      <trkpt lat="45.30723" lon="6.16532">
        <ele>2255.3</ele>
        <time>2016-01-30T11:13:24Z</time>
      </trkpt>
      <trkpt lat="45.30726" lon="6.16543">
        <ele>2254.7</ele>
        <time>2016-01-30T11:13:27Z</time>
      </trkpt>
      <trkpt lat="45.30729" lon="6.16554">
        <ele>2254.5</ele>
        <time>2016-01-30T11:13:30Z</time>
      </trkpt>
      <trkpt lat="45.30732" lon="6.16565">
        <ele>2254.2</ele>
        <time>2016-01-30T11:13:33Z</time>
      </trkpt>
      <trkpt lat="45.30734" lon="6.16577">
        <ele>2253.2</ele>
        <time>2016-01-30T11:13:36Z</time>
      </trkpt>
      <trkpt lat="45.30736" lon="6.16588">
        <ele>2252.1</ele>
        <time>2016-01-30T11:13:39Z</time>
      </trkpt>
      <trkpt lat="45.30739" lon="6.16599">
        <ele>2251.3</ele>
        <time>2016-01-30T11:13:42Z</time>
      </trkpt>
      <trkpt lat="45.30741" lon="6.16608">
        <ele>2251</ele>
        <time>2016-01-30T11:13:44Z</time>
      </trkpt>
      <trkpt lat="45.30744" lon="6.16617">
        <ele>2250.6</ele>
        <time>2016-01-30T11:13:46Z</time>
      </trkpt>
      <trkpt lat="45.30746" lon="6.16628">
        <ele>2250.7</ele>
        <time>2016-01-30T11:13:49Z</time>
      </trkpt>
      <trkpt lat="45.30748" lon="6.16639">
        <ele>2251.1</ele>
        <time>2016-01-30T11:13:53Z</time>
      </trkpt>
      <trkpt lat="45.30753" lon="6.16649">
        <ele>2251.1</ele>
        <time>2016-01-30T11:13:57Z</time>
      </trkpt>
      <trkpt lat="45.30756" lon="6.16658">
        <ele>2250.2</ele>
        <time>2016-01-30T11:14:29Z</time>
      </trkpt>
      <trkpt lat="45.30756" lon="6.16662">
        <ele>2250.1</ele>
        <time>2016-01-30T11:14:30Z</time>
      </trkpt>
      <trkpt lat="45.30758" lon="6.16676">
        <ele>2248.3</ele>
        <time>2016-01-30T11:14:33Z</time>
      </trkpt>
      <trkpt lat="45.30761" lon="6.16683">
        <ele>2246.3</ele>
        <time>2016-01-30T11:14:35Z</time>
      </trkpt>
      <trkpt lat="45.30765" lon="6.16691">
        <ele>2244.3</ele>
        <time>2016-01-30T11:14:37Z</time>
      </trkpt>
      <trkpt lat="45.30768" lon="6.16699">
        <ele>2242.6</ele>
        <time>2016-01-30T11:14:39Z</time>
      </trkpt>
      <trkpt lat="45.30763" lon="6.16705">
        <ele>2240.4</ele>
        <time>2016-01-30T11:14:42Z</time>
      </trkpt>
      <trkpt lat="45.30755" lon="6.16709">
        <ele>2233.4</ele>
        <time>2016-01-30T11:14:46Z</time>
      </trkpt>
      <trkpt lat="45.30754" lon="6.16719">
        <ele>2229.9</ele>
        <time>2016-01-30T11:14:48Z</time>
      </trkpt>
      <trkpt lat="45.30757" lon="6.16731">
        <ele>2226.7</ele>
        <time>2016-01-30T11:14:50Z</time>
      </trkpt>
      <trkpt lat="45.30761" lon="6.16741">
        <ele>2224.5</ele>
        <time>2016-01-30T11:14:52Z</time>
      </trkpt>
      <trkpt lat="45.30767" lon="6.16749">
        <ele>2221.9</ele>
        <time>2016-01-30T11:14:54Z</time>
      </trkpt>
      <trkpt lat="45.30767" lon="6.16759">
        <ele>2218.5</ele>
        <time>2016-01-30T11:14:57Z</time>
      </trkpt>
      <trkpt lat="45.30765" lon="6.16768">
        <ele>2216.2</ele>
        <time>2016-01-30T11:14:59Z</time>
      </trkpt>
      <trkpt lat="45.30759" lon="6.16775">
        <ele>2213.4</ele>
        <time>2016-01-30T11:15:01Z</time>
      </trkpt>
      <trkpt lat="45.30753" lon="6.16782">
        <ele>2208.7</ele>
        <time>2016-01-30T11:15:03Z</time>
      </trkpt>
      <trkpt lat="45.30749" lon="6.16791">
        <ele>2204.4</ele>
        <time>2016-01-30T11:15:05Z</time>
      </trkpt>
      <trkpt lat="45.30744" lon="6.16797">
        <ele>2199.4</ele>
        <time>2016-01-30T11:15:07Z</time>
      </trkpt>
      <trkpt lat="45.30738" lon="6.16805">
        <ele>2194.4</ele>
        <time>2016-01-30T11:15:09Z</time>
      </trkpt>
      <trkpt lat="45.30737" lon="6.16817">
        <ele>2190.6</ele>
        <time>2016-01-30T11:15:11Z</time>
      </trkpt>
      <trkpt lat="45.30735" lon="6.16828">
        <ele>2181.9</ele>
        <time>2016-01-30T11:15:16Z</time>
      </trkpt>
      <trkpt lat="45.30738" lon="6.16837">
        <ele>2175.9</ele>
        <time>2016-01-30T11:15:54Z</time>
      </trkpt>
      <trkpt lat="45.30739" lon="6.16839">
        <ele>2176</ele>
        <time>2016-01-30T11:15:55Z</time>
      </trkpt>
      <trkpt lat="45.30736" lon="6.16851">
        <ele>2175.5</ele>
        <time>2016-01-30T11:15:58Z</time>
      </trkpt>
      <trkpt lat="45.30732" lon="6.16861">
        <ele>2172.6</ele>
        <time>2016-01-30T11:16:00Z</time>
      </trkpt>
      <trkpt lat="45.30733" lon="6.16868">
        <ele>2171.7</ele>
        <time>2016-01-30T11:16:01Z</time>
      </trkpt>
      <trkpt lat="45.30731" lon="6.16879">
        <ele>2169.6</ele>
        <time>2016-01-30T11:16:03Z</time>
      </trkpt>
      <trkpt lat="45.30724" lon="6.16885">
        <ele>2166.4</ele>
        <time>2016-01-30T11:16:05Z</time>
      </trkpt>
      <trkpt lat="45.30722" lon="6.16892">
        <ele>2164.3</ele>
        <time>2016-01-30T11:16:06Z</time>
      </trkpt>
      <trkpt lat="45.30715" lon="6.169">
        <ele>2161.6</ele>
        <time>2016-01-30T11:16:08Z</time>
      </trkpt>
      <trkpt lat="45.30714" lon="6.16908">
        <ele>2159.7</ele>
        <time>2016-01-30T11:16:09Z</time>
      </trkpt>
      <trkpt lat="45.30711" lon="6.16914">
        <ele>2158.3</ele>
        <time>2016-01-30T11:16:10Z</time>
      </trkpt>
      <trkpt lat="45.30707" lon="6.16919">
        <ele>2155.8</ele>
        <time>2016-01-30T11:16:11Z</time>
      </trkpt>
      <trkpt lat="45.30706" lon="6.16928">
        <ele>2153.8</ele>
        <time>2016-01-30T11:16:12Z</time>
      </trkpt>
      <trkpt lat="45.30703" lon="6.16935">
        <ele>2151.8</ele>
        <time>2016-01-30T11:16:13Z</time>
      </trkpt>
      <trkpt lat="45.30699" lon="6.16941">
        <ele>2150.2</ele>
        <time>2016-01-30T11:16:14Z</time>
      </trkpt>
      <trkpt lat="45.30697" lon="6.1695">
        <ele>2149</ele>
        <time>2016-01-30T11:16:15Z</time>
      </trkpt>
      <trkpt lat="45.30696" lon="6.16959">
        <ele>2146.8</ele>
        <time>2016-01-30T11:16:16Z</time>
      </trkpt>
      <trkpt lat="45.30691" lon="6.16965">
        <ele>2145.1</ele>
        <time>2016-01-30T11:16:17Z</time>
      </trkpt>
      <trkpt lat="45.30686" lon="6.16972">
        <ele>2142.3</ele>
        <time>2016-01-30T11:16:18Z</time>
      </trkpt>
      <trkpt lat="45.30684" lon="6.16981">
        <ele>2140.2</ele>
        <time>2016-01-30T11:16:19Z</time>
      </trkpt>
      <trkpt lat="45.3068" lon="6.16989">
        <ele>2138.6</ele>
        <time>2016-01-30T11:16:20Z</time>
      </trkpt>
      <trkpt lat="45.30675" lon="6.16997">
        <ele>2136.9</ele>
        <time>2016-01-30T11:16:21Z</time>
      </trkpt>
      <trkpt lat="45.30675" lon="6.17007">
        <ele>2135.6</ele>
        <time>2016-01-30T11:16:22Z</time>
      </trkpt>
      <trkpt lat="45.30676" lon="6.17017">
        <ele>2133.3</ele>
        <time>2016-01-30T11:16:23Z</time>
      </trkpt>
      <trkpt lat="45.30676" lon="6.17026">
        <ele>2131.5</ele>
        <time>2016-01-30T11:16:24Z</time>
      </trkpt>
      <trkpt lat="45.30671" lon="6.17031">
        <ele>2128.9</ele>
        <time>2016-01-30T11:16:25Z</time>
      </trkpt>
      <trkpt lat="45.30668" lon="6.17039">
        <ele>2126.9</ele>
        <time>2016-01-30T11:16:26Z</time>
      </trkpt>
      <trkpt lat="45.30669" lon="6.17046">
        <ele>2125.4</ele>
        <time>2016-01-30T11:16:27Z</time>
      </trkpt>
      <trkpt lat="45.30669" lon="6.17055">
        <ele>2123.6</ele>
        <time>2016-01-30T11:16:28Z</time>
      </trkpt>
      <trkpt lat="45.30666" lon="6.1706">
        <ele>2122.2</ele>
        <time>2016-01-30T11:16:29Z</time>
      </trkpt>
      <trkpt lat="45.3066" lon="6.17064">
        <ele>2119.9</ele>
        <time>2016-01-30T11:16:30Z</time>
      </trkpt>
      <trkpt lat="45.30657" lon="6.17071">
        <ele>2118.2</ele>
        <time>2016-01-30T11:16:31Z</time>
      </trkpt>
      <trkpt lat="45.30659" lon="6.17079">
        <ele>2116.4</ele>
        <time>2016-01-30T11:16:32Z</time>
      </trkpt>
      <trkpt lat="45.30662" lon="6.17087">
        <ele>2115</ele>
        <time>2016-01-30T11:16:33Z</time>
      </trkpt>
      <trkpt lat="45.30666" lon="6.17096">
        <ele>2114</ele>
        <time>2016-01-30T11:16:34Z</time>
      </trkpt>
      <trkpt lat="45.3067" lon="6.17103">
        <ele>2112.5</ele>
        <time>2016-01-30T11:16:35Z</time>
      </trkpt>
      <trkpt lat="45.30674" lon="6.17111">
        <ele>2111.3</ele>
        <time>2016-01-30T11:16:36Z</time>
      </trkpt>
      <trkpt lat="45.30678" lon="6.17118">
        <ele>2110</ele>
        <time>2016-01-30T11:16:37Z</time>
      </trkpt>
      <trkpt lat="45.30681" lon="6.17125">
        <ele>2109</ele>
        <time>2016-01-30T11:16:38Z</time>
      </trkpt>
      <trkpt lat="45.30684" lon="6.17131">
        <ele>2108.3</ele>
        <time>2016-01-30T11:16:39Z</time>
      </trkpt>
      <trkpt lat="45.30679" lon="6.17141">
        <ele>2104.7</ele>
        <time>2016-01-30T11:16:42Z</time>
      </trkpt>
      <trkpt lat="45.30678" lon="6.17147">
        <ele>2103.5</ele>
        <time>2016-01-30T11:16:43Z</time>
      </trkpt>
      <trkpt lat="45.30671" lon="6.17153">
        <ele>2100.3</ele>
        <time>2016-01-30T11:16:45Z</time>
      </trkpt>
      <trkpt lat="45.30667" lon="6.17156">
        <ele>2099.3</ele>
        <time>2016-01-30T11:16:46Z</time>
      </trkpt>
      <trkpt lat="45.30663" lon="6.17164">
        <ele>2097.6</ele>
        <time>2016-01-30T11:16:47Z</time>
      </trkpt>
      <trkpt lat="45.30657" lon="6.17168">
        <ele>2096.4</ele>
        <time>2016-01-30T11:16:48Z</time>
      </trkpt>
      <trkpt lat="45.30651" lon="6.17173">
        <ele>2093.9</ele>
        <time>2016-01-30T11:16:49Z</time>
      </trkpt>
      <trkpt lat="45.30648" lon="6.17181">
        <ele>2092.1</ele>
        <time>2016-01-30T11:16:50Z</time>
      </trkpt>
      <trkpt lat="45.30646" lon="6.17192">
        <ele>2090.3</ele>
        <time>2016-01-30T11:16:51Z</time>
      </trkpt>
      <trkpt lat="45.30645" lon="6.17203">
        <ele>2088.9</ele>
        <time>2016-01-30T11:16:52Z</time>
      </trkpt>
      <trkpt lat="45.30643" lon="6.17213">
        <ele>2087.8</ele>
        <time>2016-01-30T11:16:53Z</time>
      </trkpt>
      <trkpt lat="45.30641" lon="6.17222">
        <ele>2086.5</ele>
        <time>2016-01-30T11:16:54Z</time>
      </trkpt>
      <trkpt lat="45.30639" lon="6.17231">
        <ele>2085.5</ele>
        <time>2016-01-30T11:16:55Z</time>
      </trkpt>
      <trkpt lat="45.30638" lon="6.17239">
        <ele>2084.5</ele>
        <time>2016-01-30T11:16:56Z</time>
      </trkpt>
      <trkpt lat="45.30636" lon="6.17246">
        <ele>2083.7</ele>
        <time>2016-01-30T11:16:57Z</time>
      </trkpt>
      <trkpt lat="45.30636" lon="6.17254">
        <ele>2083</ele>
        <time>2016-01-30T11:16:58Z</time>
      </trkpt>
      <trkpt lat="45.30636" lon="6.17266">
        <ele>2081.9</ele>
        <time>2016-01-30T11:17:00Z</time>
      </trkpt>
      <trkpt lat="45.30634" lon="6.17276">
        <ele>2081</ele>
        <time>2016-01-30T11:17:02Z</time>
      </trkpt>
      <trkpt lat="45.3063" lon="6.17287">
        <ele>2079.5</ele>
        <time>2016-01-30T11:17:04Z</time>
      </trkpt>
      <trkpt lat="45.30632" lon="6.17293">
        <ele>2079</ele>
        <time>2016-01-30T11:17:05Z</time>
      </trkpt>
      <trkpt lat="45.30634" lon="6.17301">
        <ele>2077.1</ele>
        <time>2016-01-30T11:17:06Z</time>
      </trkpt>
      <trkpt lat="45.30636" lon="6.1731">
        <ele>2075.6</ele>
        <time>2016-01-30T11:17:07Z</time>
      </trkpt>
      <trkpt lat="45.30637" lon="6.17318">
        <ele>2074.2</ele>
        <time>2016-01-30T11:17:08Z</time>
      </trkpt>
      <trkpt lat="45.30639" lon="6.17326">
        <ele>2073.2</ele>
        <time>2016-01-30T11:17:09Z</time>
      </trkpt>
      <trkpt lat="45.30641" lon="6.17338">
        <ele>2070.6</ele>
        <time>2016-01-30T11:17:11Z</time>
      </trkpt>
      <trkpt lat="45.30634" lon="6.17345">
        <ele>2068.8</ele>
        <time>2016-01-30T11:17:13Z</time>
      </trkpt>
      <trkpt lat="45.30631" lon="6.17351">
        <ele>2068.2</ele>
        <time>2016-01-30T11:17:14Z</time>
      </trkpt>
      <trkpt lat="45.30631" lon="6.17363">
        <ele>2065.9</ele>
        <time>2016-01-30T11:17:16Z</time>
      </trkpt>
      <trkpt lat="45.30631" lon="6.1737">
        <ele>2065.2</ele>
        <time>2016-01-30T11:17:17Z</time>
      </trkpt>
      <trkpt lat="45.30628" lon="6.17376">
        <ele>2063.9</ele>
        <time>2016-01-30T11:17:18Z</time>
      </trkpt>
      <trkpt lat="45.30625" lon="6.1738">
        <ele>2063</ele>
        <time>2016-01-30T11:17:19Z</time>
      </trkpt>
      <trkpt lat="45.30622" lon="6.17387">
        <ele>2061.8</ele>
        <time>2016-01-30T11:17:20Z</time>
      </trkpt>
      <trkpt lat="45.30625" lon="6.17398">
        <ele>2060.1</ele>
        <time>2016-01-30T11:17:22Z</time>
      </trkpt>
      <trkpt lat="45.30627" lon="6.17403">
        <ele>2059.5</ele>
        <time>2016-01-30T11:17:23Z</time>
      </trkpt>
      <trkpt lat="45.3063" lon="6.17409">
        <ele>2059</ele>
        <time>2016-01-30T11:17:24Z</time>
      </trkpt>
      <trkpt lat="45.30635" lon="6.17418">
        <ele>2057.3</ele>
        <time>2016-01-30T11:17:26Z</time>
      </trkpt>
      <trkpt lat="45.30637" lon="6.1743">
        <ele>2055.5</ele>
        <time>2016-01-30T11:17:28Z</time>
      </trkpt>
      <trkpt lat="45.30631" lon="6.17438">
        <ele>2053</ele>
        <time>2016-01-30T11:17:30Z</time>
      </trkpt>
      <trkpt lat="45.30633" lon="6.17444">
        <ele>2052.2</ele>
        <time>2016-01-30T11:17:31Z</time>
      </trkpt>
      <trkpt lat="45.30632" lon="6.17455">
        <ele>2048.1</ele>
        <time>2016-01-30T11:17:33Z</time>
      </trkpt>
      <trkpt lat="45.30629" lon="6.17467">
        <ele>2043.9</ele>
        <time>2016-01-30T11:17:35Z</time>
      </trkpt>
      <trkpt lat="45.30625" lon="6.17478">
        <ele>2038</ele>
        <time>2016-01-30T11:17:38Z</time>
      </trkpt>
      <trkpt lat="45.3062" lon="6.17486">
        <ele>2027.8</ele>
        <time>2016-01-30T11:20:04Z</time>
      </trkpt>
      <trkpt lat="45.30618" lon="6.17488">
        <ele>2027.5</ele>
        <time>2016-01-30T11:20:05Z</time>
      </trkpt>
      <trkpt lat="45.30612" lon="6.17503">
        <ele>2022.8</ele>
        <time>2016-01-30T11:20:09Z</time>
      </trkpt>
      <trkpt lat="45.30606" lon="6.17509">
        <ele>2020.1</ele>
        <time>2016-01-30T11:20:11Z</time>
      </trkpt>
      <trkpt lat="45.30602" lon="6.17515">
        <ele>2016.6</ele>
        <time>2016-01-30T11:20:13Z</time>
      </trkpt>
      <trkpt lat="45.30599" lon="6.17525">
        <ele>2012.6</ele>
        <time>2016-01-30T11:20:15Z</time>
      </trkpt>
      <trkpt lat="45.30594" lon="6.17531">
        <ele>2009.4</ele>
        <time>2016-01-30T11:20:17Z</time>
      </trkpt>
      <trkpt lat="45.3059" lon="6.17539">
        <ele>2006.6</ele>
        <time>2016-01-30T11:20:19Z</time>
      </trkpt>
      <trkpt lat="45.30585" lon="6.17547">
        <ele>2003</ele>
        <time>2016-01-30T11:20:21Z</time>
      </trkpt>
      <trkpt lat="45.3058" lon="6.17549">
        <ele>2001.8</ele>
        <time>2016-01-30T11:20:22Z</time>
      </trkpt>
      <trkpt lat="45.30578" lon="6.17559">
        <ele>1998.7</ele>
        <time>2016-01-30T11:20:24Z</time>
      </trkpt>
      <trkpt lat="45.30574" lon="6.17564">
        <ele>1996.4</ele>
        <time>2016-01-30T11:20:25Z</time>
      </trkpt>
      <trkpt lat="45.3057" lon="6.17568">
        <ele>1994.6</ele>
        <time>2016-01-30T11:20:26Z</time>
      </trkpt>
      <trkpt lat="45.30568" lon="6.17576">
        <ele>1992.6</ele>
        <time>2016-01-30T11:20:27Z</time>
      </trkpt>
      <trkpt lat="45.30566" lon="6.17587">
        <ele>1990</ele>
        <time>2016-01-30T11:20:29Z</time>
      </trkpt>
      <trkpt lat="45.30561" lon="6.17597">
        <ele>1985.8</ele>
        <time>2016-01-30T11:20:31Z</time>
      </trkpt>
      <trkpt lat="45.30561" lon="6.17607">
        <ele>1982.7</ele>
        <time>2016-01-30T11:20:33Z</time>
      </trkpt>
      <trkpt lat="45.30562" lon="6.17616">
        <ele>1977.2</ele>
        <time>2016-01-30T11:20:47Z</time>
      </trkpt>
      <trkpt lat="45.30561" lon="6.17629">
        <ele>1977.1</ele>
        <time>2016-01-30T11:20:50Z</time>
      </trkpt>
      <trkpt lat="45.30561" lon="6.1764">
        <ele>1976.4</ele>
        <time>2016-01-30T11:20:52Z</time>
      </trkpt>
      <trkpt lat="45.3056" lon="6.17651">
        <ele>1976.2</ele>
        <time>2016-01-30T11:20:54Z</time>
      </trkpt>
      <trkpt lat="45.30559" lon="6.17662">
        <ele>1975.6</ele>
        <time>2016-01-30T11:20:56Z</time>
      </trkpt>
      <trkpt lat="45.30552" lon="6.17665">
        <ele>1973.6</ele>
        <time>2016-01-30T11:20:58Z</time>
      </trkpt>
      <trkpt lat="45.30544" lon="6.17668">
        <ele>1970.4</ele>
        <time>2016-01-30T11:21:01Z</time>
      </trkpt>
      <trkpt lat="45.30538" lon="6.17674">
        <ele>1967.7</ele>
        <time>2016-01-30T11:21:03Z</time>
      </trkpt>
      <trkpt lat="45.3053" lon="6.17678">
        <ele>1964.2</ele>
        <time>2016-01-30T11:21:05Z</time>
      </trkpt>
      <trkpt lat="45.30523" lon="6.17684">
        <ele>1961.4</ele>
        <time>2016-01-30T11:21:07Z</time>
      </trkpt>
      <trkpt lat="45.30521" lon="6.17687">
        <ele>1958.8</ele>
        <time>2016-01-30T11:21:08Z</time>
      </trkpt>
      <trkpt lat="45.30511" lon="6.177">
        <ele>1953.2</ele>
        <time>2016-01-30T11:21:11Z</time>
      </trkpt>
      <trkpt lat="45.30511" lon="6.17706">
        <ele>1951.2</ele>
        <time>2016-01-30T11:21:12Z</time>
      </trkpt>
      <trkpt lat="45.30506" lon="6.17715">
        <ele>1948.5</ele>
        <time>2016-01-30T11:21:14Z</time>
      </trkpt>
      <trkpt lat="45.30501" lon="6.17726">
        <ele>1944.4</ele>
        <time>2016-01-30T11:21:16Z</time>
      </trkpt>
      <trkpt lat="45.30496" lon="6.17736">
        <ele>1940.2</ele>
        <time>2016-01-30T11:21:18Z</time>
      </trkpt>
      <trkpt lat="45.30492" lon="6.17747">
        <ele>1937.1</ele>
        <time>2016-01-30T11:21:20Z</time>
      </trkpt>
      <trkpt lat="45.30489" lon="6.17757">
        <ele>1933.3</ele>
        <time>2016-01-30T11:21:22Z</time>
      </trkpt>
      <trkpt lat="45.30488" lon="6.1777">
        <ele>1925</ele>
        <time>2016-01-30T11:21:42Z</time>
      </trkpt>
      <trkpt lat="45.30486" lon="6.17782">
        <ele>1925.6</ele>
        <time>2016-01-30T11:21:46Z</time>
      </trkpt>
      <trkpt lat="45.30483" lon="6.17791">
        <ele>1924.6</ele>
        <time>2016-01-30T11:21:48Z</time>
      </trkpt>
      <trkpt lat="45.30479" lon="6.17799">
        <ele>1922.7</ele>
        <time>2016-01-30T11:21:50Z</time>
      </trkpt>
      <trkpt lat="45.30474" lon="6.17804">
        <ele>1921</ele>
        <time>2016-01-30T11:21:52Z</time>
      </trkpt>
      <trkpt lat="45.30472" lon="6.1781">
        <ele>1919.3</ele>
        <time>2016-01-30T11:21:53Z</time>
      </trkpt>
      <trkpt lat="45.30472" lon="6.17817">
        <ele>1918</ele>
        <time>2016-01-30T11:21:54Z</time>
      </trkpt>
      <trkpt lat="45.30472" lon="6.17823">
        <ele>1916.4</ele>
        <time>2016-01-30T11:21:55Z</time>
      </trkpt>
      <trkpt lat="45.30472" lon="6.1783">
        <ele>1915.2</ele>
        <time>2016-01-30T11:21:56Z</time>
      </trkpt>
      <trkpt lat="45.30471" lon="6.17836">
        <ele>1914.3</ele>
        <time>2016-01-30T11:21:57Z</time>
      </trkpt>
      <trkpt lat="45.30466" lon="6.17845">
        <ele>1911.9</ele>
        <time>2016-01-30T11:21:59Z</time>
      </trkpt>
      <trkpt lat="45.30465" lon="6.17855">
        <ele>1908.9</ele>
        <time>2016-01-30T11:22:01Z</time>
      </trkpt>
      <trkpt lat="45.3046" lon="6.17863">
        <ele>1905.7</ele>
        <time>2016-01-30T11:22:41Z</time>
      </trkpt>
      <trkpt lat="45.3046" lon="6.17866">
        <ele>1905.7</ele>
        <time>2016-01-30T11:22:42Z</time>
      </trkpt>
      <trkpt lat="45.3045" lon="6.17878">
        <ele>1901.1</ele>
        <time>2016-01-30T11:22:48Z</time>
      </trkpt>
      <trkpt lat="45.30442" lon="6.17876">
        <ele>1898</ele>
        <time>2016-01-30T11:22:51Z</time>
      </trkpt>
      <trkpt lat="45.30434" lon="6.17873">
        <ele>1894.1</ele>
        <time>2016-01-30T11:22:54Z</time>
      </trkpt>
      <trkpt lat="45.30426" lon="6.17874">
        <ele>1889.2</ele>
        <time>2016-01-30T11:22:57Z</time>
      </trkpt>
      <trkpt lat="45.30421" lon="6.17883">
        <ele>1884.2</ele>
        <time>2016-01-30T11:23:00Z</time>
      </trkpt>
      <trkpt lat="45.30416" lon="6.17876">
        <ele>1881.9</ele>
        <time>2016-01-30T11:23:02Z</time>
      </trkpt>
      <trkpt lat="45.30409" lon="6.17879">
        <ele>1877.7</ele>
        <time>2016-01-30T11:23:05Z</time>
      </trkpt>
      <trkpt lat="45.30401" lon="6.17885">
        <ele>1873.5</ele>
        <time>2016-01-30T11:23:08Z</time>
      </trkpt>
      <trkpt lat="45.30398" lon="6.17893">
        <ele>1870.4</ele>
        <time>2016-01-30T11:23:10Z</time>
      </trkpt>
      <trkpt lat="45.30392" lon="6.179">
        <ele>1867.1</ele>
        <time>2016-01-30T11:23:12Z</time>
      </trkpt>
      <trkpt lat="45.3039" lon="6.17906">
        <ele>1864.3</ele>
        <time>2016-01-30T11:23:13Z</time>
      </trkpt>
      <trkpt lat="45.30385" lon="6.17911">
        <ele>1862.3</ele>
        <time>2016-01-30T11:23:14Z</time>
      </trkpt>
      <trkpt lat="45.30379" lon="6.17913">
        <ele>1860.8</ele>
        <time>2016-01-30T11:23:15Z</time>
      </trkpt>
      <trkpt lat="45.30372" lon="6.17913">
        <ele>1858.5</ele>
        <time>2016-01-30T11:23:16Z</time>
      </trkpt>
      <trkpt lat="45.30367" lon="6.1791">
        <ele>1856.9</ele>
        <time>2016-01-30T11:23:17Z</time>
      </trkpt>
      <trkpt lat="45.3036" lon="6.17906">
        <ele>1852</ele>
        <time>2016-01-30T11:23:28Z</time>
      </trkpt>
      <trkpt lat="45.30355" lon="6.17901">
        <ele>1851.7</ele>
        <time>2016-01-30T11:23:30Z</time>
      </trkpt>
      <trkpt lat="45.30351" lon="6.17897">
        <ele>1851.7</ele>
        <time>2016-01-30T11:23:31Z</time>
      </trkpt>
      <trkpt lat="45.30346" lon="6.17892">
        <ele>1851.4</ele>
        <time>2016-01-30T11:23:32Z</time>
      </trkpt>
      <trkpt lat="45.30342" lon="6.17886">
        <ele>1851.2</ele>
        <time>2016-01-30T11:23:33Z</time>
      </trkpt>
      <trkpt lat="45.30338" lon="6.1788">
        <ele>1851</ele>
        <time>2016-01-30T11:23:34Z</time>
      </trkpt>
      <trkpt lat="45.30334" lon="6.17876">
        <ele>1849.6</ele>
        <time>2016-01-30T11:23:35Z</time>
      </trkpt>
      <trkpt lat="45.30328" lon="6.17883">
        <ele>1847.4</ele>
        <time>2016-01-30T11:23:38Z</time>
      </trkpt>
      <trkpt lat="45.30329" lon="6.1789">
        <ele>1847</ele>
        <time>2016-01-30T11:23:39Z</time>
      </trkpt>
      <trkpt lat="45.30328" lon="6.17898">
        <ele>1845.6</ele>
        <time>2016-01-30T11:23:40Z</time>
      </trkpt>
      <trkpt lat="45.30323" lon="6.179">
        <ele>1844.6</ele>
        <time>2016-01-30T11:23:41Z</time>
      </trkpt>
      <trkpt lat="45.30317" lon="6.17907">
        <ele>1841.2</ele>
        <time>2016-01-30T11:23:43Z</time>
      </trkpt>
      <trkpt lat="45.30317" lon="6.17916">
        <ele>1839.3</ele>
        <time>2016-01-30T11:23:44Z</time>
      </trkpt>
      <trkpt lat="45.30317" lon="6.17924">
        <ele>1837.9</ele>
        <time>2016-01-30T11:23:45Z</time>
      </trkpt>
      <trkpt lat="45.30308" lon="6.17924">
        <ele>1827.6</ele>
        <time>2016-01-30T11:23:58Z</time>
      </trkpt>
      <trkpt lat="45.303" lon="6.17924">
        <ele>1827.6</ele>
        <time>2016-01-30T11:24:00Z</time>
      </trkpt>
      <trkpt lat="45.30295" lon="6.17921">
        <ele>1826.9</ele>
        <time>2016-01-30T11:24:01Z</time>
      </trkpt>
      <trkpt lat="45.30291" lon="6.17916">
        <ele>1826.4</ele>
        <time>2016-01-30T11:24:02Z</time>
      </trkpt>
      <trkpt lat="45.30285" lon="6.17906">
        <ele>1824.2</ele>
        <time>2016-01-30T11:24:04Z</time>
      </trkpt>
      <trkpt lat="45.30282" lon="6.17901">
        <ele>1823.5</ele>
        <time>2016-01-30T11:24:05Z</time>
      </trkpt>
      <trkpt lat="45.30278" lon="6.17895">
        <ele>1822.3</ele>
        <time>2016-01-30T11:24:06Z</time>
      </trkpt>
      <trkpt lat="45.30275" lon="6.17889">
        <ele>1821.4</ele>
        <time>2016-01-30T11:24:07Z</time>
      </trkpt>
      <trkpt lat="45.30271" lon="6.17882">
        <ele>1820.3</ele>
        <time>2016-01-30T11:24:08Z</time>
      </trkpt>
      <trkpt lat="45.30267" lon="6.17875">
        <ele>1819.5</ele>
        <time>2016-01-30T11:24:09Z</time>
      </trkpt>
      <trkpt lat="45.30262" lon="6.17869">
        <ele>1818.1</ele>
        <time>2016-01-30T11:24:10Z</time>
      </trkpt>
      <trkpt lat="45.30256" lon="6.17863">
        <ele>1817.2</ele>
        <time>2016-01-30T11:24:11Z</time>
      </trkpt>
      <trkpt lat="45.30249" lon="6.17857">
        <ele>1816.4</ele>
        <time>2016-01-30T11:24:12Z</time>
      </trkpt>
      <trkpt lat="45.30243" lon="6.17851">
        <ele>1815.1</ele>
        <time>2016-01-30T11:24:13Z</time>
      </trkpt>
      <trkpt lat="45.30237" lon="6.17847">
        <ele>1814</ele>
        <time>2016-01-30T11:24:14Z</time>
      </trkpt>
      <trkpt lat="45.30231" lon="6.17846">
        <ele>1813.4</ele>
        <time>2016-01-30T11:24:15Z</time>
      </trkpt>
      <trkpt lat="45.30224" lon="6.17847">
        <ele>1812.9</ele>
        <time>2016-01-30T11:24:16Z</time>
      </trkpt>
      <trkpt lat="45.30219" lon="6.17846">
        <ele>1812.5</ele>
        <time>2016-01-30T11:24:17Z</time>
      </trkpt>
      <trkpt lat="45.30215" lon="6.17844">
        <ele>1811.4</ele>
        <time>2016-01-30T11:24:18Z</time>
      </trkpt>
      <trkpt lat="45.3021" lon="6.17844">
        <ele>1810.5</ele>
        <time>2016-01-30T11:24:19Z</time>
      </trkpt>
      <trkpt lat="45.30205" lon="6.17844">
        <ele>1809.6</ele>
        <time>2016-01-30T11:24:20Z</time>
      </trkpt>
      <trkpt lat="45.30199" lon="6.17844">
        <ele>1808.9</ele>
        <time>2016-01-30T11:24:21Z</time>
      </trkpt>
      <trkpt lat="45.30193" lon="6.17844">
        <ele>1807.4</ele>
        <time>2016-01-30T11:24:22Z</time>
      </trkpt>
      <trkpt lat="45.30187" lon="6.17845">
        <ele>1806.3</ele>
        <time>2016-01-30T11:24:23Z</time>
      </trkpt>
      <trkpt lat="45.30181" lon="6.17846">
        <ele>1805.5</ele>
        <time>2016-01-30T11:24:24Z</time>
      </trkpt>
      <trkpt lat="45.30175" lon="6.17846">
        <ele>1805</ele>
        <time>2016-01-30T11:24:25Z</time>
      </trkpt>
      <trkpt lat="45.3017" lon="6.17847">
        <ele>1804.6</ele>
        <time>2016-01-30T11:24:26Z</time>
      </trkpt>
      <trkpt lat="45.30165" lon="6.17848">
        <ele>1803.6</ele>
        <time>2016-01-30T11:24:27Z</time>
      </trkpt>
      <trkpt lat="45.30159" lon="6.17847">
        <ele>1802.8</ele>
        <time>2016-01-30T11:24:28Z</time>
      </trkpt>
      <trkpt lat="45.30153" lon="6.17845">
        <ele>1802.4</ele>
        <time>2016-01-30T11:24:29Z</time>
      </trkpt>
      <trkpt lat="45.30146" lon="6.17843">
        <ele>1802</ele>
        <time>2016-01-30T11:24:30Z</time>
      </trkpt>
      <trkpt lat="45.30141" lon="6.17843">
        <ele>1801.7</ele>
        <time>2016-01-30T11:24:31Z</time>
      </trkpt>
      <trkpt lat="45.30133" lon="6.17845">
        <ele>1800.5</ele>
        <time>2016-01-30T11:24:33Z</time>
      </trkpt>
      <trkpt lat="45.3013" lon="6.17856">
        <ele>1800.5</ele>
        <time>2016-01-30T11:25:07Z</time>
      </trkpt>
      <trkpt lat="45.3013" lon="6.17857">
        <ele>1800.4</ele>
        <time>2016-01-30T11:25:08Z</time>
      </trkpt>
      <trkpt lat="45.30123" lon="6.17872">
        <ele>1799.3</ele>
        <time>2016-01-30T11:25:12Z</time>
      </trkpt>
      <trkpt lat="45.30119" lon="6.1788">
        <ele>1799</ele>
        <time>2016-01-30T11:25:14Z</time>
      </trkpt>
      <trkpt lat="45.30116" lon="6.17888">
        <ele>1799</ele>
        <time>2016-01-30T11:25:16Z</time>
      </trkpt>
      <trkpt lat="45.30111" lon="6.17896">
        <ele>1797.7</ele>
        <time>2016-01-30T11:25:18Z</time>
      </trkpt>
      <trkpt lat="45.30108" lon="6.17904">
        <ele>1797.9</ele>
        <time>2016-01-30T11:25:20Z</time>
      </trkpt>
      <trkpt lat="45.30105" lon="6.17915">
        <ele>1797.1</ele>
        <time>2016-01-30T11:25:22Z</time>
      </trkpt>
      <trkpt lat="45.30102" lon="6.17922">
        <ele>1796.4</ele>
        <time>2016-01-30T11:25:23Z</time>
      </trkpt>
      <trkpt lat="45.30099" lon="6.17929">
        <ele>1796</ele>
        <time>2016-01-30T11:25:24Z</time>
      </trkpt>
      <trkpt lat="45.30096" lon="6.1794">
        <ele>1795</ele>
        <time>2016-01-30T11:25:26Z</time>
      </trkpt>
      <trkpt lat="45.30093" lon="6.17949">
        <ele>1794</ele>
        <time>2016-01-30T11:25:28Z</time>
      </trkpt>
      <trkpt lat="45.30087" lon="6.17958">
        <ele>1793.3</ele>
        <time>2016-01-30T11:25:30Z</time>
      </trkpt>
      <trkpt lat="45.30084" lon="6.17963">
        <ele>1792.5</ele>
        <time>2016-01-30T11:25:31Z</time>
      </trkpt>
      <trkpt lat="45.30081" lon="6.17968">
        <ele>1791.9</ele>
        <time>2016-01-30T11:25:32Z</time>
      </trkpt>
      <trkpt lat="45.30077" lon="6.17974">
        <ele>1791.4</ele>
        <time>2016-01-30T11:25:33Z</time>
      </trkpt>
      <trkpt lat="45.30074" lon="6.17979">
        <ele>1790.8</ele>
        <time>2016-01-30T11:25:34Z</time>
      </trkpt>
      <trkpt lat="45.30068" lon="6.17988">
        <ele>1789.7</ele>
        <time>2016-01-30T11:25:36Z</time>
      </trkpt>
      <trkpt lat="45.30061" lon="6.17997">
        <ele>1788.7</ele>
        <time>2016-01-30T11:25:38Z</time>
      </trkpt>
      <trkpt lat="45.30057" lon="6.18003">
        <ele>1788.4</ele>
        <time>2016-01-30T11:25:39Z</time>
      </trkpt>
      <trkpt lat="45.30053" lon="6.18009">
        <ele>1788.1</ele>
        <time>2016-01-30T11:25:40Z</time>
      </trkpt>
      <trkpt lat="45.30048" lon="6.18016">
        <ele>1787.5</ele>
        <time>2016-01-30T11:25:41Z</time>
      </trkpt>
      <trkpt lat="45.30045" lon="6.18023">
        <ele>1787.1</ele>
        <time>2016-01-30T11:25:42Z</time>
      </trkpt>
      <trkpt lat="45.30042" lon="6.18029">
        <ele>1786.4</ele>
        <time>2016-01-30T11:25:43Z</time>
      </trkpt>
      <trkpt lat="45.30039" lon="6.18035">
        <ele>1785.8</ele>
        <time>2016-01-30T11:25:44Z</time>
      </trkpt>
      <trkpt lat="45.30036" lon="6.18041">
        <ele>1785.1</ele>
        <time>2016-01-30T11:25:45Z</time>
      </trkpt>
      <trkpt lat="45.30033" lon="6.18048">
        <ele>1784.5</ele>
        <time>2016-01-30T11:25:46Z</time>
      </trkpt>
      <trkpt lat="45.3003" lon="6.18055">
        <ele>1784.1</ele>
        <time>2016-01-30T11:25:47Z</time>
      </trkpt>
      <trkpt lat="45.30027" lon="6.18062">
        <ele>1783.2</ele>
        <time>2016-01-30T11:25:48Z</time>
      </trkpt>
      <trkpt lat="45.30024" lon="6.18069">
        <ele>1782.5</ele>
        <time>2016-01-30T11:25:49Z</time>
      </trkpt>
      <trkpt lat="45.30021" lon="6.18076">
        <ele>1781.5</ele>
        <time>2016-01-30T11:25:50Z</time>
      </trkpt>
      <trkpt lat="45.30016" lon="6.18081">
        <ele>1780.7</ele>
        <time>2016-01-30T11:25:51Z</time>
      </trkpt>
      <trkpt lat="45.30012" lon="6.18087">
        <ele>1779.6</ele>
        <time>2016-01-30T11:25:52Z</time>
      </trkpt>
      <trkpt lat="45.30005" lon="6.18094">
        <ele>1778.1</ele>
        <time>2016-01-30T11:25:54Z</time>
      </trkpt>
      <trkpt lat="45.3001" lon="6.18102">
        <ele>1775.3</ele>
        <time>2016-01-30T11:25:57Z</time>
      </trkpt>
      <trkpt lat="45.30011" lon="6.18112">
        <ele>1771.9</ele>
        <time>2016-01-30T11:26:00Z</time>
      </trkpt>
      <trkpt lat="45.30014" lon="6.18124">
        <ele>1767.9</ele>
        <time>2016-01-30T11:26:03Z</time>
      </trkpt>
      <trkpt lat="45.30011" lon="6.18133">
        <ele>1764.8</ele>
        <time>2016-01-30T11:26:05Z</time>
      </trkpt>
      <trkpt lat="45.30008" lon="6.18137">
        <ele>1763.7</ele>
        <time>2016-01-30T11:26:06Z</time>
      </trkpt>
      <trkpt lat="45.30004" lon="6.18142">
        <ele>1762.9</ele>
        <time>2016-01-30T11:26:07Z</time>
      </trkpt>
      <trkpt lat="45.30001" lon="6.18152">
        <ele>1760.9</ele>
        <time>2016-01-30T11:26:09Z</time>
      </trkpt>
      <trkpt lat="45.30003" lon="6.18158">
        <ele>1759.8</ele>
        <time>2016-01-30T11:26:10Z</time>
      </trkpt>
      <trkpt lat="45.29998" lon="6.1817">
        <ele>1757.2</ele>
        <time>2016-01-30T11:26:12Z</time>
      </trkpt>
      <trkpt lat="45.29995" lon="6.18177">
        <ele>1755.8</ele>
        <time>2016-01-30T11:26:13Z</time>
      </trkpt>
      <trkpt lat="45.29991" lon="6.18185">
        <ele>1754.8</ele>
        <time>2016-01-30T11:26:14Z</time>
      </trkpt>
      <trkpt lat="45.29988" lon="6.18194">
        <ele>1754</ele>
        <time>2016-01-30T11:26:15Z</time>
      </trkpt>
      <trkpt lat="45.29984" lon="6.18203">
        <ele>1752.6</ele>
        <time>2016-01-30T11:26:16Z</time>
      </trkpt>
      <trkpt lat="45.29981" lon="6.18211">
        <ele>1751.6</ele>
        <time>2016-01-30T11:26:17Z</time>
      </trkpt>
      <trkpt lat="45.29979" lon="6.18219">
        <ele>1750.8</ele>
        <time>2016-01-30T11:26:18Z</time>
      </trkpt>
      <trkpt lat="45.29976" lon="6.18226">
        <ele>1750.1</ele>
        <time>2016-01-30T11:26:19Z</time>
      </trkpt>
      <trkpt lat="45.29974" lon="6.18233">
        <ele>1749.6</ele>
        <time>2016-01-30T11:26:20Z</time>
      </trkpt>
      <trkpt lat="45.2997" lon="6.18241">
        <ele>1747</ele>
        <time>2016-01-30T11:26:22Z</time>
      </trkpt>
      <trkpt lat="45.29967" lon="6.18249">
        <ele>1744.7</ele>
        <time>2016-01-30T11:26:24Z</time>
      </trkpt>
      <trkpt lat="45.29975" lon="6.18254">
        <ele>1742.3</ele>
        <time>2016-01-30T11:26:27Z</time>
      </trkpt>
      <trkpt lat="45.29982" lon="6.18251">
        <ele>1738.7</ele>
        <time>2016-01-30T11:26:29Z</time>
      </trkpt>
      <trkpt lat="45.29985" lon="6.18263">
        <ele>1730.1</ele>
        <time>2016-01-30T11:26:46Z</time>
      </trkpt>
      <trkpt lat="45.29984" lon="6.18275">
        <ele>1730.3</ele>
        <time>2016-01-30T11:27:07Z</time>
      </trkpt>
      <trkpt lat="45.29983" lon="6.18285">
        <ele>1730.5</ele>
        <time>2016-01-30T11:27:28Z</time>
      </trkpt>
      <trkpt lat="45.29982" lon="6.18288">
        <ele>1730.7</ele>
        <time>2016-01-30T11:27:29Z</time>
      </trkpt>
      <trkpt lat="45.29977" lon="6.18299">
        <ele>1730.9</ele>
        <time>2016-01-30T11:27:31Z</time>
      </trkpt>
      <trkpt lat="45.29975" lon="6.18305">
        <ele>1730</ele>
        <time>2016-01-30T11:27:32Z</time>
      </trkpt>
      <trkpt lat="45.29972" lon="6.18311">
        <ele>1729.3</ele>
        <time>2016-01-30T11:27:33Z</time>
      </trkpt>
      <trkpt lat="45.29969" lon="6.18316">
        <ele>1728.8</ele>
        <time>2016-01-30T11:27:34Z</time>
      </trkpt>
      <trkpt lat="45.29966" lon="6.18322">
        <ele>1728.4</ele>
        <time>2016-01-30T11:27:35Z</time>
      </trkpt>
      <trkpt lat="45.29963" lon="6.18328">
        <ele>1728.1</ele>
        <time>2016-01-30T11:27:36Z</time>
      </trkpt>
      <trkpt lat="45.2996" lon="6.18336">
        <ele>1727.1</ele>
        <time>2016-01-30T11:27:37Z</time>
      </trkpt>
      <trkpt lat="45.29958" lon="6.18344">
        <ele>1726.3</ele>
        <time>2016-01-30T11:27:38Z</time>
      </trkpt>
      <trkpt lat="45.29958" lon="6.18352">
        <ele>1725.4</ele>
        <time>2016-01-30T11:27:39Z</time>
      </trkpt>
      <trkpt lat="45.29959" lon="6.18359">
        <ele>1724.8</ele>
        <time>2016-01-30T11:27:40Z</time>
      </trkpt>
      <trkpt lat="45.29959" lon="6.18367">
        <ele>1724.3</ele>
        <time>2016-01-30T11:27:41Z</time>
      </trkpt>
      <trkpt lat="45.29959" lon="6.18374">
        <ele>1723.1</ele>
        <time>2016-01-30T11:27:42Z</time>
      </trkpt>
      <trkpt lat="45.29959" lon="6.18382">
        <ele>1722.3</ele>
        <time>2016-01-30T11:27:43Z</time>
      </trkpt>
      <trkpt lat="45.2996" lon="6.18389">
        <ele>1721.5</ele>
        <time>2016-01-30T11:27:44Z</time>
      </trkpt>
      <trkpt lat="45.2996" lon="6.18397">
        <ele>1720.8</ele>
        <time>2016-01-30T11:27:45Z</time>
      </trkpt>
      <trkpt lat="45.2996" lon="6.18405">
        <ele>1720.4</ele>
        <time>2016-01-30T11:27:46Z</time>
      </trkpt>
      <trkpt lat="45.2996" lon="6.18413">
        <ele>1720.1</ele>
        <time>2016-01-30T11:27:47Z</time>
      </trkpt>
      <trkpt lat="45.29958" lon="6.1842">
        <ele>1719.9</ele>
        <time>2016-01-30T11:27:48Z</time>
      </trkpt>
      <trkpt lat="45.29953" lon="6.18428">
        <ele>1717.5</ele>
        <time>2016-01-30T11:27:50Z</time>
      </trkpt>
      <trkpt lat="45.29948" lon="6.18435">
        <ele>1715.6</ele>
        <time>2016-01-30T11:27:52Z</time>
      </trkpt>
      <trkpt lat="45.29941" lon="6.18443">
        <ele>1714.8</ele>
        <time>2016-01-30T11:27:54Z</time>
      </trkpt>
      <trkpt lat="45.29933" lon="6.18449">
        <ele>1713.9</ele>
        <time>2016-01-30T11:27:56Z</time>
      </trkpt>
      <trkpt lat="45.29928" lon="6.18459">
        <ele>1712.8</ele>
        <time>2016-01-30T11:27:58Z</time>
      </trkpt>
      <trkpt lat="45.29933" lon="6.18464">
        <ele>1711.9</ele>
        <time>2016-01-30T11:28:00Z</time>
      </trkpt>
      <trkpt lat="45.29934" lon="6.18471">
        <ele>1710.7</ele>
        <time>2016-01-30T11:28:01Z</time>
      </trkpt>
      <trkpt lat="45.29935" lon="6.18479">
        <ele>1709.8</ele>
        <time>2016-01-30T11:28:02Z</time>
      </trkpt>
      <trkpt lat="45.29937" lon="6.18486">
        <ele>1708.4</ele>
        <time>2016-01-30T11:28:03Z</time>
      </trkpt>
      <trkpt lat="45.29938" lon="6.18498">
        <ele>1706.6</ele>
        <time>2016-01-30T11:28:05Z</time>
      </trkpt>
      <trkpt lat="45.29939" lon="6.1851">
        <ele>1705.5</ele>
        <time>2016-01-30T11:28:07Z</time>
      </trkpt>
      <trkpt lat="45.29938" lon="6.18521">
        <ele>1704.4</ele>
        <time>2016-01-30T11:28:09Z</time>
      </trkpt>
      <trkpt lat="45.29936" lon="6.18531">
        <ele>1703.2</ele>
        <time>2016-01-30T11:28:11Z</time>
      </trkpt>
      <trkpt lat="45.29934" lon="6.18543">
        <ele>1702.4</ele>
        <time>2016-01-30T11:28:13Z</time>
      </trkpt>
      <trkpt lat="45.29933" lon="6.18555">
        <ele>1701</ele>
        <time>2016-01-30T11:28:15Z</time>
      </trkpt>
      <trkpt lat="45.29934" lon="6.18563">
        <ele>1699.9</ele>
        <time>2016-01-30T11:28:17Z</time>
      </trkpt>
      <trkpt lat="45.29932" lon="6.18574">
        <ele>1699.5</ele>
        <time>2016-01-30T11:28:19Z</time>
      </trkpt>
      <trkpt lat="45.29931" lon="6.18581">
        <ele>1698.5</ele>
        <time>2016-01-30T11:28:20Z</time>
      </trkpt>
      <trkpt lat="45.29929" lon="6.18587">
        <ele>1697.8</ele>
        <time>2016-01-30T11:28:21Z</time>
      </trkpt>
      <trkpt lat="45.29927" lon="6.18594">
        <ele>1697.4</ele>
        <time>2016-01-30T11:28:22Z</time>
      </trkpt>
      <trkpt lat="45.29924" lon="6.18606">
        <ele>1696.5</ele>
        <time>2016-01-30T11:28:24Z</time>
      </trkpt>
      <trkpt lat="45.29921" lon="6.18617">
        <ele>1695.6</ele>
        <time>2016-01-30T11:28:26Z</time>
      </trkpt>
      <trkpt lat="45.29924" lon="6.18626">
        <ele>1692.6</ele>
        <time>2016-01-30T11:29:07Z</time>
      </trkpt>
      <trkpt lat="45.29926" lon="6.18628">
        <ele>1692.4</ele>
        <time>2016-01-30T11:29:08Z</time>
      </trkpt>
      <trkpt lat="45.29936" lon="6.18617">
        <ele>1690.2</ele>
        <time>2016-01-30T11:29:12Z</time>
      </trkpt>
      <trkpt lat="45.29941" lon="6.18609">
        <ele>1689.2</ele>
        <time>2016-01-30T11:29:14Z</time>
      </trkpt>
      <trkpt lat="45.29946" lon="6.18604">
        <ele>1688.5</ele>
        <time>2016-01-30T11:29:16Z</time>
      </trkpt>
      <trkpt lat="45.29953" lon="6.18599">
        <ele>1687.6</ele>
        <time>2016-01-30T11:29:18Z</time>
      </trkpt>
      <trkpt lat="45.29957" lon="6.18607">
        <ele>1685.7</ele>
        <time>2016-01-30T11:29:20Z</time>
      </trkpt>
      <trkpt lat="45.2996" lon="6.18612">
        <ele>1684.7</ele>
        <time>2016-01-30T11:29:21Z</time>
      </trkpt>
      <trkpt lat="45.29966" lon="6.1862">
        <ele>1683.5</ele>
        <time>2016-01-30T11:29:23Z</time>
      </trkpt>
      <trkpt lat="45.29966" lon="6.1863">
        <ele>1679.4</ele>
        <time>2016-01-30T11:29:25Z</time>
      </trkpt>
      <trkpt lat="45.29973" lon="6.18633">
        <ele>1676.8</ele>
        <time>2016-01-30T11:29:27Z</time>
      </trkpt>
      <trkpt lat="45.29978" lon="6.18643">
        <ele>1671.9</ele>
        <time>2016-01-30T11:29:30Z</time>
      </trkpt>
      <trkpt lat="45.29975" lon="6.18654">
        <ele>1669.9</ele>
        <time>2016-01-30T11:29:32Z</time>
      </trkpt>
      <trkpt lat="45.29973" lon="6.1866">
        <ele>1668.7</ele>
        <time>2016-01-30T11:29:33Z</time>
      </trkpt>
      <trkpt lat="45.29968" lon="6.18671">
        <ele>1667</ele>
        <time>2016-01-30T11:29:35Z</time>
      </trkpt>
      <trkpt lat="45.29965" lon="6.18676">
        <ele>1665.7</ele>
        <time>2016-01-30T11:29:36Z</time>
      </trkpt>
      <trkpt lat="45.29962" lon="6.18681">
        <ele>1664.6</ele>
        <time>2016-01-30T11:29:37Z</time>
      </trkpt>
      <trkpt lat="45.29957" lon="6.18692">
        <ele>1663.2</ele>
        <time>2016-01-30T11:29:39Z</time>
      </trkpt>
      <trkpt lat="45.29952" lon="6.18701">
        <ele>1661.6</ele>
        <time>2016-01-30T11:29:41Z</time>
      </trkpt>
      <trkpt lat="45.29947" lon="6.18707">
        <ele>1660.9</ele>
        <time>2016-01-30T11:29:43Z</time>
      </trkpt>
      <trkpt lat="45.2994" lon="6.18713">
        <ele>1660</ele>
        <time>2016-01-30T11:29:45Z</time>
      </trkpt>
      <trkpt lat="45.29934" lon="6.1872">
        <ele>1659</ele>
        <time>2016-01-30T11:29:47Z</time>
      </trkpt>
      <trkpt lat="45.29928" lon="6.18727">
        <ele>1658.5</ele>
        <time>2016-01-30T11:29:49Z</time>
      </trkpt>
      <trkpt lat="45.29924" lon="6.18732">
        <ele>1658.1</ele>
        <time>2016-01-30T11:29:50Z</time>
      </trkpt>
      <trkpt lat="45.2992" lon="6.18736">
        <ele>1657.8</ele>
        <time>2016-01-30T11:29:51Z</time>
      </trkpt>
      <trkpt lat="45.29916" lon="6.1874">
        <ele>1657.3</ele>
        <time>2016-01-30T11:29:52Z</time>
      </trkpt>
      <trkpt lat="45.29913" lon="6.18744">
        <ele>1656.9</ele>
        <time>2016-01-30T11:29:53Z</time>
      </trkpt>
      <trkpt lat="45.29906" lon="6.1875">
        <ele>1655.2</ele>
        <time>2016-01-30T11:29:55Z</time>
      </trkpt>
      <trkpt lat="45.299" lon="6.18757">
        <ele>1651.7</ele>
        <time>2016-01-30T11:30:36Z</time>
      </trkpt>
      <trkpt lat="45.29899" lon="6.18759">
        <ele>1651.5</ele>
        <time>2016-01-30T11:30:37Z</time>
      </trkpt>
      <trkpt lat="45.29889" lon="6.18771">
        <ele>1650.2</ele>
        <time>2016-01-30T11:30:41Z</time>
      </trkpt>
      <trkpt lat="45.29883" lon="6.18778">
        <ele>1648.4</ele>
        <time>2016-01-30T11:30:43Z</time>
      </trkpt>
      <trkpt lat="45.29879" lon="6.18783">
        <ele>1647.5</ele>
        <time>2016-01-30T11:30:45Z</time>
      </trkpt>
      <trkpt lat="45.29874" lon="6.18789">
        <ele>1647</ele>
        <time>2016-01-30T11:30:47Z</time>
      </trkpt>
      <trkpt lat="45.29867" lon="6.18797">
        <ele>1645.5</ele>
        <time>2016-01-30T11:30:51Z</time>
      </trkpt>
      <trkpt lat="45.29863" lon="6.18802">
        <ele>1645.1</ele>
        <time>2016-01-30T11:30:53Z</time>
      </trkpt>
      <trkpt lat="45.29858" lon="6.1881">
        <ele>1644.3</ele>
        <time>2016-01-30T11:30:55Z</time>
      </trkpt>
      <trkpt lat="45.29853" lon="6.1882">
        <ele>1640.7</ele>
        <time>2016-01-30T11:31:11Z</time>
      </trkpt>
      <trkpt lat="45.29849" lon="6.18829">
        <ele>1639.7</ele>
        <time>2016-01-30T11:31:14Z</time>
      </trkpt>
      <trkpt lat="45.29849" lon="6.18839">
        <ele>1639.3</ele>
        <time>2016-01-30T11:31:18Z</time>
      </trkpt>
      <trkpt lat="45.29847" lon="6.18849">
        <ele>1637.3</ele>
        <time>2016-01-30T11:31:20Z</time>
      </trkpt>
      <trkpt lat="45.29843" lon="6.18859">
        <ele>1633.9</ele>
        <time>2016-01-30T11:31:25Z</time>
      </trkpt>
      <trkpt lat="45.29839" lon="6.1887">
        <ele>1632.6</ele>
        <time>2016-01-30T11:31:38Z</time>
      </trkpt>
      <trkpt lat="45.29839" lon="6.18871">
        <ele>1631.9</ele>
        <time>2016-01-30T11:31:39Z</time>
      </trkpt>
      <trkpt lat="45.29839" lon="6.18889">
        <ele>1627.6</ele>
        <time>2016-01-30T11:31:48Z</time>
      </trkpt>
      <trkpt lat="45.29839" lon="6.18901">
        <ele>1625.5</ele>
        <time>2016-01-30T11:31:52Z</time>
      </trkpt>
      <trkpt lat="45.29841" lon="6.18914">
        <ele>1621.6</ele>
        <time>2016-01-30T11:32:59Z</time>
      </trkpt>
      <trkpt lat="45.29841" lon="6.18914">
        <ele>1621.9</ele>
        <time>2016-01-30T11:33:00Z</time>
      </trkpt>
      <trkpt lat="45.29832" lon="6.18911">
        <ele>1620.9</ele>
        <time>2016-01-30T11:36:46Z</time>
      </trkpt>
      <trkpt lat="45.29831" lon="6.18934">
        <ele>1616.9</ele>
        <time>2016-01-30T11:37:26Z</time>
      </trkpt>
      <trkpt lat="45.2983" lon="6.18946">
        <ele>1615.2</ele>
        <time>2016-01-30T11:37:35Z</time>
      </trkpt>
      <trkpt lat="45.29828" lon="6.18958">
        <ele>1613</ele>
        <time>2016-01-30T11:37:45Z</time>
      </trkpt>
      <trkpt lat="45.29828" lon="6.1897">
        <ele>1611.7</ele>
        <time>2016-01-30T11:37:53Z</time>
      </trkpt>
      <trkpt lat="45.29827" lon="6.18973">
        <ele>1611.1</ele>
        <time>2016-01-30T11:37:54Z</time>
      </trkpt>
      <trkpt lat="45.29821" lon="6.1899">
        <ele>1609.1</ele>
        <time>2016-01-30T11:38:00Z</time>
      </trkpt>
      <trkpt lat="45.29817" lon="6.19001">
        <ele>1608.3</ele>
        <time>2016-01-30T11:38:03Z</time>
      </trkpt>
      <trkpt lat="45.29815" lon="6.19012">
        <ele>1606.9</ele>
        <time>2016-01-30T11:38:05Z</time>
      </trkpt>
      <trkpt lat="45.29813" lon="6.1902">
        <ele>1605.4</ele>
        <time>2016-01-30T11:38:06Z</time>
      </trkpt>
      <trkpt lat="45.2981" lon="6.19028">
        <ele>1604.3</ele>
        <time>2016-01-30T11:38:07Z</time>
      </trkpt>
      <trkpt lat="45.29804" lon="6.19037">
        <ele>1601.4</ele>
        <time>2016-01-30T11:38:28Z</time>
      </trkpt>
      <trkpt lat="45.298" lon="6.19046">
        <ele>1599.7</ele>
        <time>2016-01-30T11:39:05Z</time>
      </trkpt>
      <trkpt lat="45.29799" lon="6.1905">
        <ele>1599.8</ele>
        <time>2016-01-30T11:39:06Z</time>
      </trkpt>
      <trkpt lat="45.29795" lon="6.19067">
        <ele>1597.5</ele>
        <time>2016-01-30T11:39:11Z</time>
      </trkpt>
      <trkpt lat="45.29792" lon="6.19078">
        <ele>1596.8</ele>
        <time>2016-01-30T11:39:13Z</time>
      </trkpt>
      <trkpt lat="45.29789" lon="6.19086">
        <ele>1596.2</ele>
        <time>2016-01-30T11:39:15Z</time>
      </trkpt>
      <trkpt lat="45.29785" lon="6.19097">
        <ele>1594.1</ele>
        <time>2016-01-30T11:39:21Z</time>
      </trkpt>
      <trkpt lat="45.29784" lon="6.19108">
        <ele>1592.8</ele>
        <time>2016-01-30T11:39:27Z</time>
      </trkpt>
      <trkpt lat="45.2978" lon="6.19119">
        <ele>1591.4</ele>
        <time>2016-01-30T11:39:38Z</time>
      </trkpt>
      <trkpt lat="45.29774" lon="6.19127">
        <ele>1590.3</ele>
        <time>2016-01-30T11:39:43Z</time>
      </trkpt>
      <trkpt lat="45.29767" lon="6.19134">
        <ele>1589.3</ele>
        <time>2016-01-30T11:39:48Z</time>
      </trkpt>
      <trkpt lat="45.29761" lon="6.19141">
        <ele>1589.2</ele>
        <time>2016-01-30T11:39:51Z</time>
      </trkpt>
      <trkpt lat="45.29767" lon="6.19149">
        <ele>1587.6</ele>
        <time>2016-01-30T11:40:53Z</time>
      </trkpt>
      <trkpt lat="45.29768" lon="6.1915">
        <ele>1587.2</ele>
        <time>2016-01-30T11:40:54Z</time>
      </trkpt>
      <trkpt lat="45.29783" lon="6.19156">
        <ele>1582</ele>
        <time>2016-01-30T11:41:03Z</time>
      </trkpt>
      <trkpt lat="45.29789" lon="6.19166">
        <ele>1578.7</ele>
        <time>2016-01-30T11:41:11Z</time>
      </trkpt>
      <trkpt lat="45.29794" lon="6.19175">
        <ele>1576.3</ele>
        <time>2016-01-30T11:41:15Z</time>
      </trkpt>
      <trkpt lat="45.29798" lon="6.19185">
        <ele>1571.2</ele>
        <time>2016-01-30T11:41:21Z</time>
      </trkpt>
      <trkpt lat="45.29796" lon="6.19197">
        <ele>1568.8</ele>
        <time>2016-01-30T11:41:26Z</time>
      </trkpt>
      <trkpt lat="45.29792" lon="6.19206">
        <ele>1566.6</ele>
        <time>2016-01-30T11:42:18Z</time>
      </trkpt>
      <trkpt lat="45.29791" lon="6.1921">
        <ele>1566.6</ele>
        <time>2016-01-30T11:42:19Z</time>
      </trkpt>
      <trkpt lat="45.2979" lon="6.19222">
        <ele>1566.2</ele>
        <time>2016-01-30T11:42:21Z</time>
      </trkpt>
      <trkpt lat="45.29789" lon="6.19233">
        <ele>1566.4</ele>
        <time>2016-01-30T11:42:23Z</time>
      </trkpt>
      <trkpt lat="45.29787" lon="6.19242">
        <ele>1565.9</ele>
        <time>2016-01-30T11:42:25Z</time>
      </trkpt>
      <trkpt lat="45.29785" lon="6.19253">
        <ele>1564.9</ele>
        <time>2016-01-30T11:42:27Z</time>
      </trkpt>
      <trkpt lat="45.29782" lon="6.19261">
        <ele>1564</ele>
        <time>2016-01-30T11:42:29Z</time>
      </trkpt>
      <trkpt lat="45.29781" lon="6.1927">
        <ele>1563.4</ele>
        <time>2016-01-30T11:42:31Z</time>
      </trkpt>
      <trkpt lat="45.29789" lon="6.19268">
        <ele>1559.7</ele>
        <time>2016-01-30T11:42:45Z</time>
      </trkpt>
      <trkpt lat="45.29797" lon="6.19264">
        <ele>1557.4</ele>
        <time>2016-01-30T11:42:51Z</time>
      </trkpt>
      <trkpt lat="45.29797" lon="6.19273">
        <ele>1556</ele>
        <time>2016-01-30T11:42:56Z</time>
      </trkpt>
      <trkpt lat="45.29797" lon="6.19282">
        <ele>1555.6</ele>
        <time>2016-01-30T11:42:58Z</time>
      </trkpt>
      <trkpt lat="45.29797" lon="6.19289">
        <ele>1555.6</ele>
        <time>2016-01-30T11:42:59Z</time>
      </trkpt>
      <trkpt lat="45.29798" lon="6.19296">
        <ele>1554.9</ele>
        <time>2016-01-30T11:43:00Z</time>
      </trkpt>
      <trkpt lat="45.29796" lon="6.19307">
        <ele>1553.9</ele>
        <time>2016-01-30T11:43:02Z</time>
      </trkpt>
      <trkpt lat="45.29795" lon="6.19316">
        <ele>1552.9</ele>
        <time>2016-01-30T11:43:04Z</time>
      </trkpt>
      <trkpt lat="45.29792" lon="6.19327">
        <ele>1552.3</ele>
        <time>2016-01-30T11:43:06Z</time>
      </trkpt>
      <trkpt lat="45.29788" lon="6.19336">
        <ele>1551.1</ele>
        <time>2016-01-30T11:43:08Z</time>
      </trkpt>
      <trkpt lat="45.29783" lon="6.19345">
        <ele>1548.9</ele>
        <time>2016-01-30T11:43:11Z</time>
      </trkpt>
      <trkpt lat="45.2978" lon="6.19354">
        <ele>1546.4</ele>
        <time>2016-01-30T11:43:16Z</time>
      </trkpt>
      <trkpt lat="45.29777" lon="6.19364">
        <ele>1545.4</ele>
        <time>2016-01-30T11:43:33Z</time>
      </trkpt>
      <trkpt lat="45.29776" lon="6.19366">
        <ele>1545.5</ele>
        <time>2016-01-30T11:43:34Z</time>
      </trkpt>
      <trkpt lat="45.29768" lon="6.19379">
        <ele>1544.8</ele>
        <time>2016-01-30T11:43:38Z</time>
      </trkpt>
      <trkpt lat="45.29762" lon="6.19389">
        <ele>1544.3</ele>
        <time>2016-01-30T11:43:41Z</time>
      </trkpt>
      <trkpt lat="45.29756" lon="6.19398">
        <ele>1544.6</ele>
        <time>2016-01-30T11:43:44Z</time>
      </trkpt>
      <trkpt lat="45.29751" lon="6.19405">
        <ele>1544.5</ele>
        <time>2016-01-30T11:43:46Z</time>
      </trkpt>
      <trkpt lat="45.29745" lon="6.1941">
        <ele>1544.2</ele>
        <time>2016-01-30T11:43:48Z</time>
      </trkpt>
      <trkpt lat="45.29738" lon="6.19417">
        <ele>1543.2</ele>
        <time>2016-01-30T11:43:54Z</time>
      </trkpt>
      <trkpt lat="45.29731" lon="6.19424">
        <ele>1542.9</ele>
        <time>2016-01-30T11:43:58Z</time>
      </trkpt>
      <trkpt lat="45.29726" lon="6.19431">
        <ele>1542.7</ele>
        <time>2016-01-30T11:44:00Z</time>
      </trkpt>
      <trkpt lat="45.2972" lon="6.19439">
        <ele>1542.1</ele>
        <time>2016-01-30T11:44:02Z</time>
      </trkpt>
      <trkpt lat="45.29714" lon="6.19447">
        <ele>1541.5</ele>
        <time>2016-01-30T11:44:04Z</time>
      </trkpt>
      <trkpt lat="45.29708" lon="6.19455">
        <ele>1541.1</ele>
        <time>2016-01-30T11:44:06Z</time>
      </trkpt>
      <trkpt lat="45.29702" lon="6.19462">
        <ele>1540.3</ele>
        <time>2016-01-30T11:44:09Z</time>
      </trkpt>
      <trkpt lat="45.29697" lon="6.19472">
        <ele>1540</ele>
        <time>2016-01-30T11:44:12Z</time>
      </trkpt>
      <trkpt lat="45.29694" lon="6.19478">
        <ele>1540.1</ele>
        <time>2016-01-30T11:44:13Z</time>
      </trkpt>
      <trkpt lat="45.29691" lon="6.19484">
        <ele>1539.5</ele>
        <time>2016-01-30T11:44:14Z</time>
      </trkpt>
      <trkpt lat="45.29687" lon="6.19491">
        <ele>1539</ele>
        <time>2016-01-30T11:44:15Z</time>
      </trkpt>
      <trkpt lat="45.29683" lon="6.19496">
        <ele>1538.3</ele>
        <time>2016-01-30T11:44:16Z</time>
      </trkpt>
      <trkpt lat="45.29679" lon="6.19502">
        <ele>1537.7</ele>
        <time>2016-01-30T11:44:17Z</time>
      </trkpt>
      <trkpt lat="45.29676" lon="6.19507">
        <ele>1537.2</ele>
        <time>2016-01-30T11:44:18Z</time>
      </trkpt>
      <trkpt lat="45.29673" lon="6.19512">
        <ele>1536.7</ele>
        <time>2016-01-30T11:44:19Z</time>
      </trkpt>
      <trkpt lat="45.2967" lon="6.19518">
        <ele>1536.2</ele>
        <time>2016-01-30T11:44:20Z</time>
      </trkpt>
      <trkpt lat="45.29666" lon="6.19527">
        <ele>1535.4</ele>
        <time>2016-01-30T11:44:22Z</time>
      </trkpt>
      <trkpt lat="45.29663" lon="6.19533">
        <ele>1535.1</ele>
        <time>2016-01-30T11:44:24Z</time>
      </trkpt>
      <trkpt lat="45.29658" lon="6.19542">
        <ele>1534.7</ele>
        <time>2016-01-30T11:44:26Z</time>
      </trkpt>
      <trkpt lat="45.29654" lon="6.19549">
        <ele>1534</ele>
        <time>2016-01-30T11:44:28Z</time>
      </trkpt>
      <trkpt lat="45.29649" lon="6.19557">
        <ele>1533.2</ele>
        <time>2016-01-30T11:44:30Z</time>
      </trkpt>
      <trkpt lat="45.29644" lon="6.19565">
        <ele>1532.7</ele>
        <time>2016-01-30T11:44:32Z</time>
      </trkpt>
      <trkpt lat="45.29638" lon="6.19573">
        <ele>1531.2</ele>
        <time>2016-01-30T11:44:34Z</time>
      </trkpt>
      <trkpt lat="45.29636" lon="6.19577">
        <ele>1530.8</ele>
        <time>2016-01-30T11:44:35Z</time>
      </trkpt>
      <trkpt lat="45.29626" lon="6.19589">
        <ele>1530.1</ele>
        <time>2016-01-30T11:44:38Z</time>
      </trkpt>
      <trkpt lat="45.29619" lon="6.19597">
        <ele>1529.4</ele>
        <time>2016-01-30T11:44:40Z</time>
      </trkpt>
      <trkpt lat="45.29613" lon="6.19605">
        <ele>1528.4</ele>
        <time>2016-01-30T11:44:42Z</time>
      </trkpt>
      <trkpt lat="45.29608" lon="6.19612">
        <ele>1527.4</ele>
        <time>2016-01-30T11:44:44Z</time>
      </trkpt>
      <trkpt lat="45.29603" lon="6.19619">
        <ele>1527.1</ele>
        <time>2016-01-30T11:44:46Z</time>
      </trkpt>
      <trkpt lat="45.29598" lon="6.19628">
        <ele>1526.3</ele>
        <time>2016-01-30T11:44:48Z</time>
      </trkpt>
      <trkpt lat="45.29592" lon="6.19638">
        <ele>1524.9</ele>
        <time>2016-01-30T11:44:50Z</time>
      </trkpt>
      <trkpt lat="45.29586" lon="6.19646">
        <ele>1524.2</ele>
        <time>2016-01-30T11:44:53Z</time>
      </trkpt>
      <trkpt lat="45.2958" lon="6.19653">
        <ele>1524</ele>
        <time>2016-01-30T11:44:57Z</time>
      </trkpt>
      <trkpt lat="45.29578" lon="6.19663">
        <ele>1523.6</ele>
        <time>2016-01-30T11:45:00Z</time>
      </trkpt>
      <trkpt lat="45.29578" lon="6.19672">
        <ele>1522.6</ele>
        <time>2016-01-30T11:45:02Z</time>
      </trkpt>
      <trkpt lat="45.29576" lon="6.19681">
        <ele>1521.3</ele>
        <time>2016-01-30T11:45:04Z</time>
      </trkpt>
      <trkpt lat="45.29573" lon="6.19693">
        <ele>1518.2</ele>
        <time>2016-01-30T11:45:07Z</time>
      </trkpt>
      <trkpt lat="45.29572" lon="6.19704">
        <ele>1516.5</ele>
        <time>2016-01-30T11:45:09Z</time>
      </trkpt>
      <trkpt lat="45.2957" lon="6.19715">
        <ele>1515</ele>
        <time>2016-01-30T11:45:11Z</time>
      </trkpt>
      <trkpt lat="45.29566" lon="6.19725">
        <ele>1513.1</ele>
        <time>2016-01-30T11:45:13Z</time>
      </trkpt>
      <trkpt lat="45.29562" lon="6.19734">
        <ele>1511.6</ele>
        <time>2016-01-30T11:45:15Z</time>
      </trkpt>
      <trkpt lat="45.29556" lon="6.19743">
        <ele>1508.5</ele>
        <time>2016-01-30T11:45:23Z</time>
      </trkpt>
      <trkpt lat="45.29553" lon="6.19752">
        <ele>1508</ele>
        <time>2016-01-30T11:45:27Z</time>
      </trkpt>
      <trkpt lat="45.29551" lon="6.19761">
        <ele>1507.7</ele>
        <time>2016-01-30T11:45:29Z</time>
      </trkpt>
      <trkpt lat="45.29548" lon="6.19769">
        <ele>1506.6</ele>
        <time>2016-01-30T11:45:31Z</time>
      </trkpt>
      <trkpt lat="45.29543" lon="6.1978">
        <ele>1504.9</ele>
        <time>2016-01-30T11:45:33Z</time>
      </trkpt>
      <trkpt lat="45.29541" lon="6.19785">
        <ele>1504.4</ele>
        <time>2016-01-30T11:45:34Z</time>
      </trkpt>
      <trkpt lat="45.29538" lon="6.19791">
        <ele>1502.6</ele>
        <time>2016-01-30T11:45:35Z</time>
      </trkpt>
      <trkpt lat="45.29534" lon="6.19796">
        <ele>1501.3</ele>
        <time>2016-01-30T11:45:36Z</time>
      </trkpt>
      <trkpt lat="45.29531" lon="6.19802">
        <ele>1500.5</ele>
        <time>2016-01-30T11:45:37Z</time>
      </trkpt>
      <trkpt lat="45.29527" lon="6.19808">
        <ele>1500</ele>
        <time>2016-01-30T11:45:38Z</time>
      </trkpt>
      <trkpt lat="45.29523" lon="6.19815">
        <ele>1499.2</ele>
        <time>2016-01-30T11:45:39Z</time>
      </trkpt>
      <trkpt lat="45.29519" lon="6.19822">
        <ele>1498.7</ele>
        <time>2016-01-30T11:45:40Z</time>
      </trkpt>
      <trkpt lat="45.29515" lon="6.1983">
        <ele>1498.2</ele>
        <time>2016-01-30T11:45:41Z</time>
      </trkpt>
      <trkpt lat="45.2951" lon="6.19838">
        <ele>1497.4</ele>
        <time>2016-01-30T11:45:42Z</time>
      </trkpt>
      <trkpt lat="45.29506" lon="6.19845">
        <ele>1496.8</ele>
        <time>2016-01-30T11:45:43Z</time>
      </trkpt>
      <trkpt lat="45.29501" lon="6.19852">
        <ele>1495.7</ele>
        <time>2016-01-30T11:45:44Z</time>
      </trkpt>
      <trkpt lat="45.29497" lon="6.1986">
        <ele>1494.9</ele>
        <time>2016-01-30T11:45:45Z</time>
      </trkpt>
      <trkpt lat="45.29493" lon="6.19866">
        <ele>1494.5</ele>
        <time>2016-01-30T11:45:46Z</time>
      </trkpt>
      <trkpt lat="45.29489" lon="6.19872">
        <ele>1494.2</ele>
        <time>2016-01-30T11:45:47Z</time>
      </trkpt>
      <trkpt lat="45.29486" lon="6.19878">
        <ele>1494</ele>
        <time>2016-01-30T11:45:48Z</time>
      </trkpt>
      <trkpt lat="45.29482" lon="6.19885">
        <ele>1493.8</ele>
        <time>2016-01-30T11:45:49Z</time>
      </trkpt>
      <trkpt lat="45.29479" lon="6.19892">
        <ele>1493.6</ele>
        <time>2016-01-30T11:45:50Z</time>
      </trkpt>
      <trkpt lat="45.29477" lon="6.19898">
        <ele>1493</ele>
        <time>2016-01-30T11:45:51Z</time>
      </trkpt>
      <trkpt lat="45.29474" lon="6.19905">
        <ele>1492.5</ele>
        <time>2016-01-30T11:45:52Z</time>
      </trkpt>
      <trkpt lat="45.29473" lon="6.19911">
        <ele>1492.2</ele>
        <time>2016-01-30T11:45:53Z</time>
      </trkpt>
      <trkpt lat="45.29471" lon="6.19923">
        <ele>1491.7</ele>
        <time>2016-01-30T11:45:55Z</time>
      </trkpt>
      <trkpt lat="45.29468" lon="6.19935">
        <ele>1490.1</ele>
        <time>2016-01-30T11:45:58Z</time>
      </trkpt>
      <trkpt lat="45.29461" lon="6.19943">
        <ele>1487.7</ele>
        <time>2016-01-30T11:46:20Z</time>
      </trkpt>
      <trkpt lat="45.29461" lon="6.19954">
        <ele>1486.7</ele>
        <time>2016-01-30T11:46:25Z</time>
      </trkpt>
      <trkpt lat="45.2946" lon="6.19962">
        <ele>1485.8</ele>
        <time>2016-01-30T11:46:27Z</time>
      </trkpt>
      <trkpt lat="45.29458" lon="6.19971">
        <ele>1484.3</ele>
        <time>2016-01-30T11:46:29Z</time>
      </trkpt>
      <trkpt lat="45.29452" lon="6.1998">
        <ele>1481.5</ele>
        <time>2016-01-30T11:46:33Z</time>
      </trkpt>
      <trkpt lat="45.29452" lon="6.19992">
        <ele>1477.8</ele>
        <time>2016-01-30T11:46:53Z</time>
      </trkpt>
      <trkpt lat="45.29452" lon="6.19994">
        <ele>1477.9</ele>
        <time>2016-01-30T11:46:54Z</time>
      </trkpt>
      <trkpt lat="45.29455" lon="6.20013">
        <ele>1475.2</ele>
        <time>2016-01-30T11:47:04Z</time>
      </trkpt>
      <trkpt lat="45.29455" lon="6.20023">
        <ele>1472.8</ele>
        <time>2016-01-30T11:47:07Z</time>
      </trkpt>
      <trkpt lat="45.29455" lon="6.20035">
        <ele>1471.5</ele>
        <time>2016-01-30T11:47:10Z</time>
      </trkpt>
      <trkpt lat="45.29453" lon="6.20047">
        <ele>1468.2</ele>
        <time>2016-01-30T11:47:14Z</time>
      </trkpt>
      <trkpt lat="45.2945" lon="6.20055">
        <ele>1466.4</ele>
        <time>2016-01-30T11:47:16Z</time>
      </trkpt>
      <trkpt lat="45.29446" lon="6.20064">
        <ele>1466.4</ele>
        <time>2016-01-30T11:47:18Z</time>
      </trkpt>
      <trkpt lat="45.29442" lon="6.20073">
        <ele>1464.4</ele>
        <time>2016-01-30T11:47:20Z</time>
      </trkpt>
      <trkpt lat="45.29439" lon="6.20083">
        <ele>1463.9</ele>
        <time>2016-01-30T11:47:22Z</time>
      </trkpt>
      <trkpt lat="45.29433" lon="6.20092">
        <ele>1462</ele>
        <time>2016-01-30T11:47:32Z</time>
      </trkpt>
      <trkpt lat="45.29427" lon="6.20099">
        <ele>1461.4</ele>
        <time>2016-01-30T11:47:35Z</time>
      </trkpt>
      <trkpt lat="45.29426" lon="6.20106">
        <ele>1461.2</ele>
        <time>2016-01-30T11:47:36Z</time>
      </trkpt>
      <trkpt lat="45.29423" lon="6.20111">
        <ele>1461.1</ele>
        <time>2016-01-30T11:47:37Z</time>
      </trkpt>
      <trkpt lat="45.2942" lon="6.20117">
        <ele>1460.1</ele>
        <time>2016-01-30T11:47:38Z</time>
      </trkpt>
      <trkpt lat="45.29414" lon="6.20126">
        <ele>1459.1</ele>
        <time>2016-01-30T11:47:40Z</time>
      </trkpt>
      <trkpt lat="45.2941" lon="6.20134">
        <ele>1458.7</ele>
        <time>2016-01-30T11:47:42Z</time>
      </trkpt>
      <trkpt lat="45.29408" lon="6.20142">
        <ele>1457.5</ele>
        <time>2016-01-30T11:47:44Z</time>
      </trkpt>
      <trkpt lat="45.29404" lon="6.20151">
        <ele>1456</ele>
        <time>2016-01-30T11:47:46Z</time>
      </trkpt>
      <trkpt lat="45.294" lon="6.20161">
        <ele>1454.8</ele>
        <time>2016-01-30T11:47:48Z</time>
      </trkpt>
      <trkpt lat="45.29397" lon="6.20171">
        <ele>1452.9</ele>
        <time>2016-01-30T11:47:51Z</time>
      </trkpt>
      <trkpt lat="45.29392" lon="6.2018">
        <ele>1451.9</ele>
        <time>2016-01-30T11:47:53Z</time>
      </trkpt>
      <trkpt lat="45.29387" lon="6.20187">
        <ele>1450.8</ele>
        <time>2016-01-30T11:47:55Z</time>
      </trkpt>
      <trkpt lat="45.29386" lon="6.20191">
        <ele>1450.2</ele>
        <time>2016-01-30T11:47:56Z</time>
      </trkpt>
      <trkpt lat="45.29389" lon="6.202">
        <ele>1446.5</ele>
        <time>2016-01-30T11:48:03Z</time>
      </trkpt>
      <trkpt lat="45.2939" lon="6.20212">
        <ele>1444.2</ele>
        <time>2016-01-30T11:48:06Z</time>
      </trkpt>
      <trkpt lat="45.29386" lon="6.20222">
        <ele>1443</ele>
        <time>2016-01-30T11:48:08Z</time>
      </trkpt>
      <trkpt lat="45.29382" lon="6.20231">
        <ele>1442.5</ele>
        <time>2016-01-30T11:48:10Z</time>
      </trkpt>
      <trkpt lat="45.29379" lon="6.20241">
        <ele>1441</ele>
        <time>2016-01-30T11:48:12Z</time>
      </trkpt>
      <trkpt lat="45.29376" lon="6.20251">
        <ele>1440.2</ele>
        <time>2016-01-30T11:48:14Z</time>
      </trkpt>
      <trkpt lat="45.29372" lon="6.20262">
        <ele>1438.9</ele>
        <time>2016-01-30T11:48:17Z</time>
      </trkpt>
      <trkpt lat="45.29372" lon="6.20275">
        <ele>1436.7</ele>
        <time>2016-01-30T11:48:21Z</time>
      </trkpt>
      <trkpt lat="45.29373" lon="6.20282">
        <ele>1436.3</ele>
        <time>2016-01-30T11:48:22Z</time>
      </trkpt>
      <trkpt lat="45.29373" lon="6.2029">
        <ele>1435.1</ele>
        <time>2016-01-30T11:48:23Z</time>
      </trkpt>
      <trkpt lat="45.29371" lon="6.203">
        <ele>1433.5</ele>
        <time>2016-01-30T11:48:25Z</time>
      </trkpt>
      <trkpt lat="45.29366" lon="6.20311">
        <ele>1430.2</ele>
        <time>2016-01-30T11:49:03Z</time>
      </trkpt>
      <trkpt lat="45.29366" lon="6.20313">
        <ele>1430.1</ele>
        <time>2016-01-30T11:49:04Z</time>
      </trkpt>
      <trkpt lat="45.29373" lon="6.20333">
        <ele>1425.8</ele>
        <time>2016-01-30T11:49:11Z</time>
      </trkpt>
      <trkpt lat="45.29372" lon="6.20344">
        <ele>1424.2</ele>
        <time>2016-01-30T11:49:13Z</time>
      </trkpt>
      <trkpt lat="45.29371" lon="6.20355">
        <ele>1422.7</ele>
        <time>2016-01-30T11:49:15Z</time>
      </trkpt>
      <trkpt lat="45.29373" lon="6.20367">
        <ele>1421.4</ele>
        <time>2016-01-30T11:49:17Z</time>
      </trkpt>
      <trkpt lat="45.29378" lon="6.20376">
        <ele>1418.8</ele>
        <time>2016-01-30T11:49:20Z</time>
      </trkpt>
      <trkpt lat="45.29381" lon="6.20382">
        <ele>1418.1</ele>
        <time>2016-01-30T11:49:22Z</time>
      </trkpt>
      <trkpt lat="45.29387" lon="6.20391">
        <ele>1417.6</ele>
        <time>2016-01-30T11:49:24Z</time>
      </trkpt>
      <trkpt lat="45.2939" lon="6.20401">
        <ele>1416.3</ele>
        <time>2016-01-30T11:49:26Z</time>
      </trkpt>
      <trkpt lat="45.29394" lon="6.20405">
        <ele>1415.2</ele>
        <time>2016-01-30T11:49:27Z</time>
      </trkpt>
      <trkpt lat="45.29396" lon="6.20411">
        <ele>1414.4</ele>
        <time>2016-01-30T11:49:28Z</time>
      </trkpt>
      <trkpt lat="45.29398" lon="6.2042">
        <ele>1413.8</ele>
        <time>2016-01-30T11:49:29Z</time>
      </trkpt>
      <trkpt lat="45.29399" lon="6.20429">
        <ele>1413</ele>
        <time>2016-01-30T11:49:30Z</time>
      </trkpt>
      <trkpt lat="45.29397" lon="6.20436">
        <ele>1412.4</ele>
        <time>2016-01-30T11:49:31Z</time>
      </trkpt>
      <trkpt lat="45.29395" lon="6.20443">
        <ele>1410.9</ele>
        <time>2016-01-30T11:49:32Z</time>
      </trkpt>
      <trkpt lat="45.29393" lon="6.2045">
        <ele>1409.8</ele>
        <time>2016-01-30T11:49:33Z</time>
      </trkpt>
      <trkpt lat="45.29392" lon="6.20458">
        <ele>1408.9</ele>
        <time>2016-01-30T11:49:34Z</time>
      </trkpt>
      <trkpt lat="45.29391" lon="6.20465">
        <ele>1408.2</ele>
        <time>2016-01-30T11:49:35Z</time>
      </trkpt>
      <trkpt lat="45.29388" lon="6.20476">
        <ele>1407.1</ele>
        <time>2016-01-30T11:49:37Z</time>
      </trkpt>
      <trkpt lat="45.29387" lon="6.20484">
        <ele>1405.9</ele>
        <time>2016-01-30T11:49:40Z</time>
      </trkpt>
      <trkpt lat="45.29389" lon="6.20496">
        <ele>1405</ele>
        <time>2016-01-30T11:49:42Z</time>
      </trkpt>
      <trkpt lat="45.29389" lon="6.20504">
        <ele>1404.7</ele>
        <time>2016-01-30T11:49:43Z</time>
      </trkpt>
      <trkpt lat="45.29388" lon="6.20517">
        <ele>1399.6</ele>
        <time>2016-01-30T11:49:56Z</time>
      </trkpt>
      <trkpt lat="45.29387" lon="6.20529">
        <ele>1400.1</ele>
        <time>2016-01-30T11:50:04Z</time>
      </trkpt>
      <trkpt lat="45.29386" lon="6.20532">
        <ele>1400</ele>
        <time>2016-01-30T11:50:05Z</time>
      </trkpt>
      <trkpt lat="45.29384" lon="6.20551">
        <ele>1398.8</ele>
        <time>2016-01-30T11:50:14Z</time>
      </trkpt>
      <trkpt lat="45.29382" lon="6.20559">
        <ele>1398.2</ele>
        <time>2016-01-30T11:50:16Z</time>
      </trkpt>
      <trkpt lat="45.2938" lon="6.2057">
        <ele>1397.4</ele>
        <time>2016-01-30T11:50:18Z</time>
      </trkpt>
      <trkpt lat="45.29377" lon="6.20579">
        <ele>1396.8</ele>
        <time>2016-01-30T11:50:20Z</time>
      </trkpt>
      <trkpt lat="45.29373" lon="6.2059">
        <ele>1395.9</ele>
        <time>2016-01-30T11:50:23Z</time>
      </trkpt>
      <trkpt lat="45.29369" lon="6.206">
        <ele>1394.6</ele>
        <time>2016-01-30T11:50:25Z</time>
      </trkpt>
      <trkpt lat="45.29367" lon="6.20611">
        <ele>1394</ele>
        <time>2016-01-30T11:50:29Z</time>
      </trkpt>
      <trkpt lat="45.29363" lon="6.20621">
        <ele>1392.5</ele>
        <time>2016-01-30T11:50:33Z</time>
      </trkpt>
      <trkpt lat="45.2936" lon="6.20633">
        <ele>1391.9</ele>
        <time>2016-01-30T11:50:37Z</time>
      </trkpt>
      <trkpt lat="45.29358" lon="6.20641">
        <ele>1391.1</ele>
        <time>2016-01-30T11:50:40Z</time>
      </trkpt>
      <trkpt lat="45.29357" lon="6.20653">
        <ele>1390.2</ele>
        <time>2016-01-30T11:50:43Z</time>
      </trkpt>
      <trkpt lat="45.29357" lon="6.20664">
        <ele>1389.3</ele>
        <time>2016-01-30T11:50:46Z</time>
      </trkpt>
      <trkpt lat="45.29359" lon="6.20673">
        <ele>1387.7</ele>
        <time>2016-01-30T11:50:57Z</time>
      </trkpt>
      <trkpt lat="45.2936" lon="6.20683">
        <ele>1387.5</ele>
        <time>2016-01-30T11:51:00Z</time>
      </trkpt>
      <trkpt lat="45.2936" lon="6.20696">
        <ele>1387.1</ele>
        <time>2016-01-30T11:51:05Z</time>
      </trkpt>
      <trkpt lat="45.2936" lon="6.20698">
        <ele>1387.1</ele>
        <time>2016-01-30T11:51:06Z</time>
      </trkpt>
      <trkpt lat="45.29361" lon="6.20717">
        <ele>1384.8</ele>
        <time>2016-01-30T11:51:11Z</time>
      </trkpt>
      <trkpt lat="45.2936" lon="6.20726">
        <ele>1384</ele>
        <time>2016-01-30T11:51:14Z</time>
      </trkpt>
      <trkpt lat="45.29361" lon="6.20737">
        <ele>1383.1</ele>
        <time>2016-01-30T11:51:17Z</time>
      </trkpt>
      <trkpt lat="45.29367" lon="6.20745">
        <ele>1382.1</ele>
        <time>2016-01-30T11:51:20Z</time>
      </trkpt>
      <trkpt lat="45.29366" lon="6.20757">
        <ele>1380.3</ele>
        <time>2016-01-30T11:51:24Z</time>
      </trkpt>
      <trkpt lat="45.29366" lon="6.20769">
        <ele>1378</ele>
        <time>2016-01-30T11:51:31Z</time>
      </trkpt>
      <trkpt lat="45.29368" lon="6.20781">
        <ele>1375.7</ele>
        <time>2016-01-30T11:51:47Z</time>
      </trkpt>
      <trkpt lat="45.2937" lon="6.20793">
        <ele>1373.1</ele>
        <time>2016-01-30T11:52:08Z</time>
      </trkpt>
      <trkpt lat="45.2937" lon="6.20794">
        <ele>1373.4</ele>
        <time>2016-01-30T11:52:09Z</time>
      </trkpt>
      <trkpt lat="45.29369" lon="6.20814">
        <ele>1370.5</ele>
        <time>2016-01-30T11:52:19Z</time>
      </trkpt>
      <trkpt lat="45.29366" lon="6.20826">
        <ele>1368.6</ele>
        <time>2016-01-30T11:52:27Z</time>
      </trkpt>
      <trkpt lat="45.29365" lon="6.20838">
        <ele>1367.5</ele>
        <time>2016-01-30T11:52:55Z</time>
      </trkpt>
      <trkpt lat="45.29363" lon="6.20851">
        <ele>1365.1</ele>
        <time>2016-01-30T11:53:52Z</time>
      </trkpt>
      <trkpt lat="45.29363" lon="6.20851">
        <ele>1364.7</ele>
        <time>2016-01-30T11:53:53Z</time>
      </trkpt>
      <trkpt lat="45.2936" lon="6.20874">
        <ele>1359.4</ele>
        <time>2016-01-30T11:54:37Z</time>
      </trkpt>
      <trkpt lat="45.2936" lon="6.20887">
        <ele>1357.2</ele>
        <time>2016-01-30T11:54:50Z</time>
      </trkpt>
      <trkpt lat="45.2936" lon="6.20899">
        <ele>1354.3</ele>
        <time>2016-01-30T11:55:04Z</time>
      </trkpt>
      <trkpt lat="45.2936" lon="6.209">
        <ele>1354.3</ele>
        <time>2016-01-30T11:55:05Z</time>
      </trkpt>
      <trkpt lat="45.29356" lon="6.20922">
        <ele>1351.4</ele>
        <time>2016-01-30T11:55:21Z</time>
      </trkpt>
      <trkpt lat="45.29355" lon="6.20934">
        <ele>1348.6</ele>
        <time>2016-01-30T11:55:36Z</time>
      </trkpt>
      <trkpt lat="45.29355" lon="6.20947">
        <ele>1344.5</ele>
        <time>2016-01-30T11:56:00Z</time>
      </trkpt>
      <trkpt lat="45.29351" lon="6.20958">
        <ele>1340.5</ele>
        <time>2016-01-30T11:56:18Z</time>
      </trkpt>
      <trkpt lat="45.29351" lon="6.20959">
        <ele>1340.3</ele>
        <time>2016-01-30T11:56:19Z</time>
      </trkpt>
      <trkpt lat="45.29349" lon="6.20982">
        <ele>1334.8</ele>
        <time>2016-01-30T11:56:40Z</time>
      </trkpt>
      <trkpt lat="45.29351" lon="6.20995">
        <ele>1332</ele>
        <time>2016-01-30T11:56:56Z</time>
      </trkpt>
      <trkpt lat="45.29353" lon="6.21007">
        <ele>1330.8</ele>
        <time>2016-01-30T11:57:13Z</time>
      </trkpt>
      <trkpt lat="45.29353" lon="6.21019">
        <ele>1327.9</ele>
        <time>2016-01-30T11:57:24Z</time>
      </trkpt>
      <trkpt lat="45.29353" lon="6.2102">
        <ele>1327.9</ele>
        <time>2016-01-30T11:57:25Z</time>
      </trkpt>
      <trkpt lat="45.29352" lon="6.21043">
        <ele>1322.1</ele>
        <time>2016-01-30T11:57:44Z</time>
      </trkpt>
      <trkpt lat="45.29353" lon="6.21055">
        <ele>1319.5</ele>
        <time>2016-01-30T11:57:55Z</time>
      </trkpt>
      <trkpt lat="45.29352" lon="6.21066">
        <ele>1317.1</ele>
        <time>2016-01-30T11:58:04Z</time>
      </trkpt>
      <trkpt lat="45.2935" lon="6.21079">
        <ele>1314.9</ele>
        <time>2016-01-30T11:58:12Z</time>
      </trkpt>
      <trkpt lat="45.2935" lon="6.21091">
        <ele>1313.5</ele>
        <time>2016-01-30T11:58:23Z</time>
      </trkpt>
      <trkpt lat="45.29348" lon="6.21103">
        <ele>1310.2</ele>
        <time>2016-01-30T11:58:32Z</time>
      </trkpt>
      <trkpt lat="45.29347" lon="6.21104">
        <ele>1309.9</ele>
        <time>2016-01-30T11:58:33Z</time>
      </trkpt>
      <trkpt lat="45.29339" lon="6.21125">
        <ele>1307.2</ele>
        <time>2016-01-30T11:58:48Z</time>
      </trkpt>
      <trkpt lat="45.29337" lon="6.21137">
        <ele>1305.7</ele>
        <time>2016-01-30T11:58:56Z</time>
      </trkpt>
      <trkpt lat="45.29336" lon="6.21148">
        <ele>1304.9</ele>
        <time>2016-01-30T11:59:09Z</time>
      </trkpt>
      <trkpt lat="45.29332" lon="6.21157">
        <ele>1303.8</ele>
        <time>2016-01-30T11:59:16Z</time>
      </trkpt>
      <trkpt lat="45.29327" lon="6.21167">
        <ele>1303.1</ele>
        <time>2016-01-30T11:59:23Z</time>
      </trkpt>
      <trkpt lat="45.29322" lon="6.21176">
        <ele>1301.1</ele>
        <time>2016-01-30T11:59:30Z</time>
      </trkpt>
      <trkpt lat="45.29319" lon="6.21187">
        <ele>1300.1</ele>
        <time>2016-01-30T11:59:37Z</time>
      </trkpt>
      <trkpt lat="45.29319" lon="6.21189">
        <ele>1299.9</ele>
        <time>2016-01-30T11:59:38Z</time>
      </trkpt>
      <trkpt lat="45.29317" lon="6.2121">
        <ele>1296.2</ele>
        <time>2016-01-30T11:59:52Z</time>
      </trkpt>
      <trkpt lat="45.29317" lon="6.21222">
        <ele>1292.9</ele>
        <time>2016-01-30T12:00:00Z</time>
      </trkpt>
      <trkpt lat="45.29314" lon="6.21233">
        <ele>1292</ele>
        <time>2016-01-30T12:00:07Z</time>
      </trkpt>
      <trkpt lat="45.29311" lon="6.21244">
        <ele>1291.2</ele>
        <time>2016-01-30T12:00:20Z</time>
      </trkpt>
      <trkpt lat="45.29306" lon="6.21254">
        <ele>1289.1</ele>
        <time>2016-01-30T12:00:31Z</time>
      </trkpt>
      <trkpt lat="45.29302" lon="6.21264">
        <ele>1289.7</ele>
        <time>2016-01-30T12:00:40Z</time>
      </trkpt>
      <trkpt lat="45.29301" lon="6.21265">
        <ele>1289.3</ele>
        <time>2016-01-30T12:00:41Z</time>
      </trkpt>
      <trkpt lat="45.29293" lon="6.21283">
        <ele>1285.2</ele>
        <time>2016-01-30T12:00:54Z</time>
      </trkpt>
      <trkpt lat="45.29288" lon="6.21293">
        <ele>1283.2</ele>
        <time>2016-01-30T12:01:00Z</time>
      </trkpt>
      <trkpt lat="45.29283" lon="6.21301">
        <ele>1281.9</ele>
        <time>2016-01-30T12:01:08Z</time>
      </trkpt>
      <trkpt lat="45.29277" lon="6.2131">
        <ele>1280.9</ele>
        <time>2016-01-30T12:01:15Z</time>
      </trkpt>
      <trkpt lat="45.29273" lon="6.21319">
        <ele>1278.2</ele>
        <time>2016-01-30T12:01:23Z</time>
      </trkpt>
      <trkpt lat="45.29269" lon="6.21329">
        <ele>1276.9</ele>
        <time>2016-01-30T12:01:29Z</time>
      </trkpt>
      <trkpt lat="45.29264" lon="6.21338">
        <ele>1275.2</ele>
        <time>2016-01-30T12:01:36Z</time>
      </trkpt>
      <trkpt lat="45.29258" lon="6.21347">
        <ele>1273.1</ele>
        <time>2016-01-30T12:01:44Z</time>
      </trkpt>
      <trkpt lat="45.29258" lon="6.21349">
        <ele>1272.2</ele>
        <time>2016-01-30T12:01:45Z</time>
      </trkpt>
      <trkpt lat="45.29246" lon="6.21364">
        <ele>1266.4</ele>
        <time>2016-01-30T12:02:06Z</time>
      </trkpt>
      <trkpt lat="45.29245" lon="6.21376">
        <ele>1263.5</ele>
        <time>2016-01-30T12:02:18Z</time>
      </trkpt>
      <trkpt lat="45.29243" lon="6.21387">
        <ele>1259.2</ele>
        <time>2016-01-30T12:02:27Z</time>
      </trkpt>
      <trkpt lat="45.29239" lon="6.21398">
        <ele>1256.1</ele>
        <time>2016-01-30T12:02:37Z</time>
      </trkpt>
      <trkpt lat="45.29236" lon="6.21409">
        <ele>1252.8</ele>
        <time>2016-01-30T12:02:48Z</time>
      </trkpt>
      <trkpt lat="45.29236" lon="6.2141">
        <ele>1252.5</ele>
        <time>2016-01-30T12:02:49Z</time>
      </trkpt>
      <trkpt lat="45.29225" lon="6.21427">
        <ele>1245.9</ele>
        <time>2016-01-30T12:03:10Z</time>
      </trkpt>
      <trkpt lat="45.29219" lon="6.21436">
        <ele>1243.1</ele>
        <time>2016-01-30T12:03:18Z</time>
      </trkpt>
      <trkpt lat="45.29214" lon="6.21444">
        <ele>1240.6</ele>
        <time>2016-01-30T12:03:25Z</time>
      </trkpt>
      <trkpt lat="45.29209" lon="6.21452">
        <ele>1238.3</ele>
        <time>2016-01-30T12:03:31Z</time>
      </trkpt>
      <trkpt lat="45.29203" lon="6.2146">
        <ele>1236.7</ele>
        <time>2016-01-30T12:03:39Z</time>
      </trkpt>
      <trkpt lat="45.29196" lon="6.21468">
        <ele>1234.5</ele>
        <time>2016-01-30T12:03:49Z</time>
      </trkpt>
      <trkpt lat="45.29195" lon="6.21468">
        <ele>1234.4</ele>
        <time>2016-01-30T12:03:50Z</time>
      </trkpt>
      <trkpt lat="45.29187" lon="6.21487">
        <ele>1230</ele>
        <time>2016-01-30T12:04:09Z</time>
      </trkpt>
      <trkpt lat="45.2918" lon="6.21496">
        <ele>1227</ele>
        <time>2016-01-30T12:04:20Z</time>
      </trkpt>
      <trkpt lat="45.29174" lon="6.21505">
        <ele>1224</ele>
        <time>2016-01-30T12:04:31Z</time>
      </trkpt>
      <trkpt lat="45.29168" lon="6.21513">
        <ele>1221.3</ele>
        <time>2016-01-30T12:04:39Z</time>
      </trkpt>
      <trkpt lat="45.29161" lon="6.2152">
        <ele>1220</ele>
        <time>2016-01-30T12:04:46Z</time>
      </trkpt>
      <trkpt lat="45.29154" lon="6.21528">
        <ele>1217.5</ele>
        <time>2016-01-30T12:04:54Z</time>
      </trkpt>
      <trkpt lat="45.29153" lon="6.21529">
        <ele>1216.8</ele>
        <time>2016-01-30T12:04:55Z</time>
      </trkpt>
      <trkpt lat="45.29142" lon="6.21546">
        <ele>1212.9</ele>
        <time>2016-01-30T12:05:10Z</time>
      </trkpt>
      <trkpt lat="45.29139" lon="6.21556">
        <ele>1210.8</ele>
        <time>2016-01-30T12:05:17Z</time>
      </trkpt>
      <trkpt lat="45.29133" lon="6.21565">
        <ele>1209.4</ele>
        <time>2016-01-30T12:05:23Z</time>
      </trkpt>
      <trkpt lat="45.2913" lon="6.21576">
        <ele>1207.9</ele>
        <time>2016-01-30T12:05:30Z</time>
      </trkpt>
      <trkpt lat="45.29127" lon="6.21587">
        <ele>1204.9</ele>
        <time>2016-01-30T12:05:38Z</time>
      </trkpt>
      <trkpt lat="45.29125" lon="6.21598">
        <ele>1202.8</ele>
        <time>2016-01-30T12:05:44Z</time>
      </trkpt>
      <trkpt lat="45.29121" lon="6.21608">
        <ele>1201</ele>
        <time>2016-01-30T12:05:50Z</time>
      </trkpt>
      <trkpt lat="45.29116" lon="6.21617">
        <ele>1198.8</ele>
        <time>2016-01-30T12:05:56Z</time>
      </trkpt>
      <trkpt lat="45.29116" lon="6.21619">
        <ele>1198.9</ele>
        <time>2016-01-30T12:05:57Z</time>
      </trkpt>
      <trkpt lat="45.29106" lon="6.21637">
        <ele>1195.4</ele>
        <time>2016-01-30T12:06:11Z</time>
      </trkpt>
      <trkpt lat="45.29105" lon="6.21648">
        <ele>1192.3</ele>
        <time>2016-01-30T12:06:19Z</time>
      </trkpt>
      <trkpt lat="45.29104" lon="6.2166">
        <ele>1190.6</ele>
        <time>2016-01-30T12:06:27Z</time>
      </trkpt>
      <trkpt lat="45.29101" lon="6.21671">
        <ele>1187.9</ele>
        <time>2016-01-30T12:06:34Z</time>
      </trkpt>
      <trkpt lat="45.29096" lon="6.21682">
        <ele>1187.1</ele>
        <time>2016-01-30T12:06:51Z</time>
      </trkpt>
      <trkpt lat="45.29096" lon="6.21693">
        <ele>1186</ele>
        <time>2016-01-30T12:07:16Z</time>
      </trkpt>
      <trkpt lat="45.29096" lon="6.21695">
        <ele>1186.1</ele>
        <time>2016-01-30T12:07:17Z</time>
      </trkpt>
      <trkpt lat="45.29085" lon="6.21711">
        <ele>1183.8</ele>
        <time>2016-01-30T12:07:30Z</time>
      </trkpt>
      <trkpt lat="45.29078" lon="6.21718">
        <ele>1181.8</ele>
        <time>2016-01-30T12:07:37Z</time>
      </trkpt>
      <trkpt lat="45.29071" lon="6.21726">
        <ele>1179.9</ele>
        <time>2016-01-30T12:07:45Z</time>
      </trkpt>
      <trkpt lat="45.29069" lon="6.21737">
        <ele>1178.9</ele>
        <time>2016-01-30T12:07:52Z</time>
      </trkpt>
      <trkpt lat="45.29066" lon="6.21748">
        <ele>1178.5</ele>
        <time>2016-01-30T12:08:03Z</time>
      </trkpt>
      <trkpt lat="45.29064" lon="6.21759">
        <ele>1178.4</ele>
        <time>2016-01-30T12:08:09Z</time>
      </trkpt>
      <trkpt lat="45.29062" lon="6.2177">
        <ele>1176.7</ele>
        <time>2016-01-30T12:08:14Z</time>
      </trkpt>
      <trkpt lat="45.29058" lon="6.21781">
        <ele>1175.8</ele>
        <time>2016-01-30T12:08:20Z</time>
      </trkpt>
      <trkpt lat="45.29058" lon="6.21783">
        <ele>1175.5</ele>
        <time>2016-01-30T12:08:21Z</time>
      </trkpt>
      <trkpt lat="45.29057" lon="6.21805">
        <ele>1174.5</ele>
        <time>2016-01-30T12:08:31Z</time>
      </trkpt>
      <trkpt lat="45.29058" lon="6.21817">
        <ele>1173.3</ele>
        <time>2016-01-30T12:08:37Z</time>
      </trkpt>
      <trkpt lat="45.29054" lon="6.21829">
        <ele>1172</ele>
        <time>2016-01-30T12:08:48Z</time>
      </trkpt>
      <trkpt lat="45.29062" lon="6.21834">
        <ele>1170.2</ele>
        <time>2016-01-30T12:09:56Z</time>
      </trkpt>
      <trkpt lat="45.29062" lon="6.21834">
        <ele>1170.4</ele>
        <time>2016-01-30T12:09:57Z</time>
      </trkpt>
      <trkpt lat="45.29063" lon="6.21836">
        <ele>1171.2</ele>
        <time>2016-01-30T12:10:43Z</time>
      </trkpt>
    </trkseg>
  </trk>
</gpx>